<?xml version='1.0' encoding='UTF-8'?>
<gpx version="1.1" creator="https://www.komoot.de" xmlns="http://www.topografix.com/GPX/1/1" xmlns:xsi="http://www.w3.org/2001/XMLSchema-instance" xsi:schemaLocation="http://www.topografix.com/GPX/1/1 http://www.topografix.com/GPX/1/1/gpx.xsd">
  <metadata>
    <name>Fahrradtour von Venlo nach Roermond</name>
    <author>
      <link href="https://www.komoot.de">
        <text>komoot</text>
        <type>text/html</type>
      </link>
    </author>
  </metadata>
  <trk>
    <name>Fahrradtour von Venlo nach Roermond</name>
    <trkseg>
      <trkpt lat="51.381810" lon="6.185404">
        <ele>24.578299</ele>
        <time>2023-06-04T15:41:31.072Z</time>
      </trkpt>
      <trkpt lat="51.381759" lon="6.185331">
        <ele>24.578299</ele>
        <time>2023-06-04T15:41:33.336Z</time>
      </trkpt>
      <trkpt lat="51.381783" lon="6.185193">
        <ele>24.578299</ele>
        <time>2023-06-04T15:41:36.284Z</time>
      </trkpt>
      <trkpt lat="51.381511" lon="6.185645">
        <ele>24.578299</ele>
        <time>2023-06-04T15:41:49.214Z</time>
      </trkpt>
      <trkpt lat="51.381387" lon="6.185482">
        <ele>24.578299</ele>
        <time>2023-06-04T15:41:54.512Z</time>
      </trkpt>
      <trkpt lat="51.381026" lon="6.184983">
        <ele>24.476854</ele>
        <time>2023-06-04T15:42:10.167Z</time>
      </trkpt>
      <trkpt lat="51.380981" lon="6.184920">
        <ele>24.455770</ele>
        <time>2023-06-04T15:42:12.138Z</time>
      </trkpt>
      <trkpt lat="51.380934" lon="6.184731">
        <ele>24.410969</ele>
        <time>2023-06-04T15:42:16.273Z</time>
      </trkpt>
      <trkpt lat="51.380864" lon="6.184619">
        <ele>24.376066</ele>
        <time>2023-06-04T15:42:18.843Z</time>
      </trkpt>
      <trkpt lat="51.380768" lon="6.184467">
        <ele>24.328447</ele>
        <time>2023-06-04T15:42:22.277Z</time>
      </trkpt>
      <trkpt lat="51.380718" lon="6.184388">
        <ele>24.303672</ele>
        <time>2023-06-04T15:42:24.039Z</time>
      </trkpt>
      <trkpt lat="51.380560" lon="6.184374">
        <ele>24.247841</ele>
        <time>2023-06-04T15:42:28.063Z</time>
      </trkpt>
      <trkpt lat="51.380162" lon="6.183840">
        <ele>24.064685</ele>
        <time>2023-06-04T15:42:41.144Z</time>
      </trkpt>
      <trkpt lat="51.380347" lon="6.183476">
        <ele>23.961315</ele>
        <time>2023-06-04T15:42:50.657Z</time>
      </trkpt>
      <trkpt lat="51.380432" lon="6.183318">
        <ele>23.903285</ele>
        <time>2023-06-04T15:42:54.878Z</time>
      </trkpt>
      <trkpt lat="51.381100" lon="6.182680">
        <ele>23.511734</ele>
        <time>2023-06-04T15:43:19.998Z</time>
      </trkpt>
      <trkpt lat="51.381805" lon="6.182163">
        <ele>23.121364</ele>
        <time>2023-06-04T15:43:44.986Z</time>
      </trkpt>
      <trkpt lat="51.381877" lon="6.182112">
        <ele>23.081728</ele>
        <time>2023-06-04T15:43:47.550Z</time>
      </trkpt>
      <trkpt lat="51.381884" lon="6.181705">
        <ele>23.036213</ele>
        <time>2023-06-04T15:43:55.796Z</time>
      </trkpt>
      <trkpt lat="51.381929" lon="6.181656">
        <ele>23.035594</ele>
        <time>2023-06-04T15:43:57.588Z</time>
      </trkpt>
      <trkpt lat="51.381867" lon="6.181378">
        <ele>23.033501</ele>
        <time>2023-06-04T15:44:03.617Z</time>
      </trkpt>
      <trkpt lat="51.381865" lon="6.181056">
        <ele>23.031218</ele>
        <time>2023-06-04T15:44:10.228Z</time>
      </trkpt>
      <trkpt lat="51.381864" lon="6.180079">
        <ele>23.024290</ele>
        <time>2023-06-04T15:44:30.301Z</time>
      </trkpt>
      <trkpt lat="51.381842" lon="6.178964">
        <ele>23.039326</ele>
        <time>2023-06-04T15:44:53.254Z</time>
      </trkpt>
      <trkpt lat="51.381823" lon="6.178848">
        <ele>23.053475</ele>
        <time>2023-06-04T15:44:55.713Z</time>
      </trkpt>
      <trkpt lat="51.381808" lon="6.178748">
        <ele>23.065608</ele>
        <time>2023-06-04T15:44:57.341Z</time>
      </trkpt>
      <trkpt lat="51.381773" lon="6.178527">
        <ele>23.092507</ele>
        <time>2023-06-04T15:45:01.004Z</time>
      </trkpt>
      <trkpt lat="51.381813" lon="6.178509">
        <ele>23.100360</ele>
        <time>2023-06-04T15:45:02.046Z</time>
      </trkpt>
      <trkpt lat="51.381773" lon="6.178527">
        <ele>23.108214</ele>
        <time>2023-06-04T15:45:03.059Z</time>
      </trkpt>
      <trkpt lat="51.381674" lon="6.177959">
        <ele>23.177788</ele>
        <time>2023-06-04T15:45:12.544Z</time>
      </trkpt>
      <trkpt lat="51.381648" lon="6.177820">
        <ele>23.194907</ele>
        <time>2023-06-04T15:45:14.875Z</time>
      </trkpt>
      <trkpt lat="51.381589" lon="6.177506">
        <ele>23.233594</ele>
        <time>2023-06-04T15:45:20.204Z</time>
      </trkpt>
      <trkpt lat="51.381500" lon="6.177015">
        <ele>23.293913</ele>
        <time>2023-06-04T15:45:28.391Z</time>
      </trkpt>
      <trkpt lat="51.381375" lon="6.176338">
        <ele>23.360174</ele>
        <time>2023-06-04T15:45:39.516Z</time>
      </trkpt>
      <trkpt lat="51.381340" lon="6.176177">
        <ele>23.362754</ele>
        <time>2023-06-04T15:45:42.147Z</time>
      </trkpt>
      <trkpt lat="51.381245" lon="6.175768">
        <ele>23.369359</ele>
        <time>2023-06-04T15:45:48.923Z</time>
      </trkpt>
      <trkpt lat="51.381230" lon="6.175714">
        <ele>23.370254</ele>
        <time>2023-06-04T15:45:49.832Z</time>
      </trkpt>
      <trkpt lat="51.381073" lon="6.175251">
        <ele>23.378229</ele>
        <time>2023-06-04T15:45:57.933Z</time>
      </trkpt>
      <trkpt lat="51.380740" lon="6.174582">
        <ele>23.391180</ele>
        <time>2023-06-04T15:46:11.265Z</time>
      </trkpt>
      <trkpt lat="51.380413" lon="6.173908">
        <ele>23.449283</ele>
        <time>2023-06-04T15:46:25.086Z</time>
      </trkpt>
      <trkpt lat="51.380275" lon="6.173539">
        <ele>23.560234</ele>
        <time>2023-06-04T15:46:32.033Z</time>
      </trkpt>
      <trkpt lat="51.380081" lon="6.172971">
        <ele>23.727235</ele>
        <time>2023-06-04T15:46:42.496Z</time>
      </trkpt>
      <trkpt lat="51.379951" lon="6.172328">
        <ele>23.901564</ele>
        <time>2023-06-04T15:46:53.450Z</time>
      </trkpt>
      <trkpt lat="51.379882" lon="6.171888">
        <ele>24.018579</ele>
        <time>2023-06-04T15:47:00.893Z</time>
      </trkpt>
      <trkpt lat="51.379749" lon="6.171076">
        <ele>23.990736</ele>
        <time>2023-06-04T15:47:14.463Z</time>
      </trkpt>
      <trkpt lat="51.379711" lon="6.170849">
        <ele>23.887762</ele>
        <time>2023-06-04T15:47:18.229Z</time>
      </trkpt>
      <trkpt lat="51.379668" lon="6.170738">
        <ele>23.830523</ele>
        <time>2023-06-04T15:47:20.301Z</time>
      </trkpt>
      <trkpt lat="51.379424" lon="6.170563">
        <ele>23.642861</ele>
        <time>2023-06-04T15:47:26.882Z</time>
      </trkpt>
      <trkpt lat="51.379473" lon="6.170347">
        <ele>23.542165</ele>
        <time>2023-06-04T15:47:30.487Z</time>
      </trkpt>
      <trkpt lat="51.379571" lon="6.169922">
        <ele>23.343652</ele>
        <time>2023-06-04T15:47:37.432Z</time>
      </trkpt>
      <trkpt lat="51.379690" lon="6.168737">
        <ele>22.743978</ele>
        <time>2023-06-04T15:47:54.667Z</time>
      </trkpt>
      <trkpt lat="51.379694" lon="6.168702">
        <ele>22.710461</ele>
        <time>2023-06-04T15:47:55.170Z</time>
      </trkpt>
      <trkpt lat="51.379738" lon="6.168246">
        <ele>22.275821</ele>
        <time>2023-06-04T15:48:01.656Z</time>
      </trkpt>
      <trkpt lat="51.379653" lon="6.167099">
        <ele>21.187793</ele>
        <time>2023-06-04T15:48:17.703Z</time>
      </trkpt>
      <trkpt lat="51.379629" lon="6.167103">
        <ele>21.151377</ele>
        <time>2023-06-04T15:48:18.206Z</time>
      </trkpt>
      <trkpt lat="51.378496" lon="6.167460">
        <ele>19.914551</ele>
        <time>2023-06-04T15:48:44.915Z</time>
      </trkpt>
      <trkpt lat="51.378337" lon="6.167510">
        <ele>19.833041</ele>
        <time>2023-06-04T15:48:48.842Z</time>
      </trkpt>
      <trkpt lat="51.378054" lon="6.167634">
        <ele>19.685450</ele>
        <time>2023-06-04T15:48:55.931Z</time>
      </trkpt>
      <trkpt lat="51.377654" lon="6.167866">
        <ele>19.471451</ele>
        <time>2023-06-04T15:49:06.229Z</time>
      </trkpt>
      <trkpt lat="51.376818" lon="6.168344">
        <ele>19.376142</ele>
        <time>2023-06-04T15:49:28.621Z</time>
      </trkpt>
      <trkpt lat="51.376362" lon="6.168543">
        <ele>19.489633</ele>
        <time>2023-06-04T15:49:40.954Z</time>
      </trkpt>
      <trkpt lat="51.376259" lon="6.168585">
        <ele>19.515155</ele>
        <time>2023-06-04T15:49:43.720Z</time>
      </trkpt>
      <trkpt lat="51.375458" lon="6.168861">
        <ele>19.731811</ele>
        <time>2023-06-04T15:50:04.760Z</time>
      </trkpt>
      <trkpt lat="51.375071" lon="6.168891">
        <ele>19.931748</ele>
        <time>2023-06-04T15:50:14.606Z</time>
      </trkpt>
      <trkpt lat="51.374768" lon="6.168902">
        <ele>20.088145</ele>
        <time>2023-06-04T15:50:22.508Z</time>
      </trkpt>
      <trkpt lat="51.374600" lon="6.168900">
        <ele>20.174840</ele>
        <time>2023-06-04T15:50:26.996Z</time>
      </trkpt>
      <trkpt lat="51.373959" lon="6.168808">
        <ele>20.506940</ele>
        <time>2023-06-04T15:50:43.979Z</time>
      </trkpt>
      <trkpt lat="51.373853" lon="6.168768">
        <ele>20.563136</ele>
        <time>2023-06-04T15:50:46.814Z</time>
      </trkpt>
      <trkpt lat="51.373789" lon="6.168781">
        <ele>20.596427</ele>
        <time>2023-06-04T15:50:48.470Z</time>
      </trkpt>
      <trkpt lat="51.373716" lon="6.168685">
        <ele>20.630030</ele>
        <time>2023-06-04T15:50:50.912Z</time>
      </trkpt>
      <trkpt lat="51.373623" lon="6.168714">
        <ele>20.645946</ele>
        <time>2023-06-04T15:50:53.407Z</time>
      </trkpt>
      <trkpt lat="51.373500" lon="6.168643">
        <ele>20.667909</ele>
        <time>2023-06-04T15:50:56.757Z</time>
      </trkpt>
      <trkpt lat="51.373376" lon="6.168627">
        <ele>20.688807</ele>
        <time>2023-06-04T15:50:59.901Z</time>
      </trkpt>
      <trkpt lat="51.372987" lon="6.168438">
        <ele>20.757092</ele>
        <time>2023-06-04T15:51:10.203Z</time>
      </trkpt>
      <trkpt lat="51.372907" lon="6.168399">
        <ele>20.771140</ele>
        <time>2023-06-04T15:51:12.352Z</time>
      </trkpt>
      <trkpt lat="51.372766" lon="6.168318">
        <ele>20.796303</ele>
        <time>2023-06-04T15:51:16.099Z</time>
      </trkpt>
      <trkpt lat="51.372707" lon="6.168293">
        <ele>20.806555</ele>
        <time>2023-06-04T15:51:17.649Z</time>
      </trkpt>
      <trkpt lat="51.372389" lon="6.168084">
        <ele>20.864295</ele>
        <time>2023-06-04T15:51:26.424Z</time>
      </trkpt>
      <trkpt lat="51.371615" lon="6.167640">
        <ele>20.390034</ele>
        <time>2023-06-04T15:51:47.413Z</time>
      </trkpt>
      <trkpt lat="51.371247" lon="6.167468">
        <ele>19.945797</ele>
        <time>2023-06-04T15:51:56.081Z</time>
      </trkpt>
      <trkpt lat="51.371175" lon="6.167434">
        <ele>19.858810</ele>
        <time>2023-06-04T15:51:57.692Z</time>
      </trkpt>
      <trkpt lat="51.371068" lon="6.167363">
        <ele>19.724596</ele>
        <time>2023-06-04T15:52:01.056Z</time>
      </trkpt>
      <trkpt lat="51.370491" lon="6.166974">
        <ele>18.999134</ele>
        <time>2023-06-04T15:52:19.155Z</time>
      </trkpt>
      <trkpt lat="51.370410" lon="6.166906">
        <ele>18.893157</ele>
        <time>2023-06-04T15:52:21.784Z</time>
      </trkpt>
      <trkpt lat="51.370427" lon="6.166847">
        <ele>18.846147</ele>
        <time>2023-06-04T15:52:22.936Z</time>
      </trkpt>
      <trkpt lat="51.370713" lon="6.165797">
        <ele>18.320626</ele>
        <time>2023-06-04T15:52:38.738Z</time>
      </trkpt>
      <trkpt lat="51.370180" lon="6.165087">
        <ele>17.813246</ele>
        <time>2023-06-04T15:52:55.356Z</time>
      </trkpt>
      <trkpt lat="51.369390" lon="6.164001">
        <ele>17.937198</ele>
        <time>2023-06-04T15:53:22.517Z</time>
      </trkpt>
      <trkpt lat="51.368839" lon="6.163264">
        <ele>18.396336</ele>
        <time>2023-06-04T15:53:42.182Z</time>
      </trkpt>
      <trkpt lat="51.368732" lon="6.163120">
        <ele>18.485723</ele>
        <time>2023-06-04T15:53:46.037Z</time>
      </trkpt>
      <trkpt lat="51.368164" lon="6.162391">
        <ele>18.707624</ele>
        <time>2023-06-04T15:54:05.701Z</time>
      </trkpt>
      <trkpt lat="51.367985" lon="6.162242">
        <ele>18.723074</ele>
        <time>2023-06-04T15:54:11.001Z</time>
      </trkpt>
      <trkpt lat="51.367800" lon="6.162154">
        <ele>18.737854</ele>
        <time>2023-06-04T15:54:16.066Z</time>
      </trkpt>
      <trkpt lat="51.367591" lon="6.162105">
        <ele>18.754031</ele>
        <time>2023-06-04T15:54:21.509Z</time>
      </trkpt>
      <trkpt lat="51.367401" lon="6.162131">
        <ele>18.768636</ele>
        <time>2023-06-04T15:54:26.313Z</time>
      </trkpt>
      <trkpt lat="51.367218" lon="6.162229">
        <ele>18.783414</ele>
        <time>2023-06-04T15:54:31.134Z</time>
      </trkpt>
      <trkpt lat="51.367021" lon="6.162466">
        <ele>18.802284</ele>
        <time>2023-06-04T15:54:37.472Z</time>
      </trkpt>
      <trkpt lat="51.366885" lon="6.162280">
        <ele>18.835073</ele>
        <time>2023-06-04T15:54:42.141Z</time>
      </trkpt>
      <trkpt lat="51.366606" lon="6.161957">
        <ele>18.995877</ele>
        <time>2023-06-04T15:54:51.433Z</time>
      </trkpt>
      <trkpt lat="51.366348" lon="6.161581">
        <ele>19.158813</ele>
        <time>2023-06-04T15:55:00.957Z</time>
      </trkpt>
      <trkpt lat="51.366212" lon="6.161302">
        <ele>19.262043</ele>
        <time>2023-06-04T15:55:07.023Z</time>
      </trkpt>
      <trkpt lat="51.366122" lon="6.160946">
        <ele>19.374054</ele>
        <time>2023-06-04T15:55:13.580Z</time>
      </trkpt>
      <trkpt lat="51.366089" lon="6.160670">
        <ele>19.456009</ele>
        <time>2023-06-04T15:55:18.345Z</time>
      </trkpt>
      <trkpt lat="51.366043" lon="6.160497">
        <ele>19.510848</ele>
        <time>2023-06-04T15:55:21.515Z</time>
      </trkpt>
      <trkpt lat="51.365959" lon="6.160318">
        <ele>19.576153</ele>
        <time>2023-06-04T15:55:25.279Z</time>
      </trkpt>
      <trkpt lat="51.365857" lon="6.160191">
        <ele>19.636502</ele>
        <time>2023-06-04T15:55:28.753Z</time>
      </trkpt>
      <trkpt lat="51.365120" lon="6.159576">
        <ele>19.483798</ele>
        <time>2023-06-04T15:55:50.385Z</time>
      </trkpt>
      <trkpt lat="51.364300" lon="6.158806">
        <ele>19.282698</ele>
        <time>2023-06-04T15:56:14.477Z</time>
      </trkpt>
      <trkpt lat="51.363878" lon="6.158418">
        <ele>19.185160</ele>
        <time>2023-06-04T15:56:26.898Z</time>
      </trkpt>
      <trkpt lat="51.363793" lon="6.158340">
        <ele>19.165651</ele>
        <time>2023-06-04T15:56:29.349Z</time>
      </trkpt>
      <trkpt lat="51.363487" lon="6.158064">
        <ele>19.095713</ele>
        <time>2023-06-04T15:56:38.346Z</time>
      </trkpt>
      <trkpt lat="51.363384" lon="6.157992">
        <ele>19.073332</ele>
        <time>2023-06-04T15:56:41.322Z</time>
      </trkpt>
      <trkpt lat="51.362733" lon="6.157373">
        <ele>18.922561</ele>
        <time>2023-06-04T15:57:01.016Z</time>
      </trkpt>
      <trkpt lat="51.362480" lon="6.157259">
        <ele>18.901642</ele>
        <time>2023-06-04T15:57:07.957Z</time>
      </trkpt>
      <trkpt lat="51.361668" lon="6.156494">
        <ele>18.849652</ele>
        <time>2023-06-04T15:57:32.784Z</time>
      </trkpt>
      <trkpt lat="51.361119" lon="6.155993">
        <ele>18.814781</ele>
        <time>2023-06-04T15:57:48.915Z</time>
      </trkpt>
      <trkpt lat="51.360802" lon="6.155827">
        <ele>18.803896</ele>
        <time>2023-06-04T15:57:57.662Z</time>
      </trkpt>
      <trkpt lat="51.360502" lon="6.155729">
        <ele>18.794039</ele>
        <time>2023-06-04T15:58:05.753Z</time>
      </trkpt>
      <trkpt lat="51.360439" lon="6.155726">
        <ele>18.792010</ele>
        <time>2023-06-04T15:58:07.446Z</time>
      </trkpt>
      <trkpt lat="51.360251" lon="6.155216">
        <ele>18.780105</ele>
        <time>2023-06-04T15:58:17.023Z</time>
      </trkpt>
      <trkpt lat="51.360196" lon="6.155018">
        <ele>18.775749</ele>
        <time>2023-06-04T15:58:20.601Z</time>
      </trkpt>
      <trkpt lat="51.360108" lon="6.154837">
        <ele>18.771138</ele>
        <time>2023-06-04T15:58:24.263Z</time>
      </trkpt>
      <trkpt lat="51.359896" lon="6.154594">
        <ele>18.762745</ele>
        <time>2023-06-04T15:58:31.098Z</time>
      </trkpt>
      <trkpt lat="51.359671" lon="6.154248">
        <ele>18.745538</ele>
        <time>2023-06-04T15:58:39.315Z</time>
      </trkpt>
      <trkpt lat="51.359608" lon="6.154069">
        <ele>18.733659</ele>
        <time>2023-06-04T15:58:42.661Z</time>
      </trkpt>
      <trkpt lat="51.359589" lon="6.153747">
        <ele>18.714961</ele>
        <time>2023-06-04T15:58:48.069Z</time>
      </trkpt>
      <trkpt lat="51.359625" lon="6.153267">
        <ele>18.687013</ele>
        <time>2023-06-04T15:58:56.070Z</time>
      </trkpt>
      <trkpt lat="51.358762" lon="6.152477">
        <ele>18.594983</ele>
        <time>2023-06-04T15:59:20.965Z</time>
      </trkpt>
      <trkpt lat="51.358421" lon="6.152207">
        <ele>18.379238</ele>
        <time>2023-06-04T15:59:29.870Z</time>
      </trkpt>
      <trkpt lat="51.358072" lon="6.151726">
        <ele>18.082095</ele>
        <time>2023-06-04T15:59:40.707Z</time>
      </trkpt>
      <trkpt lat="51.357971" lon="6.151658">
        <ele>18.011391</ele>
        <time>2023-06-04T15:59:43.287Z</time>
      </trkpt>
      <trkpt lat="51.357641" lon="6.151542">
        <ele>17.793363</ele>
        <time>2023-06-04T15:59:51.157Z</time>
      </trkpt>
      <trkpt lat="51.357573" lon="6.151488">
        <ele>17.744381</ele>
        <time>2023-06-04T15:59:52.905Z</time>
      </trkpt>
      <trkpt lat="51.356200" lon="6.149614">
        <ele>17.829978</ele>
        <time>2023-06-04T16:00:37.092Z</time>
      </trkpt>
      <trkpt lat="51.355929" lon="6.149170">
        <ele>17.948046</ele>
        <time>2023-06-04T16:00:47.783Z</time>
      </trkpt>
      <trkpt lat="51.355734" lon="6.148761">
        <ele>18.314749</ele>
        <time>2023-06-04T16:00:56.595Z</time>
      </trkpt>
      <trkpt lat="51.355594" lon="6.148364">
        <ele>18.739855</ele>
        <time>2023-06-04T16:01:04.418Z</time>
      </trkpt>
      <trkpt lat="51.355506" lon="6.148029">
        <ele>19.078721</ele>
        <time>2023-06-04T16:01:10.636Z</time>
      </trkpt>
      <trkpt lat="51.355492" lon="6.147899">
        <ele>19.201723</ele>
        <time>2023-06-04T16:01:12.893Z</time>
      </trkpt>
      <trkpt lat="51.355480" lon="6.147790">
        <ele>19.304922</ele>
        <time>2023-06-04T16:01:14.763Z</time>
      </trkpt>
      <trkpt lat="51.355444" lon="6.147502">
        <ele>19.578782</ele>
        <time>2023-06-04T16:01:19.783Z</time>
      </trkpt>
      <trkpt lat="51.355379" lon="6.147361">
        <ele>19.742193</ele>
        <time>2023-06-04T16:01:22.797Z</time>
      </trkpt>
      <trkpt lat="51.355195" lon="6.147089">
        <ele>20.116085</ele>
        <time>2023-06-04T16:01:29.820Z</time>
      </trkpt>
      <trkpt lat="51.355035" lon="6.146863">
        <ele>20.434636</ele>
        <time>2023-06-04T16:01:35.748Z</time>
      </trkpt>
      <trkpt lat="51.354959" lon="6.146785">
        <ele>20.569416</ele>
        <time>2023-06-04T16:01:38.178Z</time>
      </trkpt>
      <trkpt lat="51.354899" lon="6.146780">
        <ele>20.659122</ele>
        <time>2023-06-04T16:01:39.825Z</time>
      </trkpt>
      <trkpt lat="51.354750" lon="6.146865">
        <ele>20.535692</ele>
        <time>2023-06-04T16:01:44.023Z</time>
      </trkpt>
      <trkpt lat="51.354683" lon="6.146876">
        <ele>20.480891</ele>
        <time>2023-06-04T16:01:45.777Z</time>
      </trkpt>
      <trkpt lat="51.354619" lon="6.146824">
        <ele>20.422497</ele>
        <time>2023-06-04T16:01:47.664Z</time>
      </trkpt>
      <trkpt lat="51.353843" lon="6.145613">
        <ele>19.540838</ele>
        <time>2023-06-04T16:02:12.180Z</time>
      </trkpt>
      <trkpt lat="51.352690" lon="6.143823">
        <ele>17.782632</ele>
        <time>2023-06-04T16:02:47.076Z</time>
      </trkpt>
      <trkpt lat="51.352124" lon="6.142744">
        <ele>17.058662</ele>
        <time>2023-06-04T16:03:08.219Z</time>
      </trkpt>
      <trkpt lat="51.351466" lon="6.141670">
        <ele>17.086453</ele>
        <time>2023-06-04T16:03:32.114Z</time>
      </trkpt>
      <trkpt lat="51.351048" lon="6.140935">
        <ele>17.113377</ele>
        <time>2023-06-04T16:03:48.130Z</time>
      </trkpt>
      <trkpt lat="51.350968" lon="6.140785">
        <ele>17.153287</ele>
        <time>2023-06-04T16:03:51.313Z</time>
      </trkpt>
      <trkpt lat="51.350943" lon="6.140723">
        <ele>17.168219</ele>
        <time>2023-06-04T16:03:52.544Z</time>
      </trkpt>
      <trkpt lat="51.350890" lon="6.140547">
        <ele>17.207752</ele>
        <time>2023-06-04T16:03:55.858Z</time>
      </trkpt>
      <trkpt lat="51.349960" lon="6.139041">
        <ele>17.636264</ele>
        <time>2023-06-04T16:04:31.272Z</time>
      </trkpt>
      <trkpt lat="51.349859" lon="6.138877">
        <ele>17.682866</ele>
        <time>2023-06-04T16:04:35.058Z</time>
      </trkpt>
      <trkpt lat="51.349717" lon="6.138647">
        <ele>17.743748</ele>
        <time>2023-06-04T16:04:40.345Z</time>
      </trkpt>
      <trkpt lat="51.348840" lon="6.137225">
        <ele>18.118237</ele>
        <time>2023-06-04T16:05:13.681Z</time>
      </trkpt>
      <trkpt lat="51.348632" lon="6.136893">
        <ele>18.206357</ele>
        <time>2023-06-04T16:05:21.606Z</time>
      </trkpt>
      <trkpt lat="51.347219" lon="6.134606">
        <ele>18.857688</ele>
        <time>2023-06-04T16:06:15.387Z</time>
      </trkpt>
      <trkpt lat="51.346803" lon="6.133932">
        <ele>19.012091</ele>
        <time>2023-06-04T16:06:30.984Z</time>
      </trkpt>
      <trkpt lat="51.346776" lon="6.133889">
        <ele>19.022027</ele>
        <time>2023-06-04T16:06:31.968Z</time>
      </trkpt>
      <trkpt lat="51.346527" lon="6.133486">
        <ele>19.114397</ele>
        <time>2023-06-04T16:06:41.373Z</time>
      </trkpt>
      <trkpt lat="51.346376" lon="6.133148">
        <ele>19.182113</ele>
        <time>2023-06-04T16:06:48.368Z</time>
      </trkpt>
      <trkpt lat="51.346165" lon="6.132690">
        <ele>19.274849</ele>
        <time>2023-06-04T16:06:57.942Z</time>
      </trkpt>
      <trkpt lat="51.346083" lon="6.132538">
        <ele>19.309300</ele>
        <time>2023-06-04T16:07:01.314Z</time>
      </trkpt>
      <trkpt lat="51.345889" lon="6.132345">
        <ele>19.374513</ele>
        <time>2023-06-04T16:07:07.434Z</time>
      </trkpt>
      <trkpt lat="51.345686" lon="6.132024">
        <ele>19.455976</ele>
        <time>2023-06-04T16:07:15.047Z</time>
      </trkpt>
      <trkpt lat="51.345472" lon="6.131610">
        <ele>19.551811</ele>
        <time>2023-06-04T16:07:24.033Z</time>
      </trkpt>
      <trkpt lat="51.345308" lon="6.131296">
        <ele>19.624806</ele>
        <time>2023-06-04T16:07:30.868Z</time>
      </trkpt>
      <trkpt lat="51.345242" lon="6.131167">
        <ele>19.654544</ele>
        <time>2023-06-04T16:07:33.617Z</time>
      </trkpt>
      <trkpt lat="51.344952" lon="6.130612">
        <ele>19.783588</ele>
        <time>2023-06-04T16:07:45.614Z</time>
      </trkpt>
      <trkpt lat="51.344928" lon="6.130502">
        <ele>19.801645</ele>
        <time>2023-06-04T16:07:47.562Z</time>
      </trkpt>
      <trkpt lat="51.344872" lon="6.130393">
        <ele>19.781322</ele>
        <time>2023-06-04T16:07:49.936Z</time>
      </trkpt>
      <trkpt lat="51.344436" lon="6.129545">
        <ele>19.623162</ele>
        <time>2023-06-04T16:08:08.019Z</time>
      </trkpt>
      <trkpt lat="51.344155" lon="6.128908">
        <ele>19.510865</ele>
        <time>2023-06-04T16:08:20.211Z</time>
      </trkpt>
      <trkpt lat="51.343838" lon="6.128186">
        <ele>19.380163</ele>
        <time>2023-06-04T16:08:34.184Z</time>
      </trkpt>
      <trkpt lat="51.343445" lon="6.127435">
        <ele>19.123849</ele>
        <time>2023-06-04T16:08:49.656Z</time>
      </trkpt>
      <trkpt lat="51.343082" lon="6.126742">
        <ele>18.887235</ele>
        <time>2023-06-04T16:09:04.029Z</time>
      </trkpt>
      <trkpt lat="51.342684" lon="6.125977">
        <ele>18.635863</ele>
        <time>2023-06-04T16:09:19.877Z</time>
      </trkpt>
      <trkpt lat="51.342588" lon="6.125873">
        <ele>18.641718</ele>
        <time>2023-06-04T16:09:22.845Z</time>
      </trkpt>
      <trkpt lat="51.342435" lon="6.125585">
        <ele>18.653648</ele>
        <time>2023-06-04T16:09:29.031Z</time>
      </trkpt>
      <trkpt lat="51.342302" lon="6.125253">
        <ele>18.666093</ele>
        <time>2023-06-04T16:09:35.468Z</time>
      </trkpt>
      <trkpt lat="51.342120" lon="6.124910">
        <ele>18.680294</ele>
        <time>2023-06-04T16:09:42.824Z</time>
      </trkpt>
      <trkpt lat="51.341808" lon="6.124765">
        <ele>18.696706</ele>
        <time>2023-06-04T16:09:51.215Z</time>
      </trkpt>
      <trkpt lat="51.341580" lon="6.124660">
        <ele>18.708690</ele>
        <time>2023-06-04T16:09:57.340Z</time>
      </trkpt>
      <trkpt lat="51.341498" lon="6.124558">
        <ele>18.713936</ele>
        <time>2023-06-04T16:10:00.080Z</time>
      </trkpt>
      <trkpt lat="51.341306" lon="6.124310">
        <ele>18.748406</ele>
        <time>2023-06-04T16:10:06.622Z</time>
      </trkpt>
      <trkpt lat="51.340911" lon="6.123715">
        <ele>19.694020</ele>
        <time>2023-06-04T16:10:21.544Z</time>
      </trkpt>
      <trkpt lat="51.340520" lon="6.123134">
        <ele>20.624132</ele>
        <time>2023-06-04T16:10:36.704Z</time>
      </trkpt>
      <trkpt lat="51.340438" lon="6.123243">
        <ele>20.809958</ele>
        <time>2023-06-04T16:10:39.744Z</time>
      </trkpt>
      <trkpt lat="51.340274" lon="6.123322">
        <ele>21.108550</ele>
        <time>2023-06-04T16:10:44.650Z</time>
      </trkpt>
      <trkpt lat="51.340049" lon="6.123506">
        <ele>21.549051</ele>
        <time>2023-06-04T16:10:51.808Z</time>
      </trkpt>
      <trkpt lat="51.339903" lon="6.123712">
        <ele>21.908317</ele>
        <time>2023-06-04T16:10:57.279Z</time>
      </trkpt>
      <trkpt lat="51.339787" lon="6.123891">
        <ele>22.398661</ele>
        <time>2023-06-04T16:11:01.977Z</time>
      </trkpt>
      <trkpt lat="51.339585" lon="6.124379">
        <ele>23.511622</ele>
        <time>2023-06-04T16:11:12.620Z</time>
      </trkpt>
      <trkpt lat="51.339525" lon="6.124463">
        <ele>23.754205</ele>
        <time>2023-06-04T16:11:14.974Z</time>
      </trkpt>
      <trkpt lat="51.339062" lon="6.123438">
        <ele>26.158984</ele>
        <time>2023-06-04T16:11:38.959Z</time>
      </trkpt>
      <trkpt lat="51.338549" lon="6.122452">
        <ele>27.692917</ele>
        <time>2023-06-04T16:12:02.152Z</time>
      </trkpt>
      <trkpt lat="51.338220" lon="6.121820">
        <ele>28.135550</ele>
        <time>2023-06-04T16:12:16.407Z</time>
      </trkpt>
      <trkpt lat="51.338185" lon="6.121754">
        <ele>28.182130</ele>
        <time>2023-06-04T16:12:17.879Z</time>
      </trkpt>
      <trkpt lat="51.337615" lon="6.120773">
        <ele>28.835403</ele>
        <time>2023-06-04T16:12:39.810Z</time>
      </trkpt>
      <trkpt lat="51.337200" lon="6.120160">
        <ele>27.536025</ele>
        <time>2023-06-04T16:12:52.400Z</time>
      </trkpt>
      <trkpt lat="51.336168" lon="6.118983">
        <ele>24.674374</ele>
        <time>2023-06-04T16:13:18.639Z</time>
      </trkpt>
      <trkpt lat="51.335904" lon="6.118703">
        <ele>24.259642</ele>
        <time>2023-06-04T16:13:25.463Z</time>
      </trkpt>
      <trkpt lat="51.335790" lon="6.118670">
        <ele>24.107930</ele>
        <time>2023-06-04T16:13:27.957Z</time>
      </trkpt>
      <trkpt lat="51.335690" lon="6.118690">
        <ele>23.975956</ele>
        <time>2023-06-04T16:13:30.213Z</time>
      </trkpt>
      <trkpt lat="51.335582" lon="6.118755">
        <ele>23.824856</ele>
        <time>2023-06-04T16:13:32.828Z</time>
      </trkpt>
      <trkpt lat="51.335487" lon="6.118812">
        <ele>23.691995</ele>
        <time>2023-06-04T16:13:35.114Z</time>
      </trkpt>
      <trkpt lat="51.335119" lon="6.119036">
        <ele>23.176407</ele>
        <time>2023-06-04T16:13:44.539Z</time>
      </trkpt>
      <trkpt lat="51.334902" lon="6.119172">
        <ele>22.871225</ele>
        <time>2023-06-04T16:13:50.445Z</time>
      </trkpt>
      <trkpt lat="51.334790" lon="6.119237">
        <ele>22.715211</ele>
        <time>2023-06-04T16:13:53.435Z</time>
      </trkpt>
      <trkpt lat="51.334053" lon="6.119696">
        <ele>22.553209</ele>
        <time>2023-06-04T16:14:14.467Z</time>
      </trkpt>
      <trkpt lat="51.334031" lon="6.119714">
        <ele>22.560618</ele>
        <time>2023-06-04T16:14:15.151Z</time>
      </trkpt>
      <trkpt lat="51.333699" lon="6.119934">
        <ele>22.668364</ele>
        <time>2023-06-04T16:14:24.909Z</time>
      </trkpt>
      <trkpt lat="51.333599" lon="6.120033">
        <ele>22.703621</ele>
        <time>2023-06-04T16:14:28.105Z</time>
      </trkpt>
      <trkpt lat="51.333457" lon="6.120346">
        <ele>22.776088</ele>
        <time>2023-06-04T16:14:34.449Z</time>
      </trkpt>
      <trkpt lat="51.333453" lon="6.120402">
        <ele>22.786648</ele>
        <time>2023-06-04T16:14:35.382Z</time>
      </trkpt>
      <trkpt lat="51.333446" lon="6.120501">
        <ele>22.805314</ele>
        <time>2023-06-04T16:14:37.010Z</time>
      </trkpt>
      <trkpt lat="51.333403" lon="6.120523">
        <ele>22.818850</ele>
        <time>2023-06-04T16:14:38.237Z</time>
      </trkpt>
      <trkpt lat="51.333296" lon="6.120768">
        <ele>22.874851</ele>
        <time>2023-06-04T16:14:43.253Z</time>
      </trkpt>
      <trkpt lat="51.333014" lon="6.121118">
        <ele>22.794848</ele>
        <time>2023-06-04T16:14:52.713Z</time>
      </trkpt>
      <trkpt lat="51.332752" lon="6.121308">
        <ele>22.571426</ele>
        <time>2023-06-04T16:15:00.039Z</time>
      </trkpt>
      <trkpt lat="51.332594" lon="6.121375">
        <ele>22.444466</ele>
        <time>2023-06-04T16:15:04.094Z</time>
      </trkpt>
      <trkpt lat="51.332301" lon="6.121413">
        <ele>22.216135</ele>
        <time>2023-06-04T16:15:10.977Z</time>
      </trkpt>
      <trkpt lat="51.332184" lon="6.121238">
        <ele>22.091748</ele>
        <time>2023-06-04T16:15:14.618Z</time>
      </trkpt>
      <trkpt lat="51.331891" lon="6.120795">
        <ele>21.778671</ele>
        <time>2023-06-04T16:15:23.981Z</time>
      </trkpt>
      <trkpt lat="51.331800" lon="6.120575">
        <ele>21.650624</ele>
        <time>2023-06-04T16:15:27.985Z</time>
      </trkpt>
      <trkpt lat="51.331710" lon="6.120300">
        <ele>21.519645</ele>
        <time>2023-06-04T16:15:32.818Z</time>
      </trkpt>
      <trkpt lat="51.331160" lon="6.119527">
        <ele>21.293063</ele>
        <time>2023-06-04T16:15:51.309Z</time>
      </trkpt>
      <trkpt lat="51.330905" lon="6.119422">
        <ele>21.211556</ele>
        <time>2023-06-04T16:15:58.086Z</time>
      </trkpt>
      <trkpt lat="51.330767" lon="6.119432">
        <ele>21.168793</ele>
        <time>2023-06-04T16:16:01.731Z</time>
      </trkpt>
      <trkpt lat="51.330719" lon="6.119381">
        <ele>21.150959</ele>
        <time>2023-06-04T16:16:03.015Z</time>
      </trkpt>
      <trkpt lat="51.330531" lon="6.119411">
        <ele>21.092474</ele>
        <time>2023-06-04T16:16:08.057Z</time>
      </trkpt>
      <trkpt lat="51.330487" lon="6.119449">
        <ele>21.076997</ele>
        <time>2023-06-04T16:16:09.387Z</time>
      </trkpt>
      <trkpt lat="51.330425" lon="6.119458">
        <ele>21.057726</ele>
        <time>2023-06-04T16:16:11.015Z</time>
      </trkpt>
      <trkpt lat="51.329759" lon="6.119392">
        <ele>20.892299</ele>
        <time>2023-06-04T16:16:28.664Z</time>
      </trkpt>
      <trkpt lat="51.329434" lon="6.119417">
        <ele>20.824788</ele>
        <time>2023-06-04T16:16:37.463Z</time>
      </trkpt>
      <trkpt lat="51.329340" lon="6.119369">
        <ele>20.804316</ele>
        <time>2023-06-04T16:16:40.059Z</time>
      </trkpt>
      <trkpt lat="51.329330" lon="6.119288">
        <ele>20.793612</ele>
        <time>2023-06-04T16:16:41.194Z</time>
      </trkpt>
      <trkpt lat="51.329197" lon="6.119308">
        <ele>20.765895</ele>
        <time>2023-06-04T16:16:44.816Z</time>
      </trkpt>
      <trkpt lat="51.327750" lon="6.119068">
        <ele>20.393265</ele>
        <time>2023-06-04T16:17:21.048Z</time>
      </trkpt>
      <trkpt lat="51.327401" lon="6.119072">
        <ele>20.283881</ele>
        <time>2023-06-04T16:17:29.760Z</time>
      </trkpt>
      <trkpt lat="51.327233" lon="6.119133">
        <ele>20.229890</ele>
        <time>2023-06-04T16:17:34.105Z</time>
      </trkpt>
      <trkpt lat="51.327057" lon="6.119251">
        <ele>20.170084</ele>
        <time>2023-06-04T16:17:39.247Z</time>
      </trkpt>
      <trkpt lat="51.327007" lon="6.119198">
        <ele>20.151288</ele>
        <time>2023-06-04T16:17:40.805Z</time>
      </trkpt>
      <trkpt lat="51.326951" lon="6.119045">
        <ele>20.116562</ele>
        <time>2023-06-04T16:17:43.636Z</time>
      </trkpt>
      <trkpt lat="51.326865" lon="6.118913">
        <ele>20.079215</ele>
        <time>2023-06-04T16:17:46.835Z</time>
      </trkpt>
      <trkpt lat="51.326586" lon="6.118798">
        <ele>20.117453</ele>
        <time>2023-06-04T16:17:54.520Z</time>
      </trkpt>
      <trkpt lat="51.325722" lon="6.118568">
        <ele>20.547457</ele>
        <time>2023-06-04T16:18:18.324Z</time>
      </trkpt>
      <trkpt lat="51.324131" lon="6.117859">
        <ele>21.281494</ele>
        <time>2023-06-04T16:19:02.774Z</time>
      </trkpt>
      <trkpt lat="51.323216" lon="6.117281">
        <ele>21.664778</ele>
        <time>2023-06-04T16:19:29.135Z</time>
      </trkpt>
      <trkpt lat="51.322296" lon="6.116640">
        <ele>21.870832</ele>
        <time>2023-06-04T16:19:55.971Z</time>
      </trkpt>
      <trkpt lat="51.319351" lon="6.113999">
        <ele>22.541279</ele>
        <time>2023-06-04T16:21:24.576Z</time>
      </trkpt>
      <trkpt lat="51.319230" lon="6.114370">
        <ele>22.683712</ele>
        <time>2023-06-04T16:21:31.819Z</time>
      </trkpt>
      <trkpt lat="51.319185" lon="6.114891">
        <ele>22.862725</ele>
        <time>2023-06-04T16:21:40.895Z</time>
      </trkpt>
      <trkpt lat="51.319137" lon="6.115151">
        <ele>22.954999</ele>
        <time>2023-06-04T16:21:45.551Z</time>
      </trkpt>
      <trkpt lat="51.319093" lon="6.115334">
        <ele>23.021735</ele>
        <time>2023-06-04T16:21:48.949Z</time>
      </trkpt>
      <trkpt lat="51.318984" lon="6.115562">
        <ele>23.116609</ele>
        <time>2023-06-04T16:21:53.860Z</time>
      </trkpt>
      <trkpt lat="51.317115" lon="6.113931">
        <ele>24.057181</ele>
        <time>2023-06-04T16:23:04.241Z</time>
      </trkpt>
      <trkpt lat="51.316146" lon="6.113087">
        <ele>24.218673</ele>
        <time>2023-06-04T16:23:40.600Z</time>
      </trkpt>
      <trkpt lat="51.315762" lon="6.112836">
        <ele>24.179195</ele>
        <time>2023-06-04T16:23:54.269Z</time>
      </trkpt>
      <trkpt lat="51.312747" lon="6.110234">
        <ele>22.589061</ele>
        <time>2023-06-04T16:25:44.837Z</time>
      </trkpt>
      <trkpt lat="51.312520" lon="6.109967">
        <ele>22.759556</ele>
        <time>2023-06-04T16:25:54.143Z</time>
      </trkpt>
      <trkpt lat="51.312408" lon="6.109577">
        <ele>22.925167</ele>
        <time>2023-06-04T16:26:03.021Z</time>
      </trkpt>
      <trkpt lat="51.312355" lon="6.109535">
        <ele>22.961679</ele>
        <time>2023-06-04T16:26:04.954Z</time>
      </trkpt>
      <trkpt lat="51.312298" lon="6.109505">
        <ele>22.998722</ele>
        <time>2023-06-04T16:26:06.946Z</time>
      </trkpt>
      <trkpt lat="51.312197" lon="6.109618">
        <ele>23.074805</ele>
        <time>2023-06-04T16:26:11.035Z</time>
      </trkpt>
      <trkpt lat="51.312074" lon="6.109663">
        <ele>23.152695</ele>
        <time>2023-06-04T16:26:15.221Z</time>
      </trkpt>
      <trkpt lat="51.311837" lon="6.109563">
        <ele>23.304003</ele>
        <time>2023-06-04T16:26:23.328Z</time>
      </trkpt>
      <trkpt lat="51.311566" lon="6.109356">
        <ele>23.489387</ele>
        <time>2023-06-04T16:26:33.283Z</time>
      </trkpt>
      <trkpt lat="51.310529" lon="6.108572">
        <ele>24.495770</ele>
        <time>2023-06-04T16:27:11.327Z</time>
      </trkpt>
      <trkpt lat="51.310023" lon="6.108142">
        <ele>25.060712</ele>
        <time>2023-06-04T16:27:30.308Z</time>
      </trkpt>
      <trkpt lat="51.309479" lon="6.107588">
        <ele>25.540919</ele>
        <time>2023-06-04T16:27:51.685Z</time>
      </trkpt>
      <trkpt lat="51.308859" lon="6.106796">
        <ele>25.782562</ele>
        <time>2023-06-04T16:28:17.934Z</time>
      </trkpt>
      <trkpt lat="51.305976" lon="6.102437">
        <ele>25.687885</ele>
        <time>2023-06-04T16:30:27.904Z</time>
      </trkpt>
      <trkpt lat="51.304350" lon="6.099969">
        <ele>25.409169</ele>
        <time>2023-06-04T16:31:41.272Z</time>
      </trkpt>
      <trkpt lat="51.302066" lon="6.096508">
        <ele>25.432948</ele>
        <time>2023-06-04T16:33:24.343Z</time>
      </trkpt>
      <trkpt lat="51.301940" lon="6.096244">
        <ele>25.463124</ele>
        <time>2023-06-04T16:33:31.222Z</time>
      </trkpt>
      <trkpt lat="51.301755" lon="6.095966">
        <ele>25.509671</ele>
        <time>2023-06-04T16:33:39.628Z</time>
      </trkpt>
      <trkpt lat="51.301629" lon="6.095819">
        <ele>25.564905</ele>
        <time>2023-06-04T16:33:44.801Z</time>
      </trkpt>
      <trkpt lat="51.301034" lon="6.094946">
        <ele>25.850864</ele>
        <time>2023-06-04T16:34:11.550Z</time>
      </trkpt>
      <trkpt lat="51.298445" lon="6.091089">
        <ele>25.550079</ele>
        <time>2023-06-04T16:36:07.409Z</time>
      </trkpt>
      <trkpt lat="51.296453" lon="6.087999">
        <ele>24.099037</ele>
        <time>2023-06-04T16:37:35.728Z</time>
      </trkpt>
      <trkpt lat="51.296158" lon="6.087608">
        <ele>24.608610</ele>
        <time>2023-06-04T16:37:48.431Z</time>
      </trkpt>
      <trkpt lat="51.295370" lon="6.086712">
        <ele>25.894527</ele>
        <time>2023-06-04T16:38:20.590Z</time>
      </trkpt>
      <trkpt lat="51.294592" lon="6.085975">
        <ele>26.915404</ele>
        <time>2023-06-04T16:38:50.781Z</time>
      </trkpt>
      <trkpt lat="51.294109" lon="6.085572">
        <ele>27.470392</ele>
        <time>2023-06-04T16:39:08.866Z</time>
      </trkpt>
      <trkpt lat="51.292725" lon="6.084561">
        <ele>27.396438</ele>
        <time>2023-06-04T16:39:58.368Z</time>
      </trkpt>
      <trkpt lat="51.292170" lon="6.084145">
        <ele>26.852038</ele>
        <time>2023-06-04T16:40:16.776Z</time>
      </trkpt>
      <trkpt lat="51.291750" lon="6.083780">
        <ele>26.352355</ele>
        <time>2023-06-04T16:40:31.243Z</time>
      </trkpt>
      <trkpt lat="51.291706" lon="6.083596">
        <ele>26.178657</ele>
        <time>2023-06-04T16:40:34.982Z</time>
      </trkpt>
      <trkpt lat="51.291745" lon="6.083305">
        <ele>25.916244</ele>
        <time>2023-06-04T16:40:39.380Z</time>
      </trkpt>
      <trkpt lat="51.291736" lon="6.083220">
        <ele>25.840229</ele>
        <time>2023-06-04T16:40:40.638Z</time>
      </trkpt>
      <trkpt lat="51.291919" lon="6.083033">
        <ele>25.534018</ele>
        <time>2023-06-04T16:40:45.565Z</time>
      </trkpt>
      <trkpt lat="51.293316" lon="6.081817">
        <ele>23.037071</ele>
        <time>2023-06-04T16:41:20.769Z</time>
      </trkpt>
      <trkpt lat="51.295017" lon="6.080327">
        <ele>19.513858</ele>
        <time>2023-06-04T16:42:03.364Z</time>
      </trkpt>
      <trkpt lat="51.294984" lon="6.080036">
        <ele>19.208941</ele>
        <time>2023-06-04T16:42:10.490Z</time>
      </trkpt>
      <trkpt lat="51.294910" lon="6.079723">
        <ele>18.863939</ele>
        <time>2023-06-04T16:42:18.536Z</time>
      </trkpt>
      <trkpt lat="51.294811" lon="6.079483">
        <ele>18.567506</ele>
        <time>2023-06-04T16:42:25.547Z</time>
      </trkpt>
      <trkpt lat="51.294730" lon="6.079417">
        <ele>18.417617</ele>
        <time>2023-06-04T16:42:29.130Z</time>
      </trkpt>
      <trkpt lat="51.294699" lon="6.079311">
        <ele>18.296967</ele>
        <time>2023-06-04T16:42:30.914Z</time>
      </trkpt>
      <trkpt lat="51.294486" lon="6.078570">
        <ele>17.569354</ele>
        <time>2023-06-04T16:42:43.862Z</time>
      </trkpt>
      <trkpt lat="51.294080" lon="6.076900">
        <ele>16.913729</ele>
        <time>2023-06-04T16:43:13.565Z</time>
      </trkpt>
      <trkpt lat="51.293837" lon="6.075736">
        <ele>16.995713</ele>
        <time>2023-06-04T16:43:34.432Z</time>
      </trkpt>
      <trkpt lat="51.293454" lon="6.074177">
        <ele>19.226200</ele>
        <time>2023-06-04T16:44:05.198Z</time>
      </trkpt>
      <trkpt lat="51.291497" lon="6.075851">
        <ele>26.910823</ele>
        <time>2023-06-04T16:45:35.966Z</time>
      </trkpt>
      <trkpt lat="51.291341" lon="6.075960">
        <ele>27.497966</ele>
        <time>2023-06-04T16:45:42.757Z</time>
      </trkpt>
      <trkpt lat="51.291203" lon="6.076057">
        <ele>27.754254</ele>
        <time>2023-06-04T16:45:48.786Z</time>
      </trkpt>
      <trkpt lat="51.291116" lon="6.075872">
        <ele>28.000358</ele>
        <time>2023-06-04T16:45:54.531Z</time>
      </trkpt>
      <trkpt lat="51.290883" lon="6.074899">
        <ele>29.108122</ele>
        <time>2023-06-04T16:46:20.398Z</time>
      </trkpt>
      <trkpt lat="51.290732" lon="6.074497">
        <ele>29.606711</ele>
        <time>2023-06-04T16:46:32.151Z</time>
      </trkpt>
      <trkpt lat="51.290491" lon="6.073944">
        <ele>30.323361</ele>
        <time>2023-06-04T16:46:49.361Z</time>
      </trkpt>
      <trkpt lat="51.290474" lon="6.073904">
        <ele>30.374782</ele>
        <time>2023-06-04T16:46:50.620Z</time>
      </trkpt>
      <trkpt lat="51.289540" lon="6.071747">
        <ele>30.418914</ele>
        <time>2023-06-04T16:47:58.510Z</time>
      </trkpt>
      <trkpt lat="51.289202" lon="6.070987">
        <ele>30.451330</ele>
        <time>2023-06-04T16:48:14.964Z</time>
      </trkpt>
      <trkpt lat="51.288729" lon="6.069942">
        <ele>30.550738</ele>
        <time>2023-06-04T16:48:37.844Z</time>
      </trkpt>
      <trkpt lat="51.288294" lon="6.068895">
        <ele>30.554884</ele>
        <time>2023-06-04T16:48:59.635Z</time>
      </trkpt>
      <trkpt lat="51.288223" lon="6.068720">
        <ele>30.489426</ele>
        <time>2023-06-04T16:49:03.262Z</time>
      </trkpt>
      <trkpt lat="51.287589" lon="6.068032">
        <ele>30.104966</ele>
        <time>2023-06-04T16:49:24.761Z</time>
      </trkpt>
      <trkpt lat="51.287032" lon="6.067428">
        <ele>29.767276</ele>
        <time>2023-06-04T16:49:42.850Z</time>
      </trkpt>
      <trkpt lat="51.286773" lon="6.067265">
        <ele>29.253953</ele>
        <time>2023-06-04T16:49:49.453Z</time>
      </trkpt>
      <trkpt lat="51.286666" lon="6.067119">
        <ele>28.917567</ele>
        <time>2023-06-04T16:49:52.757Z</time>
      </trkpt>
      <trkpt lat="51.286681" lon="6.067094">
        <ele>28.865752</ele>
        <time>2023-06-04T16:49:53.261Z</time>
      </trkpt>
      <trkpt lat="51.286667" lon="6.066855">
        <ele>28.506733</ele>
        <time>2023-06-04T16:49:56.741Z</time>
      </trkpt>
      <trkpt lat="51.286688" lon="6.066538">
        <ele>28.029966</ele>
        <time>2023-06-04T16:50:01.337Z</time>
      </trkpt>
      <trkpt lat="51.286782" lon="6.066141">
        <ele>27.395075</ele>
        <time>2023-06-04T16:50:07.484Z</time>
      </trkpt>
      <trkpt lat="51.286986" lon="6.065283">
        <ele>26.022230</ele>
        <time>2023-06-04T16:50:20.532Z</time>
      </trkpt>
      <trkpt lat="51.287200" lon="6.064240">
        <ele>24.142911</ele>
        <time>2023-06-04T16:50:35.868Z</time>
      </trkpt>
      <trkpt lat="51.287225" lon="6.062804">
        <ele>21.505931</ele>
        <time>2023-06-04T16:50:55.546Z</time>
      </trkpt>
      <trkpt lat="51.287305" lon="6.062188">
        <ele>20.351065</ele>
        <time>2023-06-04T16:51:04.574Z</time>
      </trkpt>
      <trkpt lat="51.287418" lon="6.061644">
        <ele>19.682311</ele>
        <time>2023-06-04T16:51:13.114Z</time>
      </trkpt>
      <trkpt lat="51.287593" lon="6.061086">
        <ele>19.054831</ele>
        <time>2023-06-04T16:51:22.653Z</time>
      </trkpt>
      <trkpt lat="51.288143" lon="6.059748">
        <ele>17.445368</ele>
        <time>2023-06-04T16:51:47.546Z</time>
      </trkpt>
      <trkpt lat="51.288240" lon="6.059464">
        <ele>17.225822</ele>
        <time>2023-06-04T16:51:52.745Z</time>
      </trkpt>
      <trkpt lat="51.288329" lon="6.059081">
        <ele>17.135613</ele>
        <time>2023-06-04T16:51:59.453Z</time>
      </trkpt>
      <trkpt lat="51.288454" lon="6.058313">
        <ele>16.960403</ele>
        <time>2023-06-04T16:52:12.777Z</time>
      </trkpt>
      <trkpt lat="51.288464" lon="6.057929">
        <ele>16.875548</ele>
        <time>2023-06-04T16:52:19.306Z</time>
      </trkpt>
      <trkpt lat="51.288419" lon="6.057647">
        <ele>16.811292</ele>
        <time>2023-06-04T16:52:24.302Z</time>
      </trkpt>
      <trkpt lat="51.287298" lon="6.053773">
        <ele>17.513181</ele>
        <time>2023-06-04T16:53:40.538Z</time>
      </trkpt>
      <trkpt lat="51.287117" lon="6.052876">
        <ele>17.573383</ele>
        <time>2023-06-04T16:53:56.941Z</time>
      </trkpt>
      <trkpt lat="51.287043" lon="6.052689">
        <ele>17.587517</ele>
        <time>2023-06-04T16:54:00.780Z</time>
      </trkpt>
      <trkpt lat="51.286953" lon="6.052105">
        <ele>17.625935</ele>
        <time>2023-06-04T16:54:11.289Z</time>
      </trkpt>
      <trkpt lat="51.286621" lon="6.051208">
        <ele>17.599357</ele>
        <time>2023-06-04T16:54:29.401Z</time>
      </trkpt>
      <trkpt lat="51.286595" lon="6.051159">
        <ele>17.590467</ele>
        <time>2023-06-04T16:54:30.532Z</time>
      </trkpt>
      <trkpt lat="51.286479" lon="6.050780">
        <ele>17.532090</ele>
        <time>2023-06-04T16:54:36.974Z</time>
      </trkpt>
      <trkpt lat="51.286165" lon="6.049908">
        <ele>17.392881</ele>
        <time>2023-06-04T16:54:52.942Z</time>
      </trkpt>
      <trkpt lat="51.286135" lon="6.049865">
        <ele>17.383969</ele>
        <time>2023-06-04T16:54:54.054Z</time>
      </trkpt>
      <trkpt lat="51.286056" lon="6.049733">
        <ele>17.358692</ele>
        <time>2023-06-04T16:54:57.209Z</time>
      </trkpt>
      <trkpt lat="51.285919" lon="6.049107">
        <ele>17.266935</ele>
        <time>2023-06-04T16:55:08.684Z</time>
      </trkpt>
      <trkpt lat="51.285856" lon="6.048976">
        <ele>17.278147</ele>
        <time>2023-06-04T16:55:11.563Z</time>
      </trkpt>
      <trkpt lat="51.285823" lon="6.048907">
        <ele>17.285502</ele>
        <time>2023-06-04T16:55:13.073Z</time>
      </trkpt>
      <trkpt lat="51.285036" lon="6.047655">
        <ele>17.435800</ele>
        <time>2023-06-04T16:55:44.285Z</time>
      </trkpt>
      <trkpt lat="51.284767" lon="6.047179">
        <ele>17.490120</ele>
        <time>2023-06-04T16:55:55.580Z</time>
      </trkpt>
      <trkpt lat="51.284023" lon="6.046024">
        <ele>17.857864</ele>
        <time>2023-06-04T16:56:25.002Z</time>
      </trkpt>
      <trkpt lat="51.283492" lon="6.045291">
        <ele>18.130117</ele>
        <time>2023-06-04T16:56:45.034Z</time>
      </trkpt>
      <trkpt lat="51.283254" lon="6.044887">
        <ele>18.260172</ele>
        <time>2023-06-04T16:56:54.939Z</time>
      </trkpt>
      <trkpt lat="51.283002" lon="6.044667">
        <ele>18.362668</ele>
        <time>2023-06-04T16:57:03.112Z</time>
      </trkpt>
      <trkpt lat="51.282483" lon="6.044136">
        <ele>18.582627</ele>
        <time>2023-06-04T16:57:20.666Z</time>
      </trkpt>
      <trkpt lat="51.282474" lon="6.044036">
        <ele>18.605185</ele>
        <time>2023-06-04T16:57:22.440Z</time>
      </trkpt>
      <trkpt lat="51.282436" lon="6.043943">
        <ele>18.629988</ele>
        <time>2023-06-04T16:57:24.414Z</time>
      </trkpt>
      <trkpt lat="51.281493" lon="6.042806">
        <ele>18.854166</ele>
        <time>2023-06-04T16:57:57.758Z</time>
      </trkpt>
      <trkpt lat="51.281385" lon="6.042707">
        <ele>18.855342</ele>
        <time>2023-06-04T16:58:01.240Z</time>
      </trkpt>
      <trkpt lat="51.280950" lon="6.043548">
        <ele>18.861788</ele>
        <time>2023-06-04T16:58:20.160Z</time>
      </trkpt>
      <trkpt lat="51.280118" lon="6.044656">
        <ele>18.950005</ele>
        <time>2023-06-04T16:58:50.105Z</time>
      </trkpt>
      <trkpt lat="51.279978" lon="6.044699">
        <ele>18.968211</ele>
        <time>2023-06-04T16:58:54.081Z</time>
      </trkpt>
      <trkpt lat="51.279763" lon="6.044623">
        <ele>18.996332</ele>
        <time>2023-06-04T16:59:00.263Z</time>
      </trkpt>
      <trkpt lat="51.279472" lon="6.044332">
        <ele>19.040167</ele>
        <time>2023-06-04T16:59:09.935Z</time>
      </trkpt>
      <trkpt lat="51.279193" lon="6.043950">
        <ele>19.087079</ele>
        <time>2023-06-04T16:59:20.379Z</time>
      </trkpt>
      <trkpt lat="51.278953" lon="6.043539">
        <ele>19.190389</ele>
        <time>2023-06-04T16:59:30.437Z</time>
      </trkpt>
      <trkpt lat="51.278272" lon="6.042677">
        <ele>19.478763</ele>
        <time>2023-06-04T16:59:55.221Z</time>
      </trkpt>
      <trkpt lat="51.277696" lon="6.042072">
        <ele>19.679742</ele>
        <time>2023-06-04T17:00:14.593Z</time>
      </trkpt>
      <trkpt lat="51.277655" lon="6.041708">
        <ele>19.613584</ele>
        <time>2023-06-04T17:00:24.162Z</time>
      </trkpt>
      <trkpt lat="51.277541" lon="6.041450">
        <ele>19.557082</ele>
        <time>2023-06-04T17:00:32.325Z</time>
      </trkpt>
      <trkpt lat="51.276941" lon="6.040395">
        <ele>19.302034</ele>
        <time>2023-06-04T17:01:09.318Z</time>
      </trkpt>
      <trkpt lat="51.276232" lon="6.039314">
        <ele>19.096593</ele>
        <time>2023-06-04T17:01:49.919Z</time>
      </trkpt>
      <trkpt lat="51.275921" lon="6.038883">
        <ele>19.035120</ele>
        <time>2023-06-04T17:02:06.957Z</time>
      </trkpt>
      <trkpt lat="51.275566" lon="6.038537">
        <ele>18.973023</ele>
        <time>2023-06-04T17:02:24.118Z</time>
      </trkpt>
      <trkpt lat="51.275279" lon="6.038315">
        <ele>18.925405</ele>
        <time>2023-06-04T17:02:37.281Z</time>
      </trkpt>
      <trkpt lat="51.274615" lon="6.037851">
        <ele>19.129591</ele>
        <time>2023-06-04T17:03:07.124Z</time>
      </trkpt>
      <trkpt lat="51.273753" lon="6.037317">
        <ele>19.457879</ele>
        <time>2023-06-04T17:03:44.925Z</time>
      </trkpt>
      <trkpt lat="51.273169" lon="6.036981">
        <ele>19.805284</ele>
        <time>2023-06-04T17:04:10.066Z</time>
      </trkpt>
      <trkpt lat="51.272110" lon="6.035947">
        <ele>20.676762</ele>
        <time>2023-06-04T17:05:00.335Z</time>
      </trkpt>
      <trkpt lat="51.271846" lon="6.035751">
        <ele>20.813637</ele>
        <time>2023-06-04T17:05:12.194Z</time>
      </trkpt>
      <trkpt lat="51.271763" lon="6.035631">
        <ele>20.816030</ele>
        <time>2023-06-04T17:05:16.770Z</time>
      </trkpt>
      <trkpt lat="51.271331" lon="6.034725">
        <ele>20.831271</ele>
        <time>2023-06-04T17:05:46.134Z</time>
      </trkpt>
      <trkpt lat="51.270659" lon="6.033301">
        <ele>20.762801</ele>
        <time>2023-06-04T17:06:32.293Z</time>
      </trkpt>
      <trkpt lat="51.270637" lon="6.033167">
        <ele>20.731458</ele>
        <time>2023-06-04T17:06:35.905Z</time>
      </trkpt>
      <trkpt lat="51.270338" lon="6.032820">
        <ele>20.597842</ele>
        <time>2023-06-04T17:06:45.307Z</time>
      </trkpt>
      <trkpt lat="51.270082" lon="6.032661">
        <ele>20.498527</ele>
        <time>2023-06-04T17:06:52.277Z</time>
      </trkpt>
      <trkpt lat="51.269370" lon="6.032141">
        <ele>20.215455</ele>
        <time>2023-06-04T17:07:12.238Z</time>
      </trkpt>
      <trkpt lat="51.269288" lon="6.032110">
        <ele>20.182700</ele>
        <time>2023-06-04T17:07:14.407Z</time>
      </trkpt>
      <trkpt lat="51.269158" lon="6.032179">
        <ele>20.125406</ele>
        <time>2023-06-04T17:07:17.917Z</time>
      </trkpt>
      <trkpt lat="51.269032" lon="6.032264">
        <ele>20.068203</ele>
        <time>2023-06-04T17:07:21.405Z</time>
      </trkpt>
      <trkpt lat="51.268410" lon="6.031210">
        <ele>19.689046</ele>
        <time>2023-06-04T17:07:44.448Z</time>
      </trkpt>
      <trkpt lat="51.267930" lon="6.030472">
        <ele>19.429260</ele>
        <time>2023-06-04T17:08:01.270Z</time>
      </trkpt>
      <trkpt lat="51.267864" lon="6.030371">
        <ele>19.410555</ele>
        <time>2023-06-04T17:08:03.606Z</time>
      </trkpt>
      <trkpt lat="51.267515" lon="6.029878">
        <ele>19.315209</ele>
        <time>2023-06-04T17:08:15.516Z</time>
      </trkpt>
      <trkpt lat="51.266924" lon="6.029174">
        <ele>19.164323</ele>
        <time>2023-06-04T17:08:34.507Z</time>
      </trkpt>
      <trkpt lat="51.265639" lon="6.027746">
        <ele>19.252071</ele>
        <time>2023-06-04T17:09:15.924Z</time>
      </trkpt>
      <trkpt lat="51.265121" lon="6.027181">
        <ele>19.346513</ele>
        <time>2023-06-04T17:09:41.731Z</time>
      </trkpt>
      <trkpt lat="51.264846" lon="6.026803">
        <ele>19.404260</ele>
        <time>2023-06-04T17:09:56.625Z</time>
      </trkpt>
      <trkpt lat="51.264721" lon="6.026632">
        <ele>19.430550</ele>
        <time>2023-06-04T17:10:03.393Z</time>
      </trkpt>
      <trkpt lat="51.264300" lon="6.025977">
        <ele>19.524431</ele>
        <time>2023-06-04T17:10:19.980Z</time>
      </trkpt>
      <trkpt lat="51.264051" lon="6.025526">
        <ele>19.584565</ele>
        <time>2023-06-04T17:10:30.596Z</time>
      </trkpt>
      <trkpt lat="51.263805" lon="6.025082">
        <ele>19.637451</ele>
        <time>2023-06-04T17:10:40.942Z</time>
      </trkpt>
      <trkpt lat="51.263589" lon="6.024640">
        <ele>19.638446</ele>
        <time>2023-06-04T17:10:50.691Z</time>
      </trkpt>
      <trkpt lat="51.263174" lon="6.023640">
        <ele>19.640575</ele>
        <time>2023-06-04T17:11:11.516Z</time>
      </trkpt>
      <trkpt lat="51.262843" lon="6.022873">
        <ele>19.642228</ele>
        <time>2023-06-04T17:11:27.864Z</time>
      </trkpt>
      <trkpt lat="51.262447" lon="6.022175">
        <ele>19.745549</ele>
        <time>2023-06-04T17:11:44.426Z</time>
      </trkpt>
      <trkpt lat="51.261793" lon="6.021295">
        <ele>19.916219</ele>
        <time>2023-06-04T17:12:08.481Z</time>
      </trkpt>
      <trkpt lat="51.260684" lon="6.019914">
        <ele>20.449151</ele>
        <time>2023-06-04T17:12:48.494Z</time>
      </trkpt>
      <trkpt lat="51.260231" lon="6.019429">
        <ele>20.698536</ele>
        <time>2023-06-04T17:13:04.071Z</time>
      </trkpt>
      <trkpt lat="51.259830" lon="6.019052">
        <ele>20.884704</ele>
        <time>2023-06-04T17:13:17.367Z</time>
      </trkpt>
      <trkpt lat="51.258891" lon="6.018302">
        <ele>21.218281</ele>
        <time>2023-06-04T17:13:46.960Z</time>
      </trkpt>
      <trkpt lat="51.258796" lon="6.018349">
        <ele>21.249882</ele>
        <time>2023-06-04T17:13:49.537Z</time>
      </trkpt>
      <trkpt lat="51.258669" lon="6.018551">
        <ele>21.306823</ele>
        <time>2023-06-04T17:13:54.117Z</time>
      </trkpt>
      <trkpt lat="51.258273" lon="6.019039">
        <ele>21.499693</ele>
        <time>2023-06-04T17:14:07.002Z</time>
      </trkpt>
      <trkpt lat="51.258056" lon="6.019381">
        <ele>21.643483</ele>
        <time>2023-06-04T17:14:14.922Z</time>
      </trkpt>
      <trkpt lat="51.257828" lon="6.019843">
        <ele>21.817192</ele>
        <time>2023-06-04T17:14:24.559Z</time>
      </trkpt>
      <trkpt lat="51.257500" lon="6.020634">
        <ele>22.097340</ele>
        <time>2023-06-04T17:14:40.095Z</time>
      </trkpt>
      <trkpt lat="51.257281" lon="6.021050">
        <ele>22.247586</ele>
        <time>2023-06-04T17:14:48.958Z</time>
      </trkpt>
      <trkpt lat="51.256856" lon="6.021621">
        <ele>22.312734</ele>
        <time>2023-06-04T17:15:03.861Z</time>
      </trkpt>
      <trkpt lat="51.256797" lon="6.021698">
        <ele>22.321672</ele>
        <time>2023-06-04T17:15:05.874Z</time>
      </trkpt>
      <trkpt lat="51.256739" lon="6.021779">
        <ele>22.330709</ele>
        <time>2023-06-04T17:15:07.900Z</time>
      </trkpt>
      <trkpt lat="51.256654" lon="6.021922">
        <ele>22.345191</ele>
        <time>2023-06-04T17:15:11.140Z</time>
      </trkpt>
      <trkpt lat="51.256626" lon="6.021994">
        <ele>22.351415</ele>
        <time>2023-06-04T17:15:12.523Z</time>
      </trkpt>
      <trkpt lat="51.256654" lon="6.021922">
        <ele>22.357639</ele>
        <time>2023-06-04T17:15:13.912Z</time>
      </trkpt>
      <trkpt lat="51.256739" lon="6.021779">
        <ele>22.372121</ele>
        <time>2023-06-04T17:15:17.082Z</time>
      </trkpt>
      <trkpt lat="51.256797" lon="6.021698">
        <ele>22.381158</ele>
        <time>2023-06-04T17:15:19.080Z</time>
      </trkpt>
      <trkpt lat="51.256583" lon="6.021338">
        <ele>22.417616</ele>
        <time>2023-06-04T17:15:27.128Z</time>
      </trkpt>
      <trkpt lat="51.256416" lon="6.020979">
        <ele>22.450460</ele>
        <time>2023-06-04T17:15:34.405Z</time>
      </trkpt>
      <trkpt lat="51.256024" lon="6.019957">
        <ele>23.231161</ele>
        <time>2023-06-04T17:16:05.357Z</time>
      </trkpt>
      <trkpt lat="51.255922" lon="6.019856">
        <ele>23.362379</ele>
        <time>2023-06-04T17:16:10.268Z</time>
      </trkpt>
      <trkpt lat="51.255678" lon="6.020175">
        <ele>23.707125</ele>
        <time>2023-06-04T17:16:23.055Z</time>
      </trkpt>
      <trkpt lat="51.255118" lon="6.019330">
        <ele>24.790358</ele>
        <time>2023-06-04T17:16:53.619Z</time>
      </trkpt>
      <trkpt lat="51.254934" lon="6.018987">
        <ele>25.684553</ele>
        <time>2023-06-04T17:17:04.973Z</time>
      </trkpt>
      <trkpt lat="51.254475" lon="6.018337">
        <ele>27.624315</ele>
        <time>2023-06-04T17:17:29.917Z</time>
      </trkpt>
      <trkpt lat="51.254234" lon="6.018530">
        <ele>28.476898</ele>
        <time>2023-06-04T17:17:40.800Z</time>
      </trkpt>
      <trkpt lat="51.253772" lon="6.018900">
        <ele>30.110419</ele>
        <time>2023-06-04T17:18:01.440Z</time>
      </trkpt>
      <trkpt lat="51.253397" lon="6.019251">
        <ele>29.867021</ele>
        <time>2023-06-04T17:18:18.695Z</time>
      </trkpt>
      <trkpt lat="51.253352" lon="6.018834">
        <ele>29.718699</ele>
        <time>2023-06-04T17:18:29.316Z</time>
      </trkpt>
      <trkpt lat="51.252921" lon="6.018086">
        <ele>29.362322</ele>
        <time>2023-06-04T17:18:55.426Z</time>
      </trkpt>
      <trkpt lat="51.252790" lon="6.017769">
        <ele>29.229172</ele>
        <time>2023-06-04T17:19:03.947Z</time>
      </trkpt>
      <trkpt lat="51.252674" lon="6.017607">
        <ele>29.142888</ele>
        <time>2023-06-04T17:19:09.283Z</time>
      </trkpt>
      <trkpt lat="51.252580" lon="6.017613">
        <ele>28.986851</ele>
        <time>2023-06-04T17:19:12.443Z</time>
      </trkpt>
      <trkpt lat="51.252460" lon="6.017697">
        <ele>28.332082</ele>
        <time>2023-06-04T17:19:16.850Z</time>
      </trkpt>
      <trkpt lat="51.252206" lon="6.017751">
        <ele>27.051457</ele>
        <time>2023-06-04T17:19:25.301Z</time>
      </trkpt>
      <trkpt lat="51.252059" lon="6.017746">
        <ele>26.316617</ele>
        <time>2023-06-04T17:19:30.104Z</time>
      </trkpt>
      <trkpt lat="51.251895" lon="6.017498">
        <ele>25.188070</ele>
        <time>2023-06-04T17:19:37.315Z</time>
      </trkpt>
      <trkpt lat="51.251728" lon="6.017334">
        <ele>24.208384</ele>
        <time>2023-06-04T17:19:43.622Z</time>
      </trkpt>
      <trkpt lat="51.251541" lon="6.017381">
        <ele>23.262306</ele>
        <time>2023-06-04T17:19:49.698Z</time>
      </trkpt>
      <trkpt lat="51.251461" lon="6.017363">
        <ele>22.858538</ele>
        <time>2023-06-04T17:19:52.346Z</time>
      </trkpt>
      <trkpt lat="51.251272" lon="6.017112">
        <ele>21.630242</ele>
        <time>2023-06-04T17:20:00.307Z</time>
      </trkpt>
      <trkpt lat="51.250875" lon="6.016848">
        <ele>19.773150</ele>
        <time>2023-06-04T17:20:14.531Z</time>
      </trkpt>
      <trkpt lat="51.250803" lon="6.016603">
        <ele>19.317144</ele>
        <time>2023-06-04T17:20:20.182Z</time>
      </trkpt>
      <trkpt lat="51.250787" lon="6.016421">
        <ele>19.007502</ele>
        <time>2023-06-04T17:20:24.026Z</time>
      </trkpt>
      <trkpt lat="51.250780" lon="6.016249">
        <ele>18.717107</ele>
        <time>2023-06-04T17:20:27.729Z</time>
      </trkpt>
      <trkpt lat="51.250756" lon="6.016035">
        <ele>18.350820</ele>
        <time>2023-06-04T17:20:32.508Z</time>
      </trkpt>
      <trkpt lat="51.250413" lon="6.015605">
        <ele>17.177252</ele>
        <time>2023-06-04T17:20:48.398Z</time>
      </trkpt>
      <trkpt lat="51.249787" lon="6.014112">
        <ele>15.081937</ele>
        <time>2023-06-04T17:21:33.960Z</time>
      </trkpt>
      <trkpt lat="51.248679" lon="6.011591">
        <ele>14.477970</ele>
        <time>2023-06-04T17:22:53.779Z</time>
      </trkpt>
      <trkpt lat="51.248571" lon="6.011142">
        <ele>14.492973</ele>
        <time>2023-06-04T17:23:06.222Z</time>
      </trkpt>
      <trkpt lat="51.248577" lon="6.010863">
        <ele>14.501681</ele>
        <time>2023-06-04T17:23:13.429Z</time>
      </trkpt>
      <trkpt lat="51.248635" lon="6.010376">
        <ele>14.517144</ele>
        <time>2023-06-04T17:23:26.192Z</time>
      </trkpt>
      <trkpt lat="51.248552" lon="6.010342">
        <ele>14.521414</ele>
        <time>2023-06-04T17:23:29.722Z</time>
      </trkpt>
      <trkpt lat="51.248508" lon="6.010324">
        <ele>14.523677</ele>
        <time>2023-06-04T17:23:31.594Z</time>
      </trkpt>
      <trkpt lat="51.248438" lon="6.010296">
        <ele>14.527273</ele>
        <time>2023-06-04T17:23:34.560Z</time>
      </trkpt>
      <trkpt lat="51.247558" lon="6.010032">
        <ele>14.802963</ele>
        <time>2023-06-04T17:24:11.152Z</time>
      </trkpt>
      <trkpt lat="51.246826" lon="6.009862">
        <ele>15.109924</ele>
        <time>2023-06-04T17:24:41.386Z</time>
      </trkpt>
      <trkpt lat="51.246262" lon="6.009612">
        <ele>15.333432</ele>
        <time>2023-06-04T17:25:05.311Z</time>
      </trkpt>
      <trkpt lat="51.245943" lon="6.009530">
        <ele>15.428162</ele>
        <time>2023-06-04T17:25:18.573Z</time>
      </trkpt>
      <trkpt lat="51.245306" lon="6.009467">
        <ele>15.615281</ele>
        <time>2023-06-04T17:25:44.711Z</time>
      </trkpt>
      <trkpt lat="51.244427" lon="6.009085">
        <ele>15.866374</ele>
        <time>2023-06-04T17:26:22.127Z</time>
      </trkpt>
      <trkpt lat="51.244016" lon="6.008961">
        <ele>15.960282</ele>
        <time>2023-06-04T17:26:39.255Z</time>
      </trkpt>
      <trkpt lat="51.242616" lon="6.008847">
        <ele>16.207452</ele>
        <time>2023-06-04T17:27:36.842Z</time>
      </trkpt>
      <trkpt lat="51.242455" lon="6.008834">
        <ele>16.200804</ele>
        <time>2023-06-04T17:27:43.496Z</time>
      </trkpt>
      <trkpt lat="51.242387" lon="6.009146">
        <ele>16.192275</ele>
        <time>2023-06-04T17:27:52.051Z</time>
      </trkpt>
      <trkpt lat="51.241764" lon="6.011276">
        <ele>16.119626</ele>
        <time>2023-06-04T17:28:28.653Z</time>
      </trkpt>
      <trkpt lat="51.241427" lon="6.012777">
        <ele>16.038056</ele>
        <time>2023-06-04T17:28:53.648Z</time>
      </trkpt>
      <trkpt lat="51.241236" lon="6.013728">
        <ele>15.992094</ele>
        <time>2023-06-04T17:29:09.323Z</time>
      </trkpt>
      <trkpt lat="51.240661" lon="6.017185">
        <ele>15.999074</ele>
        <time>2023-06-04T17:30:05.574Z</time>
      </trkpt>
      <trkpt lat="51.240596" lon="6.017615">
        <ele>16.034914</ele>
        <time>2023-06-04T17:30:12.512Z</time>
      </trkpt>
      <trkpt lat="51.240585" lon="6.017670">
        <ele>16.039592</ele>
        <time>2023-06-04T17:30:13.428Z</time>
      </trkpt>
      <trkpt lat="51.240596" lon="6.017615">
        <ele>16.044270</ele>
        <time>2023-06-04T17:30:14.352Z</time>
      </trkpt>
      <trkpt lat="51.240508" lon="6.017576">
        <ele>16.056089</ele>
        <time>2023-06-04T17:30:16.759Z</time>
      </trkpt>
      <trkpt lat="51.240071" lon="6.016920">
        <ele>16.133698</ele>
        <time>2023-06-04T17:30:32.704Z</time>
      </trkpt>
      <trkpt lat="51.239914" lon="6.016799">
        <ele>16.156258</ele>
        <time>2023-06-04T17:30:37.401Z</time>
      </trkpt>
      <trkpt lat="51.239759" lon="6.016792">
        <ele>16.250853</ele>
        <time>2023-06-04T17:30:41.560Z</time>
      </trkpt>
      <trkpt lat="51.239314" lon="6.016968">
        <ele>16.569041</ele>
        <time>2023-06-04T17:30:53.943Z</time>
      </trkpt>
      <trkpt lat="51.239030" lon="6.016950">
        <ele>16.766312</ele>
        <time>2023-06-04T17:31:01.650Z</time>
      </trkpt>
      <trkpt lat="51.238599" lon="6.016860">
        <ele>17.068001</ele>
        <time>2023-06-04T17:31:13.528Z</time>
      </trkpt>
      <trkpt lat="51.238225" lon="6.016800">
        <ele>17.328888</ele>
        <time>2023-06-04T17:31:23.841Z</time>
      </trkpt>
      <trkpt lat="51.237380" lon="6.016140">
        <ele>18.194607</ele>
        <time>2023-06-04T17:31:49.682Z</time>
      </trkpt>
      <trkpt lat="51.236760" lon="6.015580">
        <ele>18.872263</ele>
        <time>2023-06-04T17:32:09.275Z</time>
      </trkpt>
      <trkpt lat="51.236335" lon="6.015147">
        <ele>19.283233</ele>
        <time>2023-06-04T17:32:23.103Z</time>
      </trkpt>
      <trkpt lat="51.235444" lon="6.014238">
        <ele>19.992820</ele>
        <time>2023-06-04T17:32:51.826Z</time>
      </trkpt>
      <trkpt lat="51.234720" lon="6.013540">
        <ele>20.447360</ele>
        <time>2023-06-04T17:33:14.647Z</time>
      </trkpt>
      <trkpt lat="51.234160" lon="6.013050">
        <ele>20.669218</ele>
        <time>2023-06-04T17:33:31.765Z</time>
      </trkpt>
      <trkpt lat="51.233710" lon="6.012590">
        <ele>20.854852</ele>
        <time>2023-06-04T17:33:45.920Z</time>
      </trkpt>
      <trkpt lat="51.232876" lon="6.011868">
        <ele>20.813411</ele>
        <time>2023-06-04T17:34:11.188Z</time>
      </trkpt>
      <trkpt lat="51.231576" lon="6.010367">
        <ele>20.155783</ele>
        <time>2023-06-04T17:34:51.873Z</time>
      </trkpt>
      <trkpt lat="51.231446" lon="6.010216">
        <ele>20.012041</ele>
        <time>2023-06-04T17:34:55.897Z</time>
      </trkpt>
      <trkpt lat="51.231283" lon="6.010028">
        <ele>19.832248</ele>
        <time>2023-06-04T17:35:00.710Z</time>
      </trkpt>
      <trkpt lat="51.231070" lon="6.009990">
        <ele>19.640597</ele>
        <time>2023-06-04T17:35:05.665Z</time>
      </trkpt>
      <trkpt lat="51.230921" lon="6.010029">
        <ele>19.505583</ele>
        <time>2023-06-04T17:35:09.536Z</time>
      </trkpt>
      <trkpt lat="51.230015" lon="6.010484">
        <ele>19.020328</ele>
        <time>2023-06-04T17:35:31.717Z</time>
      </trkpt>
      <trkpt lat="51.229667" lon="6.010659">
        <ele>19.067351</ele>
        <time>2023-06-04T17:35:41.181Z</time>
      </trkpt>
      <trkpt lat="51.229693" lon="6.010919">
        <ele>19.088600</ele>
        <time>2023-06-04T17:35:45.836Z</time>
      </trkpt>
      <trkpt lat="51.229667" lon="6.010659">
        <ele>19.109850</ele>
        <time>2023-06-04T17:35:49.901Z</time>
      </trkpt>
      <trkpt lat="51.229261" lon="6.010899">
        <ele>19.165646</ele>
        <time>2023-06-04T17:36:01.678Z</time>
      </trkpt>
      <trkpt lat="51.228372" lon="6.011884">
        <ele>20.371537</ele>
        <time>2023-06-04T17:36:31.490Z</time>
      </trkpt>
      <trkpt lat="51.227854" lon="6.012227">
        <ele>21.223807</ele>
        <time>2023-06-04T17:36:47.445Z</time>
      </trkpt>
      <trkpt lat="51.227250" lon="6.012410">
        <ele>22.008007</ele>
        <time>2023-06-04T17:37:04.784Z</time>
      </trkpt>
      <trkpt lat="51.226456" lon="6.012491">
        <ele>22.385296</ele>
        <time>2023-06-04T17:37:26.595Z</time>
      </trkpt>
      <trkpt lat="51.226289" lon="6.012479">
        <ele>22.464569</ele>
        <time>2023-06-04T17:37:30.944Z</time>
      </trkpt>
      <trkpt lat="51.226040" lon="6.012460">
        <ele>22.582781</ele>
        <time>2023-06-04T17:37:37.243Z</time>
      </trkpt>
      <trkpt lat="51.225653" lon="6.012334">
        <ele>22.770076</ele>
        <time>2023-06-04T17:37:46.946Z</time>
      </trkpt>
      <trkpt lat="51.225197" lon="6.012020">
        <ele>22.101692</ele>
        <time>2023-06-04T17:37:58.479Z</time>
      </trkpt>
      <trkpt lat="51.225125" lon="6.011976">
        <ele>21.982913</ele>
        <time>2023-06-04T17:38:00.121Z</time>
      </trkpt>
      <trkpt lat="51.224964" lon="6.011952">
        <ele>21.733777</ele>
        <time>2023-06-04T17:38:03.723Z</time>
      </trkpt>
      <trkpt lat="51.224638" lon="6.012016">
        <ele>21.227717</ele>
        <time>2023-06-04T17:38:10.681Z</time>
      </trkpt>
      <trkpt lat="51.224293" lon="6.012222">
        <ele>20.660215</ele>
        <time>2023-06-04T17:38:18.407Z</time>
      </trkpt>
      <trkpt lat="51.224152" lon="6.012357">
        <ele>20.406911</ele>
        <time>2023-06-04T17:38:21.842Z</time>
      </trkpt>
      <trkpt lat="51.224112" lon="6.012399">
        <ele>20.333151</ele>
        <time>2023-06-04T17:38:22.801Z</time>
      </trkpt>
      <trkpt lat="51.222837" lon="6.011121">
        <ele>18.155514</ele>
        <time>2023-06-04T17:38:56.925Z</time>
      </trkpt>
      <trkpt lat="51.222421" lon="6.010561">
        <ele>17.437498</ele>
        <time>2023-06-04T17:39:10.258Z</time>
      </trkpt>
      <trkpt lat="51.222183" lon="6.010116">
        <ele>17.372836</ele>
        <time>2023-06-04T17:39:19.518Z</time>
      </trkpt>
      <trkpt lat="51.221774" lon="6.009054">
        <ele>17.235074</ele>
        <time>2023-06-04T17:39:39.756Z</time>
      </trkpt>
      <trkpt lat="51.221534" lon="6.008525">
        <ele>17.162894</ele>
        <time>2023-06-04T17:39:50.560Z</time>
      </trkpt>
      <trkpt lat="51.221407" lon="6.008351">
        <ele>17.133369</ele>
        <time>2023-06-04T17:39:55.028Z</time>
      </trkpt>
      <trkpt lat="51.221068" lon="6.007951">
        <ele>17.294915</ele>
        <time>2023-06-04T17:40:06.300Z</time>
      </trkpt>
      <trkpt lat="51.220857" lon="6.007756">
        <ele>17.397383</ele>
        <time>2023-06-04T17:40:12.815Z</time>
      </trkpt>
      <trkpt lat="51.217373" lon="6.004712">
        <ele>19.041418</ele>
        <time>2023-06-04T17:41:59.788Z</time>
      </trkpt>
      <trkpt lat="51.216992" lon="6.004507">
        <ele>19.200397</ele>
        <time>2023-06-04T17:42:10.567Z</time>
      </trkpt>
      <trkpt lat="51.216800" lon="6.004450">
        <ele>19.277619</ele>
        <time>2023-06-04T17:42:15.746Z</time>
      </trkpt>
      <trkpt lat="51.215931" lon="6.004392">
        <ele>19.601926</ele>
        <time>2023-06-04T17:42:38.961Z</time>
      </trkpt>
      <trkpt lat="51.215917" lon="6.004391">
        <ele>19.607065</ele>
        <time>2023-06-04T17:42:39.321Z</time>
      </trkpt>
      <trkpt lat="51.215390" lon="6.004330">
        <ele>19.800801</ele>
        <time>2023-06-04T17:42:53.048Z</time>
      </trkpt>
      <trkpt lat="51.215073" lon="6.004197">
        <ele>19.920979</ele>
        <time>2023-06-04T17:43:01.484Z</time>
      </trkpt>
      <trkpt lat="51.214715" lon="6.003961">
        <ele>20.128528</ele>
        <time>2023-06-04T17:43:11.391Z</time>
      </trkpt>
      <trkpt lat="51.213972" lon="6.003382">
        <ele>20.816705</ele>
        <time>2023-06-04T17:43:33.030Z</time>
      </trkpt>
      <trkpt lat="51.213843" lon="6.003259">
        <ele>20.941771</ele>
        <time>2023-06-04T17:43:37.046Z</time>
      </trkpt>
      <trkpt lat="51.213645" lon="6.002989">
        <ele>21.158515</ele>
        <time>2023-06-04T17:43:44.043Z</time>
      </trkpt>
      <trkpt lat="51.213506" lon="6.002741">
        <ele>21.332024</ele>
        <time>2023-06-04T17:43:49.675Z</time>
      </trkpt>
      <trkpt lat="51.213475" lon="6.002799">
        <ele>21.371777</ele>
        <time>2023-06-04T17:43:50.960Z</time>
      </trkpt>
      <trkpt lat="51.213423" lon="6.003171">
        <ele>21.586795</ele>
        <time>2023-06-04T17:43:57.381Z</time>
      </trkpt>
      <trkpt lat="51.213329" lon="6.003451">
        <ele>21.795924</ele>
        <time>2023-06-04T17:44:02.727Z</time>
      </trkpt>
      <trkpt lat="51.212677" lon="6.004645">
        <ele>22.838675</ele>
        <time>2023-06-04T17:44:29.301Z</time>
      </trkpt>
      <trkpt lat="51.212201" lon="6.005537">
        <ele>23.397187</ele>
        <time>2023-06-04T17:44:49.424Z</time>
      </trkpt>
      <trkpt lat="51.212060" lon="6.005920">
        <ele>23.395116</ele>
        <time>2023-06-04T17:44:56.893Z</time>
      </trkpt>
      <trkpt lat="51.211710" lon="6.007210">
        <ele>23.388559</ele>
        <time>2023-06-04T17:45:19.718Z</time>
      </trkpt>
      <trkpt lat="51.211551" lon="6.008012">
        <ele>23.342430</ele>
        <time>2023-06-04T17:45:32.983Z</time>
      </trkpt>
      <trkpt lat="51.211427" lon="6.009227">
        <ele>22.968580</ele>
        <time>2023-06-04T17:45:52.135Z</time>
      </trkpt>
      <trkpt lat="51.211414" lon="6.009653">
        <ele>22.839053</ele>
        <time>2023-06-04T17:45:58.843Z</time>
      </trkpt>
      <trkpt lat="51.211477" lon="6.011235">
        <ele>22.600556</ele>
        <time>2023-06-04T17:46:24.411Z</time>
      </trkpt>
      <trkpt lat="51.211470" lon="6.011945">
        <ele>22.721352</ele>
        <time>2023-06-04T17:46:36.283Z</time>
      </trkpt>
      <trkpt lat="51.211400" lon="6.012623">
        <ele>22.838246</ele>
        <time>2023-06-04T17:46:47.838Z</time>
      </trkpt>
      <trkpt lat="51.211390" lon="6.012713">
        <ele>22.853795</ele>
        <time>2023-06-04T17:46:49.376Z</time>
      </trkpt>
      <trkpt lat="51.211229" lon="6.013860">
        <ele>23.071263</ele>
        <time>2023-06-04T17:47:09.290Z</time>
      </trkpt>
      <trkpt lat="51.211184" lon="6.013978">
        <ele>23.102678</ele>
        <time>2023-06-04T17:47:11.629Z</time>
      </trkpt>
      <trkpt lat="51.206145" lon="6.008477">
        <ele>25.098069</ele>
        <time>2023-06-04T17:49:55.019Z</time>
      </trkpt>
      <trkpt lat="51.206138" lon="6.008225">
        <ele>25.120094</ele>
        <time>2023-06-04T17:49:59.124Z</time>
      </trkpt>
      <trkpt lat="51.206105" lon="6.008151">
        <ele>25.128025</ele>
        <time>2023-06-04T17:50:00.604Z</time>
      </trkpt>
      <trkpt lat="51.206049" lon="6.008082">
        <ele>25.137885</ele>
        <time>2023-06-04T17:50:02.446Z</time>
      </trkpt>
      <trkpt lat="51.205941" lon="6.008037">
        <ele>25.153441</ele>
        <time>2023-06-04T17:50:05.362Z</time>
      </trkpt>
      <trkpt lat="51.205866" lon="6.008054">
        <ele>25.163998</ele>
        <time>2023-06-04T17:50:07.334Z</time>
      </trkpt>
      <trkpt lat="51.205823" lon="6.008023">
        <ele>25.170574</ele>
        <time>2023-06-04T17:50:08.549Z</time>
      </trkpt>
      <trkpt lat="51.205233" lon="6.007283">
        <ele>25.348969</ele>
        <time>2023-06-04T17:50:28.189Z</time>
      </trkpt>
      <trkpt lat="51.205000" lon="6.007001">
        <ele>25.436769</ele>
        <time>2023-06-04T17:50:35.911Z</time>
      </trkpt>
      <trkpt lat="51.204594" lon="6.006674">
        <ele>25.573315</ele>
        <time>2023-06-04T17:50:48.051Z</time>
      </trkpt>
      <trkpt lat="51.204353" lon="6.006532">
        <ele>25.650451</ele>
        <time>2023-06-04T17:50:55.014Z</time>
      </trkpt>
      <trkpt lat="51.203508" lon="6.005614">
        <ele>26.248854</ele>
        <time>2023-06-04T17:51:22.813Z</time>
      </trkpt>
      <trkpt lat="51.203481" lon="6.005579">
        <ele>26.274069</ele>
        <time>2023-06-04T17:51:23.749Z</time>
      </trkpt>
      <trkpt lat="51.203257" lon="6.005171">
        <ele>26.520456</ele>
        <time>2023-06-04T17:51:32.942Z</time>
      </trkpt>
      <trkpt lat="51.203203" lon="6.004997">
        <ele>26.608650</ele>
        <time>2023-06-04T17:51:36.253Z</time>
      </trkpt>
      <trkpt lat="51.202946" lon="6.004512">
        <ele>26.897151</ele>
        <time>2023-06-04T17:51:47.098Z</time>
      </trkpt>
      <trkpt lat="51.202851" lon="6.004631">
        <ele>26.984695</ele>
        <time>2023-06-04T17:51:50.397Z</time>
      </trkpt>
      <trkpt lat="51.202809" lon="6.004551">
        <ele>27.032100</ele>
        <time>2023-06-04T17:51:52.191Z</time>
      </trkpt>
      <trkpt lat="51.202355" lon="6.004281">
        <ele>27.326787</ele>
        <time>2023-06-04T17:52:05.597Z</time>
      </trkpt>
      <trkpt lat="51.202174" lon="6.004125">
        <ele>27.450223</ele>
        <time>2023-06-04T17:52:11.229Z</time>
      </trkpt>
      <trkpt lat="51.201814" lon="6.003631">
        <ele>27.735113</ele>
        <time>2023-06-04T17:52:24.109Z</time>
      </trkpt>
      <trkpt lat="51.201797" lon="6.003550">
        <ele>27.767231</ele>
        <time>2023-06-04T17:52:25.527Z</time>
      </trkpt>
      <trkpt lat="51.201727" lon="6.003423">
        <ele>27.830826</ele>
        <time>2023-06-04T17:52:28.333Z</time>
      </trkpt>
      <trkpt lat="51.201607" lon="6.003370">
        <ele>27.905539</ele>
        <time>2023-06-04T17:52:31.625Z</time>
      </trkpt>
      <trkpt lat="51.201544" lon="6.003392">
        <ele>27.944237</ele>
        <time>2023-06-04T17:52:33.313Z</time>
      </trkpt>
      <trkpt lat="51.201482" lon="6.003452">
        <ele>27.987746</ele>
        <time>2023-06-04T17:52:35.192Z</time>
      </trkpt>
      <trkpt lat="51.201428" lon="6.003585">
        <ele>28.047333</ele>
        <time>2023-06-04T17:52:37.814Z</time>
      </trkpt>
      <trkpt lat="51.201419" lon="6.003743">
        <ele>28.106984</ele>
        <time>2023-06-04T17:52:40.484Z</time>
      </trkpt>
      <trkpt lat="51.201346" lon="6.003920">
        <ele>28.135452</ele>
        <time>2023-06-04T17:52:44.012Z</time>
      </trkpt>
      <trkpt lat="51.201183" lon="6.004193">
        <ele>28.138322</ele>
        <time>2023-06-04T17:52:50.364Z</time>
      </trkpt>
      <trkpt lat="51.200465" lon="6.005058">
        <ele>28.149248</ele>
        <time>2023-06-04T17:53:14.379Z</time>
      </trkpt>
      <trkpt lat="51.200403" lon="6.005062">
        <ele>28.150002</ele>
        <time>2023-06-04T17:53:16.033Z</time>
      </trkpt>
      <trkpt lat="51.200380" lon="6.005029">
        <ele>28.150378</ele>
        <time>2023-06-04T17:53:16.842Z</time>
      </trkpt>
      <trkpt lat="51.200333" lon="6.005044">
        <ele>28.150960</ele>
        <time>2023-06-04T17:53:18.091Z</time>
      </trkpt>
      <trkpt lat="51.200254" lon="6.005070">
        <ele>28.151940</ele>
        <time>2023-06-04T17:53:20.158Z</time>
      </trkpt>
      <trkpt lat="51.200193" lon="6.005119">
        <ele>28.152769</ele>
        <time>2023-06-04T17:53:21.856Z</time>
      </trkpt>
      <trkpt lat="51.200142" lon="6.005164">
        <ele>28.153477</ele>
        <time>2023-06-04T17:53:23.310Z</time>
      </trkpt>
      <trkpt lat="51.198977" lon="6.004753">
        <ele>27.362283</ele>
        <time>2023-06-04T17:53:52.978Z</time>
      </trkpt>
      <trkpt lat="51.198282" lon="6.004503">
        <ele>26.776492</ele>
        <time>2023-06-04T17:54:10.388Z</time>
      </trkpt>
      <trkpt lat="51.197410" lon="6.004191">
        <ele>26.220291</ele>
        <time>2023-06-04T17:54:32.021Z</time>
      </trkpt>
      <trkpt lat="51.195689" lon="6.003585">
        <ele>25.669353</ele>
        <time>2023-06-04T17:55:17.140Z</time>
      </trkpt>
      <trkpt lat="51.194665" lon="6.003304">
        <ele>25.747489</ele>
        <time>2023-06-04T17:55:45.026Z</time>
      </trkpt>
      <trkpt lat="51.194381" lon="6.003261">
        <ele>25.877104</ele>
        <time>2023-06-04T17:55:52.628Z</time>
      </trkpt>
      <trkpt lat="51.194061" lon="6.003194">
        <ele>26.034375</ele>
        <time>2023-06-04T17:56:01.197Z</time>
      </trkpt>
      <trkpt lat="51.194053" lon="6.003291">
        <ele>26.064253</ele>
        <time>2023-06-04T17:56:02.819Z</time>
      </trkpt>
      <trkpt lat="51.193945" lon="6.003271">
        <ele>26.117234</ele>
        <time>2023-06-04T17:56:05.601Z</time>
      </trkpt>
      <trkpt lat="51.194053" lon="6.003291">
        <ele>26.170216</ele>
        <time>2023-06-04T17:56:08.391Z</time>
      </trkpt>
      <trkpt lat="51.194061" lon="6.003194">
        <ele>26.200093</ele>
        <time>2023-06-04T17:56:10.048Z</time>
      </trkpt>
      <trkpt lat="51.193680" lon="6.003136">
        <ele>26.386596</ele>
        <time>2023-06-04T17:56:20.371Z</time>
      </trkpt>
      <trkpt lat="51.193044" lon="6.002922">
        <ele>26.803137</ele>
        <time>2023-06-04T17:56:38.097Z</time>
      </trkpt>
      <trkpt lat="51.193004" lon="6.002837">
        <ele>26.877318</ele>
        <time>2023-06-04T17:56:39.878Z</time>
      </trkpt>
      <trkpt lat="51.193011" lon="6.002439">
        <ele>27.155184</ele>
        <time>2023-06-04T17:56:46.720Z</time>
      </trkpt>
      <trkpt lat="51.193028" lon="6.001695">
        <ele>27.674752</ele>
        <time>2023-06-04T17:56:59.597Z</time>
      </trkpt>
      <trkpt lat="51.193068" lon="6.001140">
        <ele>28.064628</ele>
        <time>2023-06-04T17:57:09.270Z</time>
      </trkpt>
      <trkpt lat="51.193109" lon="6.000550">
        <ele>28.478901</ele>
        <time>2023-06-04T17:57:19.643Z</time>
      </trkpt>
      <trkpt lat="51.193127" lon="6.000100">
        <ele>28.700960</ele>
        <time>2023-06-04T17:57:27.527Z</time>
      </trkpt>
      <trkpt lat="51.192984" lon="5.999506">
        <ele>28.895704</ele>
        <time>2023-06-04T17:57:38.603Z</time>
      </trkpt>
      <trkpt lat="51.192679" lon="5.998442">
        <ele>29.253788</ele>
        <time>2023-06-04T17:57:58.417Z</time>
      </trkpt>
      <trkpt lat="51.192560" lon="5.998001">
        <ele>29.400736</ele>
        <time>2023-06-04T17:58:06.184Z</time>
      </trkpt>
      <trkpt lat="51.192328" lon="5.997376">
        <ele>29.309016</ele>
        <time>2023-06-04T17:58:17.620Z</time>
      </trkpt>
      <trkpt lat="51.191944" lon="5.996648">
        <ele>28.812339</ele>
        <time>2023-06-04T17:58:31.401Z</time>
      </trkpt>
      <trkpt lat="51.191856" lon="5.996429">
        <ele>28.676547</ele>
        <time>2023-06-04T17:58:35.134Z</time>
      </trkpt>
      <trkpt lat="51.191797" lon="5.996138">
        <ele>28.516900</ele>
        <time>2023-06-04T17:58:39.474Z</time>
      </trkpt>
      <trkpt lat="51.191810" lon="5.995783">
        <ele>28.331281</ele>
        <time>2023-06-04T17:58:44.545Z</time>
      </trkpt>
      <trkpt lat="51.191834" lon="5.995640">
        <ele>28.254008</ele>
        <time>2023-06-04T17:58:46.654Z</time>
      </trkpt>
      <trkpt lat="51.191849" lon="5.995532">
        <ele>28.196266</ele>
        <time>2023-06-04T17:58:48.261Z</time>
      </trkpt>
      <trkpt lat="51.191857" lon="5.995075">
        <ele>28.010065</ele>
        <time>2023-06-04T17:58:55.079Z</time>
      </trkpt>
      <trkpt lat="51.191872" lon="5.994956">
        <ele>28.011476</ele>
        <time>2023-06-04T17:58:56.897Z</time>
      </trkpt>
      <trkpt lat="51.191890" lon="5.994840">
        <ele>28.012865</ele>
        <time>2023-06-04T17:58:58.727Z</time>
      </trkpt>
      <trkpt lat="51.192144" lon="5.993401">
        <ele>28.030246</ele>
        <time>2023-06-04T17:59:23.229Z</time>
      </trkpt>
      <trkpt lat="51.192155" lon="5.993338">
        <ele>28.031006</ele>
        <time>2023-06-04T17:59:24.304Z</time>
      </trkpt>
      <trkpt lat="51.192273" lon="5.992708">
        <ele>28.038650</ele>
        <time>2023-06-04T17:59:37.904Z</time>
      </trkpt>
      <trkpt lat="51.192299" lon="5.992677">
        <ele>28.039252</ele>
        <time>2023-06-04T17:59:38.986Z</time>
      </trkpt>
      <trkpt lat="51.192438" lon="5.992755">
        <ele>28.041986</ele>
        <time>2023-06-04T17:59:43.847Z</time>
      </trkpt>
      <trkpt lat="51.192450" lon="5.992768">
        <ele>28.042255</ele>
        <time>2023-06-04T17:59:44.333Z</time>
      </trkpt>
      <trkpt lat="51.192493" lon="5.992811">
        <ele>28.071437</ele>
        <time>2023-06-04T17:59:46.006Z</time>
      </trkpt>
      <trkpt lat="51.192542" lon="5.992873">
        <ele>28.108672</ele>
        <time>2023-06-04T17:59:48.094Z</time>
      </trkpt>
      <trkpt lat="51.192589" lon="5.992925">
        <ele>28.142724</ele>
        <time>2023-06-04T17:59:49.977Z</time>
      </trkpt>
      <trkpt lat="51.192542" lon="5.992873">
        <ele>28.176777</ele>
        <time>2023-06-04T17:59:51.857Z</time>
      </trkpt>
      <trkpt lat="51.192582" lon="5.992707">
        <ele>28.243140</ele>
        <time>2023-06-04T17:59:55.549Z</time>
      </trkpt>
      <trkpt lat="51.192612" lon="5.992570">
        <ele>28.297291</ele>
        <time>2023-06-04T17:59:58.548Z</time>
      </trkpt>
      <trkpt lat="51.192660" lon="5.992604">
        <ele>28.328560</ele>
        <time>2023-06-04T18:00:00.294Z</time>
      </trkpt>
      <trkpt lat="51.192841" lon="5.992720">
        <ele>28.444695</ele>
        <time>2023-06-04T18:00:06.762Z</time>
      </trkpt>
      <trkpt lat="51.192660" lon="5.992604">
        <ele>28.560831</ele>
        <time>2023-06-04T18:00:13.226Z</time>
      </trkpt>
      <trkpt lat="51.192612" lon="5.992570">
        <ele>28.592099</ele>
        <time>2023-06-04T18:00:14.972Z</time>
      </trkpt>
      <trkpt lat="51.192270" lon="5.992375">
        <ele>28.808337</ele>
        <time>2023-06-04T18:00:24.847Z</time>
      </trkpt>
      <trkpt lat="51.192448" lon="5.991692">
        <ele>29.084352</ele>
        <time>2023-06-04T18:00:37.226Z</time>
      </trkpt>
      <trkpt lat="51.192491" lon="5.991719">
        <ele>29.111866</ele>
        <time>2023-06-04T18:00:40.440Z</time>
      </trkpt>
      <trkpt lat="51.192853" lon="5.990896">
        <ele>29.235155</ele>
        <time>2023-06-04T18:01:24.252Z</time>
      </trkpt>
      <trkpt lat="51.193139" lon="5.990468">
        <ele>29.311309</ele>
        <time>2023-06-04T18:01:51.501Z</time>
      </trkpt>
      <trkpt lat="51.193209" lon="5.990363">
        <ele>29.329969</ele>
        <time>2023-06-04T18:01:58.153Z</time>
      </trkpt>
      <trkpt lat="51.193523" lon="5.989983">
        <ele>29.406510</ele>
        <time>2023-06-04T18:02:25.582Z</time>
      </trkpt>
      <trkpt lat="51.193491" lon="5.989903">
        <ele>29.418062</ele>
        <time>2023-06-04T18:02:29.724Z</time>
      </trkpt>
      <trkpt lat="51.193447" lon="5.989793">
        <ele>29.433946</ele>
        <time>2023-06-04T18:02:35.400Z</time>
      </trkpt>
      <trkpt lat="51.193384" lon="5.989597">
        <ele>29.460757</ele>
        <time>2023-06-04T18:02:44.999Z</time>
      </trkpt>
      <trkpt lat="51.193348" lon="5.989615">
        <ele>29.467358</ele>
        <time>2023-06-04T18:02:45.972Z</time>
      </trkpt>
      <trkpt lat="51.193309" lon="5.989563">
        <ele>29.475936</ele>
        <time>2023-06-04T18:02:47.300Z</time>
      </trkpt>
      <trkpt lat="51.193287" lon="5.989413">
        <ele>29.492231</ele>
        <time>2023-06-04T18:02:49.882Z</time>
      </trkpt>
      <trkpt lat="51.193258" lon="5.989314">
        <ele>29.503790</ele>
        <time>2023-06-04T18:02:51.682Z</time>
      </trkpt>
      <trkpt lat="51.193233" lon="5.989170">
        <ele>29.519596</ele>
        <time>2023-06-04T18:02:54.095Z</time>
      </trkpt>
      <trkpt lat="51.193211" lon="5.989055">
        <ele>29.532314</ele>
        <time>2023-06-04T18:02:56.042Z</time>
      </trkpt>
      <trkpt lat="51.193174" lon="5.988871">
        <ele>29.552754</ele>
        <time>2023-06-04T18:02:59.260Z</time>
      </trkpt>
      <trkpt lat="51.192936" lon="5.987699">
        <ele>29.683068</ele>
        <time>2023-06-04T18:03:19.833Z</time>
      </trkpt>
      <trkpt lat="51.192989" lon="5.987670">
        <ele>29.692524</ele>
        <time>2023-06-04T18:03:23.766Z</time>
      </trkpt>
      <trkpt lat="51.193316" lon="5.987490">
        <ele>29.750907</ele>
        <time>2023-06-04T18:03:35.181Z</time>
      </trkpt>
      <trkpt lat="51.193492" lon="5.987392">
        <ele>29.759057</ele>
        <time>2023-06-04T18:03:41.323Z</time>
      </trkpt>
      <trkpt lat="51.193618" lon="5.987821">
        <ele>29.737279</ele>
        <time>2023-06-04T18:03:51.046Z</time>
      </trkpt>
      <trkpt lat="51.193492" lon="5.987392">
        <ele>29.715500</ele>
        <time>2023-06-04T18:04:00.738Z</time>
      </trkpt>
      <trkpt lat="51.193902" lon="5.987174">
        <ele>29.683801</ele>
        <time>2023-06-04T18:04:30.769Z</time>
      </trkpt>
      <trkpt lat="51.194404" lon="5.986772">
        <ele>29.642602</ele>
        <time>2023-06-04T18:05:09.789Z</time>
      </trkpt>
      <trkpt lat="51.194411" lon="5.986767">
        <ele>29.642040</ele>
        <time>2023-06-04T18:05:10.333Z</time>
      </trkpt>
      <trkpt lat="51.194798" lon="5.986532">
        <ele>29.487085</ele>
        <time>2023-06-04T18:05:39.096Z</time>
      </trkpt>
      <trkpt lat="51.195177" lon="5.986285">
        <ele>29.290941</ele>
        <time>2023-06-04T18:06:07.575Z</time>
      </trkpt>
      <trkpt lat="51.195438" lon="5.986062">
        <ele>29.149097</ele>
        <time>2023-06-04T18:06:28.132Z</time>
      </trkpt>
      <trkpt lat="51.195582" lon="5.985963">
        <ele>29.073974</ele>
        <time>2023-06-04T18:06:33.039Z</time>
      </trkpt>
      <trkpt lat="51.196157" lon="5.985519">
        <ele>28.771238</ele>
        <time>2023-06-04T18:06:53.585Z</time>
      </trkpt>
      <trkpt lat="51.196130" lon="5.985394">
        <ele>28.760669</ele>
        <time>2023-06-04T18:06:56.271Z</time>
      </trkpt>
      <trkpt lat="51.196069" lon="5.985103">
        <ele>28.736142</ele>
        <time>2023-06-04T18:07:02.617Z</time>
      </trkpt>
      <trkpt lat="51.196049" lon="5.985000">
        <ele>28.727523</ele>
        <time>2023-06-04T18:07:04.854Z</time>
      </trkpt>
      <trkpt lat="51.195979" lon="5.984736">
        <ele>28.704609</ele>
        <time>2023-06-04T18:07:10.755Z</time>
      </trkpt>
      <trkpt lat="51.196248" lon="5.984094">
        <ele>28.642877</ele>
        <time>2023-06-04T18:07:23.274Z</time>
      </trkpt>
      <trkpt lat="51.196283" lon="5.984005">
        <ele>28.634479</ele>
        <time>2023-06-04T18:07:25.025Z</time>
      </trkpt>
      <trkpt lat="51.196317" lon="5.983909">
        <ele>28.625664</ele>
        <time>2023-06-04T18:07:26.895Z</time>
      </trkpt>
      <trkpt lat="51.196349" lon="5.983918">
        <ele>28.621520</ele>
        <time>2023-06-04T18:07:27.818Z</time>
      </trkpt>
      <trkpt lat="51.196563" lon="5.983985">
        <ele>28.593703</ele>
        <time>2023-06-04T18:07:33.703Z</time>
      </trkpt>
      <trkpt lat="51.196790" lon="5.984058">
        <ele>28.564165</ele>
        <time>2023-06-04T18:07:39.904Z</time>
      </trkpt>
      <trkpt lat="51.197060" lon="5.984172">
        <ele>28.395742</ele>
        <time>2023-06-04T18:07:47.050Z</time>
      </trkpt>
      <trkpt lat="51.197260" lon="5.984327">
        <ele>28.107152</ele>
        <time>2023-06-04T18:07:52.281Z</time>
      </trkpt>
      <trkpt lat="51.197331" lon="5.984464">
        <ele>27.962549</ele>
        <time>2023-06-04T18:07:54.939Z</time>
      </trkpt>
      <trkpt lat="51.197344" lon="5.984723">
        <ele>27.751213</ele>
        <time>2023-06-04T18:07:58.576Z</time>
      </trkpt>
      <trkpt lat="51.197326" lon="5.984966">
        <ele>27.552188</ele>
        <time>2023-06-04T18:08:02.202Z</time>
      </trkpt>
      <trkpt lat="51.197304" lon="5.985029">
        <ele>27.493527</ele>
        <time>2023-06-04T18:08:03.325Z</time>
      </trkpt>
      <trkpt lat="51.197226" lon="5.984975">
        <ele>27.383168</ele>
        <time>2023-06-04T18:08:05.867Z</time>
      </trkpt>
      <trkpt lat="51.197140" lon="5.985068">
        <ele>27.248326</ele>
        <time>2023-06-04T18:08:08.926Z</time>
      </trkpt>
      <trkpt lat="51.197137" lon="5.985213">
        <ele>27.130323</ele>
        <time>2023-06-04T18:08:11.829Z</time>
      </trkpt>
      <trkpt lat="51.197180" lon="5.985335">
        <ele>27.016472</ele>
        <time>2023-06-04T18:08:14.635Z</time>
      </trkpt>
      <trkpt lat="51.197219" lon="5.985361">
        <ele>26.961611</ele>
        <time>2023-06-04T18:08:15.622Z</time>
      </trkpt>
      <trkpt lat="51.197306" lon="5.985351">
        <ele>26.848394</ele>
        <time>2023-06-04T18:08:18.102Z</time>
      </trkpt>
      <trkpt lat="51.197515" lon="5.985263">
        <ele>26.567833</ele>
        <time>2023-06-04T18:08:23.051Z</time>
      </trkpt>
      <trkpt lat="51.197746" lon="5.985165">
        <ele>26.257585</ele>
        <time>2023-06-04T18:08:28.259Z</time>
      </trkpt>
      <trkpt lat="51.197862" lon="5.984970">
        <ele>25.969548</ele>
        <time>2023-06-04T18:08:32.017Z</time>
      </trkpt>
      <trkpt lat="51.197888" lon="5.984869">
        <ele>25.844406</ele>
        <time>2023-06-04T18:08:33.538Z</time>
      </trkpt>
      <trkpt lat="51.197922" lon="5.984745">
        <ele>25.689282</ele>
        <time>2023-06-04T18:08:35.457Z</time>
      </trkpt>
      <trkpt lat="51.197967" lon="5.984710">
        <ele>25.597723</ele>
        <time>2023-06-04T18:08:36.657Z</time>
      </trkpt>
      <trkpt lat="51.198188" lon="5.984598">
        <ele>25.173630</ele>
        <time>2023-06-04T18:08:41.881Z</time>
      </trkpt>
      <trkpt lat="51.198369" lon="5.984574">
        <ele>24.841446</ele>
        <time>2023-06-04T18:08:45.930Z</time>
      </trkpt>
      <trkpt lat="51.198321" lon="5.984421">
        <ele>24.645347</ele>
        <time>2023-06-04T18:08:48.087Z</time>
      </trkpt>
      <trkpt lat="51.198274" lon="5.984297">
        <ele>24.479258</ele>
        <time>2023-06-04T18:08:49.894Z</time>
      </trkpt>
      <trkpt lat="51.198229" lon="5.984179">
        <ele>24.320945</ele>
        <time>2023-06-04T18:08:51.670Z</time>
      </trkpt>
      <trkpt lat="51.198141" lon="5.984218">
        <ele>24.153905</ele>
        <time>2023-06-04T18:08:53.616Z</time>
      </trkpt>
      <trkpt lat="51.198060" lon="5.984182">
        <ele>24.000120</ele>
        <time>2023-06-04T18:08:55.415Z</time>
      </trkpt>
      <trkpt lat="51.197993" lon="5.984054">
        <ele>23.808974</ele>
        <time>2023-06-04T18:08:57.704Z</time>
      </trkpt>
      <trkpt lat="51.197980" lon="5.983952">
        <ele>23.689680</ele>
        <time>2023-06-04T18:08:59.177Z</time>
      </trkpt>
      <trkpt lat="51.198078" lon="5.983565">
        <ele>23.211297</ele>
        <time>2023-06-04T18:09:05.141Z</time>
      </trkpt>
      <trkpt lat="51.198106" lon="5.983347">
        <ele>22.956257</ele>
        <time>2023-06-04T18:09:08.535Z</time>
      </trkpt>
      <trkpt lat="51.198108" lon="5.983191">
        <ele>22.807111</ele>
        <time>2023-06-04T18:09:10.975Z</time>
      </trkpt>
      <trkpt lat="51.198037" lon="5.982636">
        <ele>22.294259</ele>
        <time>2023-06-04T18:09:19.772Z</time>
      </trkpt>
      <trkpt lat="51.198015" lon="5.982344">
        <ele>22.027983</ele>
        <time>2023-06-04T18:09:24.264Z</time>
      </trkpt>
      <trkpt lat="51.198048" lon="5.982044">
        <ele>21.752215</ele>
        <time>2023-06-04T18:09:28.765Z</time>
      </trkpt>
      <trkpt lat="51.198383" lon="5.980522">
        <ele>20.303898</ele>
        <time>2023-06-04T18:09:51.380Z</time>
      </trkpt>
      <trkpt lat="51.198930" lon="5.978032">
        <ele>18.945256</ele>
        <time>2023-06-04T18:10:31.124Z</time>
      </trkpt>
      <trkpt lat="51.199125" lon="5.977293">
        <ele>19.339960</ele>
        <time>2023-06-04T18:10:44.380Z</time>
      </trkpt>
      <trkpt lat="51.199303" lon="5.976749">
        <ele>19.848181</ele>
        <time>2023-06-04T18:10:54.765Z</time>
      </trkpt>
      <trkpt lat="51.199406" lon="5.976574">
        <ele>20.047007</ele>
        <time>2023-06-04T18:10:58.844Z</time>
      </trkpt>
      <trkpt lat="51.199582" lon="5.976375">
        <ele>20.332069</ele>
        <time>2023-06-04T18:11:04.802Z</time>
      </trkpt>
      <trkpt lat="51.199714" lon="5.976345">
        <ele>20.508278</ele>
        <time>2023-06-04T18:11:08.453Z</time>
      </trkpt>
      <trkpt lat="51.199804" lon="5.976376">
        <ele>20.629960</ele>
        <time>2023-06-04T18:11:10.988Z</time>
      </trkpt>
      <trkpt lat="51.199819" lon="5.976219">
        <ele>20.761476</ele>
        <time>2023-06-04T18:11:13.794Z</time>
      </trkpt>
      <trkpt lat="51.199955" lon="5.975879">
        <ele>21.095512</ele>
        <time>2023-06-04T18:11:20.790Z</time>
      </trkpt>
      <trkpt lat="51.200007" lon="5.975433">
        <ele>21.296874</ele>
        <time>2023-06-04T18:11:28.588Z</time>
      </trkpt>
      <trkpt lat="51.200072" lon="5.975171">
        <ele>21.368893</ele>
        <time>2023-06-04T18:11:33.350Z</time>
      </trkpt>
      <trkpt lat="51.200300" lon="5.974690">
        <ele>21.523040</ele>
        <time>2023-06-04T18:11:43.387Z</time>
      </trkpt>
      <trkpt lat="51.200331" lon="5.974573">
        <ele>21.555506</ele>
        <time>2023-06-04T18:11:45.470Z</time>
      </trkpt>
      <trkpt lat="51.200476" lon="5.973860">
        <ele>21.747091</ele>
        <time>2023-06-04T18:11:57.801Z</time>
      </trkpt>
      <trkpt lat="51.200544" lon="5.973373">
        <ele>21.874610</ele>
        <time>2023-06-04T18:12:05.746Z</time>
      </trkpt>
      <trkpt lat="51.200533" lon="5.972835">
        <ele>21.784451</ele>
        <time>2023-06-04T18:12:14.035Z</time>
      </trkpt>
      <trkpt lat="51.200458" lon="5.971717">
        <ele>20.971763</ele>
        <time>2023-06-04T18:12:30.427Z</time>
      </trkpt>
      <trkpt lat="51.200487" lon="5.971243">
        <ele>20.627536</ele>
        <time>2023-06-04T18:12:37.309Z</time>
      </trkpt>
      <trkpt lat="51.200761" lon="5.969780">
        <ele>19.806330</ele>
        <time>2023-06-04T18:13:00.155Z</time>
      </trkpt>
      <trkpt lat="51.201370" lon="5.965811">
        <ele>19.753400</ele>
        <time>2023-06-04T18:14:07.370Z</time>
      </trkpt>
      <trkpt lat="51.201651" lon="5.963546">
        <ele>20.196967</ele>
        <time>2023-06-04T18:14:46.600Z</time>
      </trkpt>
      <trkpt lat="51.201749" lon="5.962830">
        <ele>20.351986</ele>
        <time>2023-06-04T18:14:58.814Z</time>
      </trkpt>
      <trkpt lat="51.201887" lon="5.961831">
        <ele>20.561495</ele>
        <time>2023-06-04T18:15:15.688Z</time>
      </trkpt>
      <trkpt lat="51.202137" lon="5.960215">
        <ele>20.523752</ele>
        <time>2023-06-04T18:15:42.085Z</time>
      </trkpt>
      <trkpt lat="51.202359" lon="5.958508">
        <ele>20.542774</ele>
        <time>2023-06-04T18:16:09.120Z</time>
      </trkpt>
      <trkpt lat="51.202630" lon="5.956400">
        <ele>20.716333</ele>
        <time>2023-06-04T18:16:43.690Z</time>
      </trkpt>
      <trkpt lat="51.202891" lon="5.954526">
        <ele>21.370635</ele>
        <time>2023-06-04T18:17:14.500Z</time>
      </trkpt>
      <trkpt lat="51.203153" lon="5.952594">
        <ele>22.078513</ele>
        <time>2023-06-04T18:17:47.641Z</time>
      </trkpt>
      <trkpt lat="51.203265" lon="5.952023">
        <ele>22.288924</ele>
        <time>2023-06-04T18:17:57.444Z</time>
      </trkpt>
      <trkpt lat="51.203362" lon="5.951764">
        <ele>22.395036</ele>
        <time>2023-06-04T18:18:02.346Z</time>
      </trkpt>
      <trkpt lat="51.203478" lon="5.951537">
        <ele>22.498048</ele>
        <time>2023-06-04T18:18:07.010Z</time>
      </trkpt>
      <trkpt lat="51.203612" lon="5.951349">
        <ele>22.598185</ele>
        <time>2023-06-04T18:18:11.641Z</time>
      </trkpt>
      <trkpt lat="51.203844" lon="5.951150">
        <ele>22.746012</ele>
        <time>2023-06-04T18:18:18.376Z</time>
      </trkpt>
      <trkpt lat="51.203966" lon="5.951080">
        <ele>22.723302</ele>
        <time>2023-06-04T18:18:21.663Z</time>
      </trkpt>
      <trkpt lat="51.204190" lon="5.951020">
        <ele>22.530769</ele>
        <time>2023-06-04T18:18:27.501Z</time>
      </trkpt>
      <trkpt lat="51.204330" lon="5.951020">
        <ele>22.412096</ele>
        <time>2023-06-04T18:18:31.050Z</time>
      </trkpt>
      <trkpt lat="51.204686" lon="5.951144">
        <ele>22.103223</ele>
        <time>2023-06-04T18:18:39.792Z</time>
      </trkpt>
      <trkpt lat="51.205864" lon="5.951934">
        <ele>20.928253</ele>
        <time>2023-06-04T18:19:07.906Z</time>
      </trkpt>
      <trkpt lat="51.204905" lon="5.955245">
        <ele>18.524764</ele>
        <time>2023-06-04T18:20:00.539Z</time>
      </trkpt>
      <trkpt lat="51.204759" lon="5.955515">
        <ele>18.345674</ele>
        <time>2023-06-04T18:20:05.753Z</time>
      </trkpt>
      <trkpt lat="51.204818" lon="5.955620">
        <ele>18.274852</ele>
        <time>2023-06-04T18:20:07.986Z</time>
      </trkpt>
      <trkpt lat="51.204916" lon="5.955789">
        <ele>18.159222</ele>
        <time>2023-06-04T18:20:11.599Z</time>
      </trkpt>
      <trkpt lat="51.204965" lon="5.956062">
        <ele>18.016624</ele>
        <time>2023-06-04T18:20:15.771Z</time>
      </trkpt>
      <trkpt lat="51.205367" lon="5.956811">
        <ele>17.689723</ele>
        <time>2023-06-04T18:20:30.790Z</time>
      </trkpt>
      <trkpt lat="51.205922" lon="5.957846">
        <ele>17.663405</ele>
        <time>2023-06-04T18:20:52.187Z</time>
      </trkpt>
      <trkpt lat="51.206044" lon="5.958070">
        <ele>17.657671</ele>
        <time>2023-06-04T18:20:56.903Z</time>
      </trkpt>
      <trkpt lat="51.209005" lon="5.963473">
        <ele>18.500205</ele>
        <time>2023-06-04T18:22:52.209Z</time>
      </trkpt>
      <trkpt lat="51.209828" lon="5.964814">
        <ele>18.503545</ele>
        <time>2023-06-04T18:23:22.127Z</time>
      </trkpt>
      <trkpt lat="51.211470" lon="5.967200">
        <ele>17.649383</ele>
        <time>2023-06-04T18:24:15.805Z</time>
      </trkpt>
      <trkpt lat="51.211864" lon="5.967623">
        <ele>17.513123</ele>
        <time>2023-06-04T18:24:27.458Z</time>
      </trkpt>
      <trkpt lat="51.212412" lon="5.968029">
        <ele>17.339751</ele>
        <time>2023-06-04T18:24:42.367Z</time>
      </trkpt>
      <trkpt lat="51.212596" lon="5.968123">
        <ele>17.284311</ele>
        <time>2023-06-04T18:24:47.203Z</time>
      </trkpt>
      <trkpt lat="51.213292" lon="5.968347">
        <ele>17.130898</ele>
        <time>2023-06-04T18:25:04.811Z</time>
      </trkpt>
      <trkpt lat="51.213672" lon="5.968452">
        <ele>17.076987</ele>
        <time>2023-06-04T18:25:14.455Z</time>
      </trkpt>
      <trkpt lat="51.214215" lon="5.968442">
        <ele>17.001075</ele>
        <time>2023-06-04T18:25:28.070Z</time>
      </trkpt>
      <trkpt lat="51.215176" lon="5.968365">
        <ele>16.817600</ele>
        <time>2023-06-04T18:25:51.692Z</time>
      </trkpt>
      <trkpt lat="51.217182" lon="5.968056">
        <ele>16.755889</ele>
        <time>2023-06-04T18:26:41.549Z</time>
      </trkpt>
      <trkpt lat="51.217418" lon="5.968059">
        <ele>16.858440</ele>
        <time>2023-06-04T18:26:47.594Z</time>
      </trkpt>
      <trkpt lat="51.218483" lon="5.968297">
        <ele>17.483601</ele>
        <time>2023-06-04T18:27:16.149Z</time>
      </trkpt>
      <trkpt lat="51.218826" lon="5.968377">
        <ele>17.968561</ele>
        <time>2023-06-04T18:27:25.447Z</time>
      </trkpt>
      <trkpt lat="51.219011" lon="5.968362">
        <ele>18.227715</ele>
        <time>2023-06-04T18:27:30.456Z</time>
      </trkpt>
      <trkpt lat="51.219204" lon="5.968300">
        <ele>18.503139</ele>
        <time>2023-06-04T18:27:35.796Z</time>
      </trkpt>
      <trkpt lat="51.219423" lon="5.968143">
        <ele>18.838995</ele>
        <time>2023-06-04T18:27:42.363Z</time>
      </trkpt>
      <trkpt lat="51.219659" lon="5.967901">
        <ele>19.231399</ele>
        <time>2023-06-04T18:27:50.023Z</time>
      </trkpt>
      <trkpt lat="51.219894" lon="5.967710">
        <ele>19.600319</ele>
        <time>2023-06-04T18:27:57.173Z</time>
      </trkpt>
      <trkpt lat="51.220173" lon="5.967626">
        <ele>19.921794</ele>
        <time>2023-06-04T18:28:04.841Z</time>
      </trkpt>
      <trkpt lat="51.220418" lon="5.967650">
        <ele>20.150421</ele>
        <time>2023-06-04T18:28:11.450Z</time>
      </trkpt>
      <trkpt lat="51.220670" lon="5.967734">
        <ele>20.390200</ele>
        <time>2023-06-04T18:28:18.269Z</time>
      </trkpt>
      <trkpt lat="51.220923" lon="5.967883">
        <ele>20.641370</ele>
        <time>2023-06-04T18:28:25.303Z</time>
      </trkpt>
      <trkpt lat="51.221181" lon="5.967945">
        <ele>20.884383</ele>
        <time>2023-06-04T18:28:32.147Z</time>
      </trkpt>
      <trkpt lat="51.221323" lon="5.967928">
        <ele>21.017017</ele>
        <time>2023-06-04T18:28:35.895Z</time>
      </trkpt>
      <trkpt lat="51.221588" lon="5.967825">
        <ele>21.271052</ele>
        <time>2023-06-04T18:28:43.124Z</time>
      </trkpt>
      <trkpt lat="51.222229" lon="5.967459">
        <ele>21.882259</ele>
        <time>2023-06-04T18:29:01.140Z</time>
      </trkpt>
      <trkpt lat="51.222449" lon="5.967381">
        <ele>22.081705</ele>
        <time>2023-06-04T18:29:07.013Z</time>
      </trkpt>
      <trkpt lat="51.223149" lon="5.967227">
        <ele>22.707070</ele>
        <time>2023-06-04T18:29:25.590Z</time>
      </trkpt>
      <trkpt lat="51.223299" lon="5.967150">
        <ele>22.846515</ele>
        <time>2023-06-04T18:29:29.774Z</time>
      </trkpt>
      <trkpt lat="51.223479" lon="5.967064">
        <ele>23.012797</ele>
        <time>2023-06-04T18:29:34.853Z</time>
      </trkpt>
      <trkpt lat="51.223676" lon="5.966899">
        <ele>23.284106</ele>
        <time>2023-06-04T18:29:40.851Z</time>
      </trkpt>
      <trkpt lat="51.223922" lon="5.966620">
        <ele>23.666975</ele>
        <time>2023-06-04T18:29:49.065Z</time>
      </trkpt>
      <trkpt lat="51.224044" lon="5.966471">
        <ele>23.861868</ele>
        <time>2023-06-04T18:29:53.259Z</time>
      </trkpt>
      <trkpt lat="51.224258" lon="5.966292">
        <ele>24.168407</ele>
        <time>2023-06-04T18:29:59.827Z</time>
      </trkpt>
      <trkpt lat="51.224456" lon="5.966177">
        <ele>24.435747</ele>
        <time>2023-06-04T18:30:05.572Z</time>
      </trkpt>
      <trkpt lat="51.224911" lon="5.966041">
        <ele>25.023110</ele>
        <time>2023-06-04T18:30:17.920Z</time>
      </trkpt>
      <trkpt lat="51.225333" lon="5.966050">
        <ele>25.297255</ele>
        <time>2023-06-04T18:30:29.100Z</time>
      </trkpt>
      <trkpt lat="51.225648" lon="5.965999">
        <ele>25.258393</ele>
        <time>2023-06-04T18:30:37.412Z</time>
      </trkpt>
      <trkpt lat="51.225839" lon="5.965886">
        <ele>25.233392</ele>
        <time>2023-06-04T18:30:42.735Z</time>
      </trkpt>
      <trkpt lat="51.226025" lon="5.965691">
        <ele>25.206082</ele>
        <time>2023-06-04T18:30:48.405Z</time>
      </trkpt>
      <trkpt lat="51.227157" lon="5.964211">
        <ele>24.301890</ele>
        <time>2023-06-04T18:31:22.708Z</time>
      </trkpt>
      <trkpt lat="51.227367" lon="5.963873">
        <ele>23.902179</ele>
        <time>2023-06-04T18:31:29.039Z</time>
      </trkpt>
      <trkpt lat="51.227880" lon="5.963580">
        <ele>23.171804</ele>
        <time>2023-06-04T18:31:40.839Z</time>
      </trkpt>
      <trkpt lat="51.228081" lon="5.963499">
        <ele>22.893902</ele>
        <time>2023-06-04T18:31:45.453Z</time>
      </trkpt>
      <trkpt lat="51.228606" lon="5.963460">
        <ele>22.485242</ele>
        <time>2023-06-04T18:31:57.193Z</time>
      </trkpt>
      <trkpt lat="51.229644" lon="5.963443">
        <ele>21.918848</ele>
        <time>2023-06-04T18:32:22.148Z</time>
      </trkpt>
      <trkpt lat="51.230065" lon="5.963387">
        <ele>21.719732</ele>
        <time>2023-06-04T18:32:32.980Z</time>
      </trkpt>
      <trkpt lat="51.230073" lon="5.963470">
        <ele>21.739450</ele>
        <time>2023-06-04T18:32:34.358Z</time>
      </trkpt>
      <trkpt lat="51.230078" lon="5.963568">
        <ele>21.762537</ele>
        <time>2023-06-04T18:32:35.951Z</time>
      </trkpt>
      <trkpt lat="51.230016" lon="5.963643">
        <ele>21.791702</ele>
        <time>2023-06-04T18:32:37.982Z</time>
      </trkpt>
      <trkpt lat="51.229989" lon="5.963816">
        <ele>21.833566</ele>
        <time>2023-06-04T18:32:40.919Z</time>
      </trkpt>
      <trkpt lat="51.230157" lon="5.964213">
        <ele>21.946073</ele>
        <time>2023-06-04T18:32:48.741Z</time>
      </trkpt>
      <trkpt lat="51.230397" lon="5.965619">
        <ele>22.288251</ele>
        <time>2023-06-04T18:33:12.368Z</time>
      </trkpt>
      <trkpt lat="51.230442" lon="5.966112">
        <ele>22.383439</ele>
        <time>2023-06-04T18:33:20.488Z</time>
      </trkpt>
      <trkpt lat="51.230444" lon="5.966396">
        <ele>22.389192</ele>
        <time>2023-06-04T18:33:25.125Z</time>
      </trkpt>
      <trkpt lat="51.230409" lon="5.966740">
        <ele>22.396252</ele>
        <time>2023-06-04T18:33:30.773Z</time>
      </trkpt>
      <trkpt lat="51.230186" lon="5.968163">
        <ele>22.425965</ele>
        <time>2023-06-04T18:33:54.068Z</time>
      </trkpt>
      <trkpt lat="51.230010" lon="5.969189">
        <ele>22.238000</ele>
        <time>2023-06-04T18:34:10.249Z</time>
      </trkpt>
      <trkpt lat="51.229890" lon="5.969644">
        <ele>21.984419</ele>
        <time>2023-06-04T18:34:17.600Z</time>
      </trkpt>
      <trkpt lat="51.229785" lon="5.969926">
        <ele>21.815906</ele>
        <time>2023-06-04T18:34:22.388Z</time>
      </trkpt>
      <trkpt lat="51.229707" lon="5.969931">
        <ele>21.751877</ele>
        <time>2023-06-04T18:34:24.228Z</time>
      </trkpt>
      <trkpt lat="51.229587" lon="5.970195">
        <ele>21.584322</ele>
        <time>2023-06-04T18:34:28.882Z</time>
      </trkpt>
      <trkpt lat="51.229547" lon="5.970391">
        <ele>21.478439</ele>
        <time>2023-06-04T18:34:31.976Z</time>
      </trkpt>
      <trkpt lat="51.229552" lon="5.970453">
        <ele>21.446331</ele>
        <time>2023-06-04T18:34:32.928Z</time>
      </trkpt>
      <trkpt lat="51.229571" lon="5.970573">
        <ele>21.382756</ele>
        <time>2023-06-04T18:34:34.773Z</time>
      </trkpt>
      <trkpt lat="51.229585" lon="5.970664">
        <ele>21.334626</ele>
        <time>2023-06-04T18:34:36.164Z</time>
      </trkpt>
      <trkpt lat="51.229643" lon="5.970788">
        <ele>21.255130</ele>
        <time>2023-06-04T18:34:38.553Z</time>
      </trkpt>
      <trkpt lat="51.229896" lon="5.971054">
        <ele>21.006675</ele>
        <time>2023-06-04T18:34:45.899Z</time>
      </trkpt>
      <trkpt lat="51.230404" lon="5.971742">
        <ele>20.759327</ele>
        <time>2023-06-04T18:35:02.034Z</time>
      </trkpt>
      <trkpt lat="51.231648" lon="5.974091">
        <ele>20.457530</ele>
        <time>2023-06-04T18:35:52.560Z</time>
      </trkpt>
      <trkpt lat="51.231895" lon="5.974658">
        <ele>20.511865</ele>
        <time>2023-06-04T18:36:04.200Z</time>
      </trkpt>
      <trkpt lat="51.232065" lon="5.975129">
        <ele>20.554630</ele>
        <time>2023-06-04T18:36:13.206Z</time>
      </trkpt>
      <trkpt lat="51.232177" lon="5.975527">
        <ele>20.588955</ele>
        <time>2023-06-04T18:36:20.331Z</time>
      </trkpt>
      <trkpt lat="51.232282" lon="5.976320">
        <ele>20.629973</ele>
        <time>2023-06-04T18:36:33.664Z</time>
      </trkpt>
      <trkpt lat="51.232289" lon="5.976595">
        <ele>20.643741</ele>
        <time>2023-06-04T18:36:38.187Z</time>
      </trkpt>
      <trkpt lat="51.232148" lon="5.977708">
        <ele>20.700544</ele>
        <time>2023-06-04T18:36:56.771Z</time>
      </trkpt>
      <trkpt lat="51.231972" lon="5.978804">
        <ele>20.799887</ele>
        <time>2023-06-04T18:37:15.681Z</time>
      </trkpt>
      <trkpt lat="51.231742" lon="5.979974">
        <ele>20.974248</ele>
        <time>2023-06-04T18:37:36.206Z</time>
      </trkpt>
      <trkpt lat="51.231600" lon="5.980416">
        <ele>21.044882</ele>
        <time>2023-06-04T18:37:44.391Z</time>
      </trkpt>
      <trkpt lat="51.231304" lon="5.981085">
        <ele>21.141397</ele>
        <time>2023-06-04T18:37:57.989Z</time>
      </trkpt>
      <trkpt lat="51.231259" lon="5.981181">
        <ele>21.140532</ele>
        <time>2023-06-04T18:37:59.999Z</time>
      </trkpt>
      <trkpt lat="51.230783" lon="5.982263">
        <ele>21.130996</ele>
        <time>2023-06-04T18:38:21.882Z</time>
      </trkpt>
      <trkpt lat="51.230639" lon="5.982592">
        <ele>21.128102</ele>
        <time>2023-06-04T18:38:28.540Z</time>
      </trkpt>
      <trkpt lat="51.231483" lon="5.983983">
        <ele>20.996234</ele>
        <time>2023-06-04T18:39:08.071Z</time>
      </trkpt>
      <trkpt lat="51.231534" lon="5.984067">
        <ele>20.982148</ele>
        <time>2023-06-04T18:39:10.480Z</time>
      </trkpt>
      <trkpt lat="51.231734" lon="5.984472">
        <ele>20.920055</ele>
        <time>2023-06-04T18:39:21.096Z</time>
      </trkpt>
      <trkpt lat="51.231695" lon="5.984526">
        <ele>20.910131</ele>
        <time>2023-06-04T18:39:22.454Z</time>
      </trkpt>
      <trkpt lat="51.231742" lon="5.984616">
        <ele>20.896023</ele>
        <time>2023-06-04T18:39:24.366Z</time>
      </trkpt>
      <trkpt lat="51.232294" lon="5.985260">
        <ele>20.756582</ele>
        <time>2023-06-04T18:39:42.004Z</time>
      </trkpt>
      <trkpt lat="51.232644" lon="5.985599">
        <ele>20.621830</ele>
        <time>2023-06-04T18:39:52.385Z</time>
      </trkpt>
      <trkpt lat="51.232684" lon="5.985637">
        <ele>20.606509</ele>
        <time>2023-06-04T18:39:53.537Z</time>
      </trkpt>
      <trkpt lat="51.232843" lon="5.985767">
        <ele>20.547707</ele>
        <time>2023-06-04T18:39:58.060Z</time>
      </trkpt>
      <trkpt lat="51.233618" lon="5.986373">
        <ele>20.263644</ele>
        <time>2023-06-04T18:40:19.922Z</time>
      </trkpt>
      <trkpt lat="51.234746" lon="5.987360">
        <ele>20.103327</ele>
        <time>2023-06-04T18:40:53.689Z</time>
      </trkpt>
      <trkpt lat="51.235399" lon="5.987872">
        <ele>20.047266</ele>
        <time>2023-06-04T18:41:12.699Z</time>
      </trkpt>
      <trkpt lat="51.236468" lon="5.988575">
        <ele>19.623218</ele>
        <time>2023-06-04T18:41:42.214Z</time>
      </trkpt>
      <trkpt lat="51.237453" lon="5.989620">
        <ele>19.282920</ele>
        <time>2023-06-04T18:42:12.131Z</time>
      </trkpt>
      <trkpt lat="51.237956" lon="5.990360">
        <ele>19.163201</ele>
        <time>2023-06-04T18:42:29.849Z</time>
      </trkpt>
      <trkpt lat="51.238217" lon="5.990635">
        <ele>19.108462</ele>
        <time>2023-06-04T18:42:38.105Z</time>
      </trkpt>
      <trkpt lat="51.239566" lon="5.991495">
        <ele>19.087131</ele>
        <time>2023-06-04T18:43:16.417Z</time>
      </trkpt>
      <trkpt lat="51.240387" lon="5.991907">
        <ele>19.080350</ele>
        <time>2023-06-04T18:43:38.766Z</time>
      </trkpt>
      <trkpt lat="51.240677" lon="5.992087">
        <ele>19.048651</ele>
        <time>2023-06-04T18:43:46.822Z</time>
      </trkpt>
      <trkpt lat="51.241546" lon="5.992755">
        <ele>18.950392</ele>
        <time>2023-06-04T18:44:11.760Z</time>
      </trkpt>
      <trkpt lat="51.241967" lon="5.992897">
        <ele>18.934260</ele>
        <time>2023-06-04T18:44:23.011Z</time>
      </trkpt>
      <trkpt lat="51.242375" lon="5.992845">
        <ele>18.978691</ele>
        <time>2023-06-04T18:44:33.841Z</time>
      </trkpt>
      <trkpt lat="51.242747" lon="5.992797">
        <ele>19.019205</ele>
        <time>2023-06-04T18:44:43.727Z</time>
      </trkpt>
      <trkpt lat="51.245047" lon="5.992977">
        <ele>19.290929</ele>
        <time>2023-06-04T18:45:44.666Z</time>
      </trkpt>
      <trkpt lat="51.246027" lon="5.993277">
        <ele>19.470235</ele>
        <time>2023-06-04T18:46:11.003Z</time>
      </trkpt>
      <trkpt lat="51.246511" lon="5.993492">
        <ele>19.577776</ele>
        <time>2023-06-04T18:46:24.366Z</time>
      </trkpt>
      <trkpt lat="51.246860" lon="5.992490">
        <ele>19.738920</ele>
        <time>2023-06-04T18:46:43.537Z</time>
      </trkpt>
      <trkpt lat="51.248059" lon="5.989390">
        <ele>20.387908</ele>
        <time>2023-06-04T18:47:44.781Z</time>
      </trkpt>
      <trkpt lat="51.248316" lon="5.989642">
        <ele>20.349902</ele>
        <time>2023-06-04T18:47:52.740Z</time>
      </trkpt>
      <trkpt lat="51.252496" lon="5.993272">
        <ele>19.552505</ele>
        <time>2023-06-04T18:49:55.089Z</time>
      </trkpt>
      <trkpt lat="51.253605" lon="5.994315">
        <ele>19.421197</ele>
        <time>2023-06-04T18:50:28.642Z</time>
      </trkpt>
      <trkpt lat="51.254140" lon="5.994749">
        <ele>19.447152</ele>
        <time>2023-06-04T18:50:44.300Z</time>
      </trkpt>
      <trkpt lat="51.254755" lon="5.995200">
        <ele>19.594354</ele>
        <time>2023-06-04T18:51:02.289Z</time>
      </trkpt>
      <trkpt lat="51.255241" lon="5.995655">
        <ele>19.716888</ele>
        <time>2023-06-04T18:51:17.395Z</time>
      </trkpt>
      <trkpt lat="51.255330" lon="5.995750">
        <ele>19.740171</ele>
        <time>2023-06-04T18:51:20.266Z</time>
      </trkpt>
      <trkpt lat="51.255570" lon="5.995970">
        <ele>19.819779</ele>
        <time>2023-06-04T18:51:27.662Z</time>
      </trkpt>
      <trkpt lat="51.256039" lon="5.996442">
        <ele>20.050359</ele>
        <time>2023-06-04T18:51:42.489Z</time>
      </trkpt>
      <trkpt lat="51.256268" lon="5.996757">
        <ele>20.176061</ele>
        <time>2023-06-04T18:51:50.551Z</time>
      </trkpt>
      <trkpt lat="51.256889" lon="5.997909">
        <ele>20.545708</ele>
        <time>2023-06-04T18:52:16.230Z</time>
      </trkpt>
      <trkpt lat="51.257479" lon="5.999055">
        <ele>20.705060</ele>
        <time>2023-06-04T18:52:41.256Z</time>
      </trkpt>
      <trkpt lat="51.257529" lon="5.999203">
        <ele>20.723120</ele>
        <time>2023-06-04T18:52:44.056Z</time>
      </trkpt>
      <trkpt lat="51.257830" lon="6.000390">
        <ele>20.721797</ele>
        <time>2023-06-04T18:53:04.824Z</time>
      </trkpt>
      <trkpt lat="51.257983" lon="6.000856">
        <ele>20.460740</ele>
        <time>2023-06-04T18:53:12.967Z</time>
      </trkpt>
      <trkpt lat="51.257940" lon="6.000913">
        <ele>20.416453</ele>
        <time>2023-06-04T18:53:14.319Z</time>
      </trkpt>
      <trkpt lat="51.257863" lon="6.001020">
        <ele>20.335563</ele>
        <time>2023-06-04T18:53:16.750Z</time>
      </trkpt>
      <trkpt lat="51.257808" lon="6.001190">
        <ele>20.240626</ele>
        <time>2023-06-04T18:53:19.684Z</time>
      </trkpt>
      <trkpt lat="51.257542" lon="6.002328">
        <ele>19.637991</ele>
        <time>2023-06-04T18:53:38.233Z</time>
      </trkpt>
      <trkpt lat="51.257525" lon="6.002524">
        <ele>19.539829</ele>
        <time>2023-06-04T18:53:41.195Z</time>
      </trkpt>
      <trkpt lat="51.257531" lon="6.002657">
        <ele>19.473678</ele>
        <time>2023-06-04T18:53:43.204Z</time>
      </trkpt>
      <trkpt lat="51.257579" lon="6.002833">
        <ele>19.411516</ele>
        <time>2023-06-04T18:53:46.182Z</time>
      </trkpt>
      <trkpt lat="51.257828" lon="6.003440">
        <ele>19.426827</ele>
        <time>2023-06-04T18:53:57.277Z</time>
      </trkpt>
      <trkpt lat="51.257954" lon="6.003580">
        <ele>19.432001</ele>
        <time>2023-06-04T18:54:01.076Z</time>
      </trkpt>
      <trkpt lat="51.259048" lon="6.004134">
        <ele>19.470686</ele>
        <time>2023-06-04T18:54:31.789Z</time>
      </trkpt>
      <trkpt lat="51.259445" lon="6.004151">
        <ele>19.991409</ele>
        <time>2023-06-04T18:54:42.866Z</time>
      </trkpt>
      <trkpt lat="51.260255" lon="6.004059">
        <ele>21.064882</ele>
        <time>2023-06-04T18:55:05.648Z</time>
      </trkpt>
      <trkpt lat="51.260529" lon="6.004064">
        <ele>21.427118</ele>
        <time>2023-06-04T18:55:13.307Z</time>
      </trkpt>
      <trkpt lat="51.261180" lon="6.004158">
        <ele>22.056550</ele>
        <time>2023-06-04T18:55:31.376Z</time>
      </trkpt>
      <trkpt lat="51.261548" lon="6.004281">
        <ele>22.290117</ele>
        <time>2023-06-04T18:55:41.602Z</time>
      </trkpt>
      <trkpt lat="51.262270" lon="6.004581">
        <ele>22.753572</ele>
        <time>2023-06-04T18:56:01.697Z</time>
      </trkpt>
      <trkpt lat="51.262690" lon="6.004824">
        <ele>22.949038</ele>
        <time>2023-06-04T18:56:13.599Z</time>
      </trkpt>
      <trkpt lat="51.262809" lon="6.004903">
        <ele>22.928321</ele>
        <time>2023-06-04T18:56:17.028Z</time>
      </trkpt>
      <trkpt lat="51.263000" lon="6.005031">
        <ele>22.895023</ele>
        <time>2023-06-04T18:56:22.486Z</time>
      </trkpt>
      <trkpt lat="51.263870" lon="6.005572">
        <ele>22.744937</ele>
        <time>2023-06-04T18:56:45.649Z</time>
      </trkpt>
      <trkpt lat="51.264113" lon="6.005752">
        <ele>22.701877</ele>
        <time>2023-06-04T18:56:52.195Z</time>
      </trkpt>
      <trkpt lat="51.264466" lon="6.006095">
        <ele>22.467025</ele>
        <time>2023-06-04T18:57:02.233Z</time>
      </trkpt>
      <trkpt lat="51.265122" lon="6.006927">
        <ele>21.782940</ele>
        <time>2023-06-04T18:57:21.736Z</time>
      </trkpt>
      <trkpt lat="51.265972" lon="6.008243">
        <ele>21.424725</ele>
        <time>2023-06-04T18:57:49.250Z</time>
      </trkpt>
      <trkpt lat="51.266085" lon="6.008378">
        <ele>21.488698</ele>
        <time>2023-06-04T18:57:52.878Z</time>
      </trkpt>
      <trkpt lat="51.266186" lon="6.008438">
        <ele>21.537557</ele>
        <time>2023-06-04T18:57:55.718Z</time>
      </trkpt>
      <trkpt lat="51.266179" lon="6.008569">
        <ele>21.574860</ele>
        <time>2023-06-04T18:57:57.822Z</time>
      </trkpt>
      <trkpt lat="51.266220" lon="6.008835">
        <ele>21.652586</ele>
        <time>2023-06-04T18:58:02.413Z</time>
      </trkpt>
      <trkpt lat="51.266527" lon="6.009622">
        <ele>21.915713</ele>
        <time>2023-06-04T18:58:17.692Z</time>
      </trkpt>
      <trkpt lat="51.266703" lon="6.009846">
        <ele>22.017733</ele>
        <time>2023-06-04T18:58:23.721Z</time>
      </trkpt>
      <trkpt lat="51.266758" lon="6.010038">
        <ele>22.314899</ele>
        <time>2023-06-04T18:58:27.281Z</time>
      </trkpt>
      <trkpt lat="51.266803" lon="6.010085">
        <ele>22.445314</ele>
        <time>2023-06-04T18:58:28.773Z</time>
      </trkpt>
      <trkpt lat="51.267029" lon="6.010233">
        <ele>23.037835</ele>
        <time>2023-06-04T18:58:35.622Z</time>
      </trkpt>
      <trkpt lat="51.267248" lon="6.010457">
        <ele>23.668620</ele>
        <time>2023-06-04T18:58:43.068Z</time>
      </trkpt>
      <trkpt lat="51.267273" lon="6.010550">
        <ele>23.822265</ele>
        <time>2023-06-04T18:58:44.896Z</time>
      </trkpt>
      <trkpt lat="51.267266" lon="6.010619">
        <ele>23.928370</ele>
        <time>2023-06-04T18:58:46.142Z</time>
      </trkpt>
      <trkpt lat="51.267246" lon="6.010700">
        <ele>24.060550</ele>
        <time>2023-06-04T18:58:47.720Z</time>
      </trkpt>
      <trkpt lat="51.267109" lon="6.010892">
        <ele>24.502597</ele>
        <time>2023-06-04T18:58:52.985Z</time>
      </trkpt>
      <trkpt lat="51.267026" lon="6.010898">
        <ele>24.704163</ele>
        <time>2023-06-04T18:58:56.302Z</time>
      </trkpt>
      <trkpt lat="51.267009" lon="6.011009">
        <ele>24.877628</ele>
        <time>2023-06-04T18:58:59.134Z</time>
      </trkpt>
      <trkpt lat="51.267038" lon="6.011086">
        <ele>25.014050</ele>
        <time>2023-06-04T18:59:01.366Z</time>
      </trkpt>
      <trkpt lat="51.267009" lon="6.011009">
        <ele>25.150472</ele>
        <time>2023-06-04T18:59:03.601Z</time>
      </trkpt>
      <trkpt lat="51.267026" lon="6.010898">
        <ele>25.323938</ele>
        <time>2023-06-04T18:59:06.432Z</time>
      </trkpt>
      <trkpt lat="51.267109" lon="6.010892">
        <ele>25.525503</ele>
        <time>2023-06-04T18:59:09.746Z</time>
      </trkpt>
      <trkpt lat="51.267117" lon="6.010950">
        <ele>25.615657</ele>
        <time>2023-06-04T18:59:10.773Z</time>
      </trkpt>
      <trkpt lat="51.267162" lon="6.010968">
        <ele>25.728196</ele>
        <time>2023-06-04T18:59:12.061Z</time>
      </trkpt>
      <trkpt lat="51.267287" lon="6.010853">
        <ele>26.078101</ele>
        <time>2023-06-04T18:59:16.115Z</time>
      </trkpt>
      <trkpt lat="51.267482" lon="6.010853">
        <ele>26.459702</ele>
        <time>2023-06-04T18:59:21.521Z</time>
      </trkpt>
      <trkpt lat="51.267593" lon="6.010906">
        <ele>26.584495</ele>
        <time>2023-06-04T18:59:24.696Z</time>
      </trkpt>
      <trkpt lat="51.267626" lon="6.010980">
        <ele>26.645742</ele>
        <time>2023-06-04T18:59:26.255Z</time>
      </trkpt>
      <trkpt lat="51.267636" lon="6.011183">
        <ele>26.782987</ele>
        <time>2023-06-04T18:59:29.733Z</time>
      </trkpt>
      <trkpt lat="51.267668" lon="6.011323">
        <ele>26.883446</ele>
        <time>2023-06-04T18:59:32.230Z</time>
      </trkpt>
      <trkpt lat="51.267727" lon="6.011483">
        <ele>27.008620</ele>
        <time>2023-06-04T18:59:35.339Z</time>
      </trkpt>
      <trkpt lat="51.267806" lon="6.011615">
        <ele>27.131735</ele>
        <time>2023-06-04T18:59:38.391Z</time>
      </trkpt>
      <trkpt lat="51.268286" lon="6.012484">
        <ele>27.913013</ele>
        <time>2023-06-04T18:59:58.108Z</time>
      </trkpt>
      <trkpt lat="51.269570" lon="6.014408">
        <ele>26.811191</ele>
        <time>2023-06-04T19:00:39.768Z</time>
      </trkpt>
      <trkpt lat="51.269678" lon="6.014578">
        <ele>26.644804</ele>
        <time>2023-06-04T19:00:42.851Z</time>
      </trkpt>
      <trkpt lat="51.269712" lon="6.014711">
        <ele>26.546133</ele>
        <time>2023-06-04T19:00:44.744Z</time>
      </trkpt>
      <trkpt lat="51.269691" lon="6.015010">
        <ele>26.330598</ele>
        <time>2023-06-04T19:00:48.600Z</time>
      </trkpt>
      <trkpt lat="51.269713" lon="6.015378">
        <ele>25.858273</ele>
        <time>2023-06-04T19:00:53.429Z</time>
      </trkpt>
      <trkpt lat="51.269676" lon="6.015528">
        <ele>25.652265</ele>
        <time>2023-06-04T19:00:55.471Z</time>
      </trkpt>
      <trkpt lat="51.269453" lon="6.016067">
        <ele>24.826645</ele>
        <time>2023-06-04T19:01:03.831Z</time>
      </trkpt>
      <trkpt lat="51.269352" lon="6.016470">
        <ele>24.271966</ele>
        <time>2023-06-04T19:01:09.499Z</time>
      </trkpt>
      <trkpt lat="51.269372" lon="6.016593">
        <ele>24.109590</ele>
        <time>2023-06-04T19:01:11.124Z</time>
      </trkpt>
      <trkpt lat="51.269442" lon="6.016696">
        <ele>23.915288</ele>
        <time>2023-06-04T19:01:13.105Z</time>
      </trkpt>
      <trkpt lat="51.270226" lon="6.017374">
        <ele>22.441088</ele>
        <time>2023-06-04T19:01:31.965Z</time>
      </trkpt>
      <trkpt lat="51.271195" lon="6.018285">
        <ele>21.511153</ele>
        <time>2023-06-04T19:01:58.851Z</time>
      </trkpt>
      <trkpt lat="51.271521" lon="6.018646">
        <ele>21.188530</ele>
        <time>2023-06-04T19:02:08.640Z</time>
      </trkpt>
      <trkpt lat="51.271888" lon="6.019113">
        <ele>21.161556</ele>
        <time>2023-06-04T19:02:20.324Z</time>
      </trkpt>
      <trkpt lat="51.272027" lon="6.019206">
        <ele>21.152892</ele>
        <time>2023-06-04T19:02:24.091Z</time>
      </trkpt>
      <trkpt lat="51.272083" lon="6.019243">
        <ele>21.149407</ele>
        <time>2023-06-04T19:02:25.589Z</time>
      </trkpt>
      <trkpt lat="51.272554" lon="6.020020">
        <ele>21.110487</ele>
        <time>2023-06-04T19:02:42.608Z</time>
      </trkpt>
      <trkpt lat="51.273135" lon="6.020854">
        <ele>21.167989</ele>
        <time>2023-06-04T19:03:02.293Z</time>
      </trkpt>
      <trkpt lat="51.274810" lon="6.023729">
        <ele>21.699305</ele>
        <time>2023-06-04T19:04:05.581Z</time>
      </trkpt>
      <trkpt lat="51.274821" lon="6.023797">
        <ele>21.707419</ele>
        <time>2023-06-04T19:04:06.715Z</time>
      </trkpt>
      <trkpt lat="51.275061" lon="6.024229">
        <ele>21.774171</ele>
        <time>2023-06-04T19:04:16.009Z</time>
      </trkpt>
      <trkpt lat="51.275365" lon="6.024950">
        <ele>21.764008</ele>
        <time>2023-06-04T19:04:29.742Z</time>
      </trkpt>
      <trkpt lat="51.275445" lon="6.025034">
        <ele>21.713955</ele>
        <time>2023-06-04T19:04:32.132Z</time>
      </trkpt>
      <trkpt lat="51.275522" lon="6.025211">
        <ele>21.643428</ele>
        <time>2023-06-04T19:04:35.473Z</time>
      </trkpt>
      <trkpt lat="51.275638" lon="6.025502">
        <ele>21.530549</ele>
        <time>2023-06-04T19:04:40.789Z</time>
      </trkpt>
      <trkpt lat="51.275848" lon="6.026032">
        <ele>21.325317</ele>
        <time>2023-06-04T19:04:50.279Z</time>
      </trkpt>
      <trkpt lat="51.276126" lon="6.026722">
        <ele>21.056834</ele>
        <time>2023-06-04T19:05:02.920Z</time>
      </trkpt>
      <trkpt lat="51.276344" lon="6.027160">
        <ele>20.879013</ele>
        <time>2023-06-04T19:05:11.288Z</time>
      </trkpt>
      <trkpt lat="51.277182" lon="6.028494">
        <ele>20.364362</ele>
        <time>2023-06-04T19:05:40.552Z</time>
      </trkpt>
      <trkpt lat="51.277398" lon="6.028753">
        <ele>20.246860</ele>
        <time>2023-06-04T19:05:47.637Z</time>
      </trkpt>
      <trkpt lat="51.277720" lon="6.029049">
        <ele>20.172389</ele>
        <time>2023-06-04T19:05:57.608Z</time>
      </trkpt>
      <trkpt lat="51.278978" lon="6.030124">
        <ele>21.004327</ele>
        <time>2023-06-04T19:06:36.486Z</time>
      </trkpt>
      <trkpt lat="51.279171" lon="6.030378">
        <ele>21.150125</ele>
        <time>2023-06-04T19:06:43.305Z</time>
      </trkpt>
      <trkpt lat="51.281280" lon="6.033480">
        <ele>21.744954</ele>
        <time>2023-06-04T19:07:56.187Z</time>
      </trkpt>
      <trkpt lat="51.281381" lon="6.033557">
        <ele>21.765454</ele>
        <time>2023-06-04T19:07:59.184Z</time>
      </trkpt>
      <trkpt lat="51.282412" lon="6.035134">
        <ele>21.746198</ele>
        <time>2023-06-04T19:08:37.191Z</time>
      </trkpt>
      <trkpt lat="51.282760" lon="6.035690">
        <ele>21.657160</ele>
        <time>2023-06-04T19:08:50.041Z</time>
      </trkpt>
      <trkpt lat="51.282940" lon="6.036080">
        <ele>21.602295</ele>
        <time>2023-06-04T19:08:57.780Z</time>
      </trkpt>
      <trkpt lat="51.283581" lon="6.038109">
        <ele>20.425587</ele>
        <time>2023-06-04T19:09:31.903Z</time>
      </trkpt>
      <trkpt lat="51.284098" lon="6.039275">
        <ele>19.710963</ele>
        <time>2023-06-04T19:09:53.655Z</time>
      </trkpt>
      <trkpt lat="51.285053" lon="6.041103">
        <ele>19.015027</ele>
        <time>2023-06-04T19:10:31.483Z</time>
      </trkpt>
      <trkpt lat="51.285827" lon="6.042454">
        <ele>19.523184</ele>
        <time>2023-06-04T19:11:02.273Z</time>
      </trkpt>
      <trkpt lat="51.287551" lon="6.045447">
        <ele>21.116250</ele>
        <time>2023-06-04T19:12:11.749Z</time>
      </trkpt>
      <trkpt lat="51.287620" lon="6.045474">
        <ele>21.107210</ele>
        <time>2023-06-04T19:12:13.670Z</time>
      </trkpt>
      <trkpt lat="51.287687" lon="6.045445">
        <ele>21.098377</ele>
        <time>2023-06-04T19:12:15.560Z</time>
      </trkpt>
      <trkpt lat="51.287728" lon="6.045662">
        <ele>21.080336</ele>
        <time>2023-06-04T19:12:19.056Z</time>
      </trkpt>
      <trkpt lat="51.288058" lon="6.046420">
        <ele>21.006832</ele>
        <time>2023-06-04T19:12:33.501Z</time>
      </trkpt>
      <trkpt lat="51.287981" lon="6.046710">
        <ele>20.981758</ele>
        <time>2023-06-04T19:12:38.164Z</time>
      </trkpt>
      <trkpt lat="51.288122" lon="6.046993">
        <ele>20.952961</ele>
        <time>2023-06-04T19:12:43.930Z</time>
      </trkpt>
      <trkpt lat="51.289032" lon="6.049790">
        <ele>20.628099</ele>
        <time>2023-06-04T19:13:34.032Z</time>
      </trkpt>
      <trkpt lat="51.289425" lon="6.050794">
        <ele>21.130964</ele>
        <time>2023-06-04T19:13:54.273Z</time>
      </trkpt>
      <trkpt lat="51.289789" lon="6.051681">
        <ele>21.913511</ele>
        <time>2023-06-04T19:14:12.607Z</time>
      </trkpt>
      <trkpt lat="51.290145" lon="6.052414">
        <ele>22.598074</ele>
        <time>2023-06-04T19:14:28.832Z</time>
      </trkpt>
      <trkpt lat="51.290677" lon="6.053319">
        <ele>23.349730</ele>
        <time>2023-06-04T19:14:50.705Z</time>
      </trkpt>
      <trkpt lat="51.290944" lon="6.054018">
        <ele>23.831612</ele>
        <time>2023-06-04T19:15:04.782Z</time>
      </trkpt>
      <trkpt lat="51.290963" lon="6.054078">
        <ele>23.871179</ele>
        <time>2023-06-04T19:15:05.936Z</time>
      </trkpt>
      <trkpt lat="51.291083" lon="6.054438">
        <ele>24.111183</ele>
        <time>2023-06-04T19:15:12.772Z</time>
      </trkpt>
      <trkpt lat="51.291236" lon="6.055118">
        <ele>24.223102</ele>
        <time>2023-06-04T19:15:24.592Z</time>
      </trkpt>
      <trkpt lat="51.291285" lon="6.055386">
        <ele>24.027051</ele>
        <time>2023-06-04T19:15:28.987Z</time>
      </trkpt>
      <trkpt lat="51.291351" lon="6.055746">
        <ele>23.763642</ele>
        <time>2023-06-04T19:15:34.397Z</time>
      </trkpt>
      <trkpt lat="51.291353" lon="6.055762">
        <ele>23.752185</ele>
        <time>2023-06-04T19:15:34.636Z</time>
      </trkpt>
      <trkpt lat="51.291535" lon="6.056598">
        <ele>23.130646</ele>
        <time>2023-06-04T19:15:47.538Z</time>
      </trkpt>
      <trkpt lat="51.291260" lon="6.056919">
        <ele>22.748371</ele>
        <time>2023-06-04T19:15:57.582Z</time>
      </trkpt>
      <trkpt lat="51.291242" lon="6.056941">
        <ele>22.722934</ele>
        <time>2023-06-04T19:15:58.256Z</time>
      </trkpt>
      <trkpt lat="51.291405" lon="6.057588">
        <ele>22.202197</ele>
        <time>2023-06-04T19:16:08.378Z</time>
      </trkpt>
      <trkpt lat="51.291754" lon="6.058917">
        <ele>20.967634</ele>
        <time>2023-06-04T19:16:28.881Z</time>
      </trkpt>
      <trkpt lat="51.292070" lon="6.058710">
        <ele>20.499935</ele>
        <time>2023-06-04T19:16:36.850Z</time>
      </trkpt>
      <trkpt lat="51.292216" lon="6.058691">
        <ele>20.299312</ele>
        <time>2023-06-04T19:16:40.385Z</time>
      </trkpt>
      <trkpt lat="51.292429" lon="6.058845">
        <ele>19.979155</ele>
        <time>2023-06-04T19:16:46.052Z</time>
      </trkpt>
      <trkpt lat="51.292417" lon="6.058979">
        <ele>19.877221</ele>
        <time>2023-06-04T19:16:48.211Z</time>
      </trkpt>
      <trkpt lat="51.292330" lon="6.059250">
        <ele>19.693355</ele>
        <time>2023-06-04T19:16:52.977Z</time>
      </trkpt>
      <trkpt lat="51.292288" lon="6.059468">
        <ele>19.555671</ele>
        <time>2023-06-04T19:16:56.536Z</time>
      </trkpt>
      <trkpt lat="51.293321" lon="6.064332">
        <ele>16.595197</ele>
        <time>2023-06-04T19:18:14.460Z</time>
      </trkpt>
      <trkpt lat="51.293755" lon="6.066315">
        <ele>16.383328</ele>
        <time>2023-06-04T19:18:48.619Z</time>
      </trkpt>
      <trkpt lat="51.293860" lon="6.066590">
        <ele>16.352778</ele>
        <time>2023-06-04T19:18:53.932Z</time>
      </trkpt>
      <trkpt lat="51.293930" lon="6.066710">
        <ele>16.337218</ele>
        <time>2023-06-04T19:18:56.685Z</time>
      </trkpt>
      <trkpt lat="51.294480" lon="6.067150">
        <ele>16.332671</ele>
        <time>2023-06-04T19:19:12.916Z</time>
      </trkpt>
      <trkpt lat="51.294560" lon="6.067270">
        <ele>16.339371</ele>
        <time>2023-06-04T19:19:15.798Z</time>
      </trkpt>
      <trkpt lat="51.294660" lon="6.067510">
        <ele>16.350387</ele>
        <time>2023-06-04T19:19:20.476Z</time>
      </trkpt>
      <trkpt lat="51.295040" lon="6.068860">
        <ele>16.406937</ele>
        <time>2023-06-04T19:19:44.685Z</time>
      </trkpt>
      <trkpt lat="51.295100" lon="6.069010">
        <ele>16.413739</ele>
        <time>2023-06-04T19:19:47.632Z</time>
      </trkpt>
      <trkpt lat="51.295360" lon="6.069437">
        <ele>16.550341</ele>
        <time>2023-06-04T19:19:57.602Z</time>
      </trkpt>
      <trkpt lat="51.295651" lon="6.069795">
        <ele>16.704128</ele>
        <time>2023-06-04T19:20:07.505Z</time>
      </trkpt>
      <trkpt lat="51.295721" lon="6.069965">
        <ele>16.757442</ele>
        <time>2023-06-04T19:20:10.949Z</time>
      </trkpt>
      <trkpt lat="51.295770" lon="6.070218">
        <ele>16.826814</ele>
        <time>2023-06-04T19:20:15.446Z</time>
      </trkpt>
      <trkpt lat="51.295983" lon="6.071258">
        <ele>17.113452</ele>
        <time>2023-06-04T19:20:33.993Z</time>
      </trkpt>
      <trkpt lat="51.296329" lon="6.072517">
        <ele>17.262908</ele>
        <time>2023-06-04T19:20:56.761Z</time>
      </trkpt>
      <trkpt lat="51.296539" lon="6.073050">
        <ele>17.313215</ele>
        <time>2023-06-04T19:21:06.903Z</time>
      </trkpt>
      <trkpt lat="51.296708" lon="6.073384">
        <ele>17.347525</ele>
        <time>2023-06-04T19:21:13.606Z</time>
      </trkpt>
      <trkpt lat="51.296837" lon="6.073745">
        <ele>17.380727</ele>
        <time>2023-06-04T19:21:20.201Z</time>
      </trkpt>
      <trkpt lat="51.297068" lon="6.074633">
        <ele>17.507851</ele>
        <time>2023-06-04T19:21:35.804Z</time>
      </trkpt>
      <trkpt lat="51.297247" lon="6.075203">
        <ele>17.603474</ele>
        <time>2023-06-04T19:21:46.195Z</time>
      </trkpt>
      <trkpt lat="51.297876" lon="6.076882">
        <ele>17.717304</ele>
        <time>2023-06-04T19:22:17.428Z</time>
      </trkpt>
      <trkpt lat="51.298088" lon="6.077523">
        <ele>17.527894</ele>
        <time>2023-06-04T19:22:28.745Z</time>
      </trkpt>
      <trkpt lat="51.298465" lon="6.079372">
        <ele>17.029540</ele>
        <time>2023-06-04T19:22:57.647Z</time>
      </trkpt>
      <trkpt lat="51.298660" lon="6.080080">
        <ele>16.859845</ele>
        <time>2023-06-04T19:23:08.884Z</time>
      </trkpt>
      <trkpt lat="51.299639" lon="6.082478">
        <ele>16.679694</ele>
        <time>2023-06-04T19:23:53.654Z</time>
      </trkpt>
      <trkpt lat="51.300900" lon="6.085230">
        <ele>17.600907</ele>
        <time>2023-06-04T19:24:49.588Z</time>
      </trkpt>
      <trkpt lat="51.301430" lon="6.086230">
        <ele>18.015285</ele>
        <time>2023-06-04T19:25:10.884Z</time>
      </trkpt>
      <trkpt lat="51.301914" lon="6.087060">
        <ele>18.022129</ele>
        <time>2023-06-04T19:25:28.911Z</time>
      </trkpt>
      <trkpt lat="51.302141" lon="6.087379">
        <ele>18.019645</ele>
        <time>2023-06-04T19:25:36.482Z</time>
      </trkpt>
      <trkpt lat="51.302710" lon="6.088180">
        <ele>18.013412</ele>
        <time>2023-06-04T19:25:55.219Z</time>
      </trkpt>
      <trkpt lat="51.303903" lon="6.090637">
        <ele>17.779823</ele>
        <time>2023-06-04T19:26:43.604Z</time>
      </trkpt>
      <trkpt lat="51.304232" lon="6.091187">
        <ele>17.794351</ele>
        <time>2023-06-04T19:26:55.817Z</time>
      </trkpt>
      <trkpt lat="51.304943" lon="6.092212">
        <ele>17.823570</ele>
        <time>2023-06-04T19:27:20.058Z</time>
      </trkpt>
      <trkpt lat="51.305134" lon="6.092445">
        <ele>17.830903</ele>
        <time>2023-06-04T19:27:26.085Z</time>
      </trkpt>
      <trkpt lat="51.305853" lon="6.093152">
        <ele>17.773320</ele>
        <time>2023-06-04T19:27:47.035Z</time>
      </trkpt>
      <trkpt lat="51.305994" lon="6.093337">
        <ele>17.760154</ele>
        <time>2023-06-04T19:27:51.576Z</time>
      </trkpt>
      <trkpt lat="51.306093" lon="6.093517">
        <ele>17.749333</ele>
        <time>2023-06-04T19:27:55.297Z</time>
      </trkpt>
      <trkpt lat="51.306500" lon="6.094508">
        <ele>17.728891</ele>
        <time>2023-06-04T19:28:13.830Z</time>
      </trkpt>
      <trkpt lat="51.306685" lon="6.094800">
        <ele>17.809794</ele>
        <time>2023-06-04T19:28:20.429Z</time>
      </trkpt>
      <trkpt lat="51.307671" lon="6.095712">
        <ele>18.164338</ele>
        <time>2023-06-04T19:28:49.989Z</time>
      </trkpt>
      <trkpt lat="51.308690" lon="6.096885">
        <ele>18.644861</ele>
        <time>2023-06-04T19:29:22.639Z</time>
      </trkpt>
      <trkpt lat="51.309529" lon="6.097712">
        <ele>19.042264</ele>
        <time>2023-06-04T19:29:48.025Z</time>
      </trkpt>
      <trkpt lat="51.310324" lon="6.098677">
        <ele>19.422782</ele>
        <time>2023-06-04T19:30:13.863Z</time>
      </trkpt>
      <trkpt lat="51.311125" lon="6.099355">
        <ele>19.633566</ele>
        <time>2023-06-04T19:30:37.251Z</time>
      </trkpt>
      <trkpt lat="51.311660" lon="6.099850">
        <ele>19.513689</ele>
        <time>2023-06-04T19:30:52.837Z</time>
      </trkpt>
      <trkpt lat="51.313006" lon="6.101294">
        <ele>18.933292</ele>
        <time>2023-06-04T19:31:32.083Z</time>
      </trkpt>
      <trkpt lat="51.313830" lon="6.102256">
        <ele>18.332927</ele>
        <time>2023-06-04T19:31:56.468Z</time>
      </trkpt>
      <trkpt lat="51.315845" lon="6.104961">
        <ele>16.847950</ele>
        <time>2023-06-04T19:32:59.965Z</time>
      </trkpt>
      <trkpt lat="51.316290" lon="6.105450">
        <ele>16.523260</ele>
        <time>2023-06-04T19:33:12.877Z</time>
      </trkpt>
      <trkpt lat="51.316500" lon="6.105640">
        <ele>16.378160</ele>
        <time>2023-06-04T19:33:18.602Z</time>
      </trkpt>
      <trkpt lat="51.317133" lon="6.106113">
        <ele>16.168128</ele>
        <time>2023-06-04T19:33:35.506Z</time>
      </trkpt>
      <trkpt lat="51.317192" lon="6.106151">
        <ele>16.162596</ele>
        <time>2023-06-04T19:33:37.050Z</time>
      </trkpt>
      <trkpt lat="51.317223" lon="6.106168">
        <ele>16.159745</ele>
        <time>2023-06-04T19:33:37.849Z</time>
      </trkpt>
      <trkpt lat="51.317519" lon="6.106321">
        <ele>16.132688</ele>
        <time>2023-06-04T19:33:45.526Z</time>
      </trkpt>
      <trkpt lat="51.318008" lon="6.106514">
        <ele>16.088878</ele>
        <time>2023-06-04T19:33:58.231Z</time>
      </trkpt>
      <trkpt lat="51.318943" lon="6.106743">
        <ele>16.112889</ele>
        <time>2023-06-04T19:34:22.735Z</time>
      </trkpt>
      <trkpt lat="51.320674" lon="6.107168">
        <ele>16.075175</ele>
        <time>2023-06-04T19:35:07.185Z</time>
      </trkpt>
      <trkpt lat="51.320487" lon="6.108984">
        <ele>15.457932</ele>
        <time>2023-06-04T19:35:35.755Z</time>
      </trkpt>
      <trkpt lat="51.320492" lon="6.109132">
        <ele>15.408224</ele>
        <time>2023-06-04T19:35:37.971Z</time>
      </trkpt>
      <trkpt lat="51.320521" lon="6.109237">
        <ele>15.369725</ele>
        <time>2023-06-04T19:35:39.754Z</time>
      </trkpt>
      <trkpt lat="51.320571" lon="6.109311">
        <ele>15.334000</ele>
        <time>2023-06-04T19:35:41.438Z</time>
      </trkpt>
      <trkpt lat="51.321179" lon="6.109866">
        <ele>15.121765</ele>
        <time>2023-06-04T19:35:58.636Z</time>
      </trkpt>
      <trkpt lat="51.320953" lon="6.110510">
        <ele>14.981813</ele>
        <time>2023-06-04T19:36:13.681Z</time>
      </trkpt>
      <trkpt lat="51.320961" lon="6.110538">
        <ele>14.975979</ele>
        <time>2023-06-04T19:36:14.298Z</time>
      </trkpt>
      <trkpt lat="51.321327" lon="6.110869">
        <ele>14.848509</ele>
        <time>2023-06-04T19:36:28.208Z</time>
      </trkpt>
      <trkpt lat="51.322151" lon="6.111614">
        <ele>14.874609</ele>
        <time>2023-06-04T19:36:59.414Z</time>
      </trkpt>
      <trkpt lat="51.322226" lon="6.111599">
        <ele>14.883136</ele>
        <time>2023-06-04T19:37:01.912Z</time>
      </trkpt>
      <trkpt lat="51.322272" lon="6.111515">
        <ele>14.891009</ele>
        <time>2023-06-04T19:37:04.195Z</time>
      </trkpt>
      <trkpt lat="51.322310" lon="6.111318">
        <ele>14.905544</ele>
        <time>2023-06-04T19:37:08.424Z</time>
      </trkpt>
      <trkpt lat="51.322490" lon="6.111226">
        <ele>14.926860</ele>
        <time>2023-06-04T19:37:16.200Z</time>
      </trkpt>
      <trkpt lat="51.322972" lon="6.111629">
        <ele>14.988207</ele>
        <time>2023-06-04T19:37:38.621Z</time>
      </trkpt>
      <trkpt lat="51.323337" lon="6.111797">
        <ele>14.961973</ele>
        <time>2023-06-04T19:37:54.324Z</time>
      </trkpt>
      <trkpt lat="51.323429" lon="6.111752">
        <ele>14.953321</ele>
        <time>2023-06-04T19:37:58.261Z</time>
      </trkpt>
      <trkpt lat="51.325650" lon="6.113270">
        <ele>14.793579</ele>
        <time>2023-06-04T19:38:58.571Z</time>
      </trkpt>
      <trkpt lat="51.326564" lon="6.114049">
        <ele>14.782907</ele>
        <time>2023-06-04T19:39:24.802Z</time>
      </trkpt>
      <trkpt lat="51.326836" lon="6.114295">
        <ele>14.799801</ele>
        <time>2023-06-04T19:39:32.695Z</time>
      </trkpt>
      <trkpt lat="51.327373" lon="6.114891">
        <ele>14.835138</ele>
        <time>2023-06-04T19:39:49.346Z</time>
      </trkpt>
      <trkpt lat="51.328189" lon="6.115899">
        <ele>14.672526</ele>
        <time>2023-06-04T19:40:15.195Z</time>
      </trkpt>
      <trkpt lat="51.328316" lon="6.116020">
        <ele>14.614437</ele>
        <time>2023-06-04T19:40:18.817Z</time>
      </trkpt>
      <trkpt lat="51.328628" lon="6.116230">
        <ele>14.481412</ele>
        <time>2023-06-04T19:40:26.965Z</time>
      </trkpt>
      <trkpt lat="51.329089" lon="6.116333">
        <ele>14.298473</ele>
        <time>2023-06-04T19:40:38.202Z</time>
      </trkpt>
      <trkpt lat="51.330017" lon="6.116373">
        <ele>13.882486</ele>
        <time>2023-06-04T19:41:00.443Z</time>
      </trkpt>
      <trkpt lat="51.331885" lon="6.116077">
        <ele>13.511641</ele>
        <time>2023-06-04T19:41:46.127Z</time>
      </trkpt>
      <trkpt lat="51.331960" lon="6.115988">
        <ele>13.543667</ele>
        <time>2023-06-04T19:41:48.540Z</time>
      </trkpt>
      <trkpt lat="51.332028" lon="6.115835">
        <ele>13.583906</ele>
        <time>2023-06-04T19:41:51.620Z</time>
      </trkpt>
      <trkpt lat="51.332131" lon="6.115914">
        <ele>13.623083</ele>
        <time>2023-06-04T19:41:54.608Z</time>
      </trkpt>
      <trkpt lat="51.332028" lon="6.115835">
        <ele>13.662261</ele>
        <time>2023-06-04T19:41:57.588Z</time>
      </trkpt>
      <trkpt lat="51.331945" lon="6.115688">
        <ele>13.704723</ele>
        <time>2023-06-04T19:42:00.869Z</time>
      </trkpt>
      <trkpt lat="51.331894" lon="6.115513">
        <ele>13.746107</ele>
        <time>2023-06-04T19:42:04.063Z</time>
      </trkpt>
      <trkpt lat="51.331657" lon="6.113119">
        <ele>14.852384</ele>
        <time>2023-06-04T19:42:44.437Z</time>
      </trkpt>
      <trkpt lat="51.331394" lon="6.110931">
        <ele>15.813518</ele>
        <time>2023-06-04T19:43:21.111Z</time>
      </trkpt>
      <trkpt lat="51.332527" lon="6.110959">
        <ele>16.313517</ele>
        <time>2023-06-04T19:43:50.376Z</time>
      </trkpt>
      <trkpt lat="51.332659" lon="6.110963">
        <ele>16.306754</ele>
        <time>2023-06-04T19:43:53.715Z</time>
      </trkpt>
      <trkpt lat="51.332969" lon="6.110981">
        <ele>16.256375</ele>
        <time>2023-06-04T19:44:01.539Z</time>
      </trkpt>
      <trkpt lat="51.333340" lon="6.111089">
        <ele>16.195133</ele>
        <time>2023-06-04T19:44:10.951Z</time>
      </trkpt>
      <trkpt lat="51.333797" lon="6.111358">
        <ele>16.116054</ele>
        <time>2023-06-04T19:44:23.041Z</time>
      </trkpt>
      <trkpt lat="51.334079" lon="6.111628">
        <ele>16.062686</ele>
        <time>2023-06-04T19:44:31.490Z</time>
      </trkpt>
      <trkpt lat="51.335332" lon="6.112737">
        <ele>15.370786</ele>
        <time>2023-06-04T19:45:07.285Z</time>
      </trkpt>
      <trkpt lat="51.336140" lon="6.113370">
        <ele>14.951938</ele>
        <time>2023-06-04T19:45:30.172Z</time>
      </trkpt>
      <trkpt lat="51.336530" lon="6.113560">
        <ele>14.805561</ele>
        <time>2023-06-04T19:45:40.670Z</time>
      </trkpt>
      <trkpt lat="51.337630" lon="6.113900">
        <ele>14.426526</ele>
        <time>2023-06-04T19:46:09.286Z</time>
      </trkpt>
      <trkpt lat="51.338059" lon="6.114151">
        <ele>14.405949</ele>
        <time>2023-06-04T19:46:20.842Z</time>
      </trkpt>
      <trkpt lat="51.339608" lon="6.115295">
        <ele>14.823671</ele>
        <time>2023-06-04T19:47:05.725Z</time>
      </trkpt>
      <trkpt lat="51.339703" lon="6.115306">
        <ele>14.926926</ele>
        <time>2023-06-04T19:47:08.325Z</time>
      </trkpt>
      <trkpt lat="51.339816" lon="6.115179">
        <ele>15.076604</ele>
        <time>2023-06-04T19:47:12.051Z</time>
      </trkpt>
      <trkpt lat="51.340796" lon="6.113195">
        <ele>16.648117</ele>
        <time>2023-06-04T19:47:54.934Z</time>
      </trkpt>
      <trkpt lat="51.340897" lon="6.112756">
        <ele>16.873685</ele>
        <time>2023-06-04T19:48:02.771Z</time>
      </trkpt>
      <trkpt lat="51.341001" lon="6.112527">
        <ele>17.010195</ele>
        <time>2023-06-04T19:48:07.463Z</time>
      </trkpt>
      <trkpt lat="51.341350" lon="6.112940">
        <ele>17.345182</ele>
        <time>2023-06-04T19:48:19.261Z</time>
      </trkpt>
      <trkpt lat="51.342340" lon="6.114460">
        <ele>17.300598</ele>
        <time>2023-06-04T19:48:54.725Z</time>
      </trkpt>
      <trkpt lat="51.342830" lon="6.115360">
        <ele>16.990413</ele>
        <time>2023-06-04T19:49:13.218Z</time>
      </trkpt>
      <trkpt lat="51.343096" lon="6.116062">
        <ele>16.760752</ele>
        <time>2023-06-04T19:49:25.984Z</time>
      </trkpt>
      <trkpt lat="51.344225" lon="6.119318">
        <ele>16.127384</ele>
        <time>2023-06-04T19:50:25.446Z</time>
      </trkpt>
      <trkpt lat="51.345333" lon="6.121632">
        <ele>16.369464</ele>
        <time>2023-06-04T19:51:14.275Z</time>
      </trkpt>
      <trkpt lat="51.345851" lon="6.122637">
        <ele>16.569097</ele>
        <time>2023-06-04T19:51:35.125Z</time>
      </trkpt>
      <trkpt lat="51.346524" lon="6.123961">
        <ele>16.339419</ele>
        <time>2023-06-04T19:52:01.375Z</time>
      </trkpt>
      <trkpt lat="51.347130" lon="6.125145">
        <ele>16.136472</ele>
        <time>2023-06-04T19:52:24.873Z</time>
      </trkpt>
      <trkpt lat="51.347523" lon="6.125921">
        <ele>16.068910</ele>
        <time>2023-06-04T19:52:40.144Z</time>
      </trkpt>
      <trkpt lat="51.348569" lon="6.127935">
        <ele>15.995697</ele>
        <time>2023-06-04T19:53:21.608Z</time>
      </trkpt>
      <trkpt lat="51.348608" lon="6.128012">
        <ele>15.999058</ele>
        <time>2023-06-04T19:53:23.208Z</time>
      </trkpt>
      <trkpt lat="51.349184" lon="6.129098">
        <ele>16.047354</ele>
        <time>2023-06-04T19:53:45.742Z</time>
      </trkpt>
      <trkpt lat="51.350144" lon="6.130474">
        <ele>15.838928</ele>
        <time>2023-06-04T19:54:18.069Z</time>
      </trkpt>
      <trkpt lat="51.350343" lon="6.130760">
        <ele>15.784580</ele>
        <time>2023-06-04T19:54:24.580Z</time>
      </trkpt>
      <trkpt lat="51.350601" lon="6.131242">
        <ele>15.704002</ele>
        <time>2023-06-04T19:54:34.211Z</time>
      </trkpt>
      <trkpt lat="51.351553" lon="6.133725">
        <ele>15.026781</ele>
        <time>2023-06-04T19:55:18.587Z</time>
      </trkpt>
      <trkpt lat="51.351700" lon="6.133967">
        <ele>15.098838</ele>
        <time>2023-06-04T19:55:23.784Z</time>
      </trkpt>
      <trkpt lat="51.352212" lon="6.134531">
        <ele>15.393625</ele>
        <time>2023-06-04T19:55:39.210Z</time>
      </trkpt>
      <trkpt lat="51.352291" lon="6.134617">
        <ele>15.438938</ele>
        <time>2023-06-04T19:55:41.698Z</time>
      </trkpt>
      <trkpt lat="51.352463" lon="6.134775">
        <ele>15.532998</ele>
        <time>2023-06-04T19:55:46.783Z</time>
      </trkpt>
      <trkpt lat="51.352542" lon="6.134806">
        <ele>15.571580</ele>
        <time>2023-06-04T19:55:48.919Z</time>
      </trkpt>
      <trkpt lat="51.352599" lon="6.134819">
        <ele>15.598891</ele>
        <time>2023-06-04T19:55:50.442Z</time>
      </trkpt>
      <trkpt lat="51.352684" lon="6.134840">
        <ele>15.639687</ele>
        <time>2023-06-04T19:55:52.699Z</time>
      </trkpt>
      <trkpt lat="51.352766" lon="6.134919">
        <ele>15.685081</ele>
        <time>2023-06-04T19:55:55.179Z</time>
      </trkpt>
      <trkpt lat="51.353071" lon="6.135439">
        <ele>15.989596</ele>
        <time>2023-06-04T19:56:07.128Z</time>
      </trkpt>
      <trkpt lat="51.353741" lon="6.136730">
        <ele>18.093619</ele>
        <time>2023-06-04T19:56:36.308Z</time>
      </trkpt>
      <trkpt lat="51.353888" lon="6.136898">
        <ele>18.456099</ele>
        <time>2023-06-04T19:56:41.312Z</time>
      </trkpt>
      <trkpt lat="51.354288" lon="6.137266">
        <ele>19.382004</ele>
        <time>2023-06-04T19:56:54.105Z</time>
      </trkpt>
      <trkpt lat="51.354500" lon="6.137430">
        <ele>19.661012</ele>
        <time>2023-06-04T19:57:00.551Z</time>
      </trkpt>
      <trkpt lat="51.354600" lon="6.137420">
        <ele>19.758862</ele>
        <time>2023-06-04T19:57:03.292Z</time>
      </trkpt>
      <trkpt lat="51.354712" lon="6.137360">
        <ele>19.874199</ele>
        <time>2023-06-04T19:57:06.532Z</time>
      </trkpt>
      <trkpt lat="51.354902" lon="6.137803">
        <ele>20.201957</ele>
        <time>2023-06-04T19:57:15.840Z</time>
      </trkpt>
      <trkpt lat="51.354901" lon="6.137933">
        <ele>20.281247</ele>
        <time>2023-06-04T19:57:18.096Z</time>
      </trkpt>
      <trkpt lat="51.354680" lon="6.138660">
        <ele>20.774368</ele>
        <time>2023-06-04T19:57:31.851Z</time>
      </trkpt>
      <trkpt lat="51.354680" lon="6.138840">
        <ele>20.884147</ele>
        <time>2023-06-04T19:57:34.870Z</time>
      </trkpt>
      <trkpt lat="51.355770" lon="6.140990">
        <ele>21.124996</ele>
        <time>2023-06-04T19:58:19.981Z</time>
      </trkpt>
      <trkpt lat="51.355887" lon="6.141051">
        <ele>21.115201</ele>
        <time>2023-06-04T19:58:23.209Z</time>
      </trkpt>
      <trkpt lat="51.355999" lon="6.141015">
        <ele>21.106108</ele>
        <time>2023-06-04T19:58:26.245Z</time>
      </trkpt>
      <trkpt lat="51.356412" lon="6.140608">
        <ele>20.661122</ele>
        <time>2023-06-04T19:58:38.833Z</time>
      </trkpt>
      <trkpt lat="51.356560" lon="6.141030">
        <ele>20.220139</ele>
        <time>2023-06-04T19:58:45.892Z</time>
      </trkpt>
      <trkpt lat="51.356580" lon="6.141580">
        <ele>19.718170</ele>
        <time>2023-06-04T19:58:53.628Z</time>
      </trkpt>
      <trkpt lat="51.356620" lon="6.141730">
        <ele>19.569561</ele>
        <time>2023-06-04T19:58:55.851Z</time>
      </trkpt>
      <trkpt lat="51.356731" lon="6.141894">
        <ele>19.349206</ele>
        <time>2023-06-04T19:58:59.020Z</time>
      </trkpt>
      <trkpt lat="51.356856" lon="6.142112">
        <ele>19.079550</ele>
        <time>2023-06-04T19:59:03.090Z</time>
      </trkpt>
      <trkpt lat="51.356900" lon="6.142289">
        <ele>18.905973</ele>
        <time>2023-06-04T19:59:05.554Z</time>
      </trkpt>
      <trkpt lat="51.356913" lon="6.142509">
        <ele>18.704631</ele>
        <time>2023-06-04T19:59:08.421Z</time>
      </trkpt>
      <trkpt lat="51.356882" lon="6.142731">
        <ele>18.497367</ele>
        <time>2023-06-04T19:59:11.354Z</time>
      </trkpt>
      <trkpt lat="51.356763" lon="6.143164">
        <ele>18.113200</ele>
        <time>2023-06-04T19:59:17.607Z</time>
      </trkpt>
      <trkpt lat="51.356709" lon="6.143368">
        <ele>17.934954</ele>
        <time>2023-06-04T19:59:20.682Z</time>
      </trkpt>
      <trkpt lat="51.356665" lon="6.143648">
        <ele>17.702681</ele>
        <time>2023-06-04T19:59:24.948Z</time>
      </trkpt>
      <trkpt lat="51.356690" lon="6.143795">
        <ele>17.580118</ele>
        <time>2023-06-04T19:59:27.207Z</time>
      </trkpt>
      <trkpt lat="51.357050" lon="6.144370">
        <ele>16.925103</ele>
        <time>2023-06-04T19:59:39.298Z</time>
      </trkpt>
      <trkpt lat="51.357206" lon="6.144553">
        <ele>16.675986</ele>
        <time>2023-06-04T19:59:43.937Z</time>
      </trkpt>
      <trkpt lat="51.357297" lon="6.144615">
        <ele>16.548588</ele>
        <time>2023-06-04T19:59:46.362Z</time>
      </trkpt>
      <trkpt lat="51.357456" lon="6.144653">
        <ele>16.341490</ele>
        <time>2023-06-04T19:59:50.388Z</time>
      </trkpt>
      <trkpt lat="51.357660" lon="6.144588">
        <ele>16.168841</ele>
        <time>2023-06-04T19:59:55.679Z</time>
      </trkpt>
      <trkpt lat="51.357764" lon="6.144508">
        <ele>16.206457</ele>
        <time>2023-06-04T19:59:58.713Z</time>
      </trkpt>
      <trkpt lat="51.357900" lon="6.144358">
        <ele>16.260296</ele>
        <time>2023-06-04T20:00:03.077Z</time>
      </trkpt>
      <trkpt lat="51.358029" lon="6.144592">
        <ele>16.323845</ele>
        <time>2023-06-04T20:00:09.522Z</time>
      </trkpt>
      <trkpt lat="51.358268" lon="6.144900">
        <ele>16.423864</ele>
        <time>2023-06-04T20:00:19.696Z</time>
      </trkpt>
      <trkpt lat="51.358767" lon="6.145542">
        <ele>16.632554</ele>
        <time>2023-06-04T20:00:40.903Z</time>
      </trkpt>
      <trkpt lat="51.359303" lon="6.146248">
        <ele>16.404474</ele>
        <time>2023-06-04T20:01:03.507Z</time>
      </trkpt>
      <trkpt lat="51.359501" lon="6.146526">
        <ele>16.172725</ele>
        <time>2023-06-04T20:01:11.910Z</time>
      </trkpt>
      <trkpt lat="51.359900" lon="6.147104">
        <ele>15.699216</ele>
        <time>2023-06-04T20:01:28.649Z</time>
      </trkpt>
      <trkpt lat="51.360248" lon="6.147621">
        <ele>15.281450</ele>
        <time>2023-06-04T20:01:43.112Z</time>
      </trkpt>
      <trkpt lat="51.360411" lon="6.147753">
        <ele>15.113396</ele>
        <time>2023-06-04T20:01:48.644Z</time>
      </trkpt>
      <trkpt lat="51.360434" lon="6.147810">
        <ele>15.067677</ele>
        <time>2023-06-04T20:01:49.930Z</time>
      </trkpt>
      <trkpt lat="51.360666" lon="6.148422">
        <ele>14.585367</ele>
        <time>2023-06-04T20:02:03.337Z</time>
      </trkpt>
      <trkpt lat="51.360826" lon="6.149017">
        <ele>14.148951</ele>
        <time>2023-06-04T20:02:15.986Z</time>
      </trkpt>
      <trkpt lat="51.361123" lon="6.149383">
        <ele>13.744648</ele>
        <time>2023-06-04T20:02:28.018Z</time>
      </trkpt>
      <trkpt lat="51.361249" lon="6.149513">
        <ele>13.582944</ele>
        <time>2023-06-04T20:02:31.725Z</time>
      </trkpt>
      <trkpt lat="51.361332" lon="6.149694">
        <ele>13.431665</ele>
        <time>2023-06-04T20:02:35.094Z</time>
      </trkpt>
      <trkpt lat="51.361430" lon="6.149911">
        <ele>13.251255</ele>
        <time>2023-06-04T20:02:39.055Z</time>
      </trkpt>
      <trkpt lat="51.361620" lon="6.150196">
        <ele>13.139351</ele>
        <time>2023-06-04T20:02:45.240Z</time>
      </trkpt>
      <trkpt lat="51.362168" lon="6.150877">
        <ele>12.913169</ele>
        <time>2023-06-04T20:03:02.574Z</time>
      </trkpt>
      <trkpt lat="51.362884" lon="6.151776">
        <ele>12.634227</ele>
        <time>2023-06-04T20:03:26.624Z</time>
      </trkpt>
      <trkpt lat="51.362990" lon="6.151909">
        <ele>12.672047</ele>
        <time>2023-06-04T20:03:30.158Z</time>
      </trkpt>
      <trkpt lat="51.363704" lon="6.152684">
        <ele>12.914301</ele>
        <time>2023-06-04T20:03:53.289Z</time>
      </trkpt>
      <trkpt lat="51.363866" lon="6.152948">
        <ele>12.979213</ele>
        <time>2023-06-04T20:03:59.494Z</time>
      </trkpt>
      <trkpt lat="51.364072" lon="6.153176">
        <ele>13.049543</ele>
        <time>2023-06-04T20:04:06.118Z</time>
      </trkpt>
      <trkpt lat="51.365748" lon="6.154970">
        <ele>12.951729</ele>
        <time>2023-06-04T20:04:58.915Z</time>
      </trkpt>
      <trkpt lat="51.366561" lon="6.156229">
        <ele>12.196310</ele>
        <time>2023-06-04T20:05:25.275Z</time>
      </trkpt>
      <trkpt lat="51.367083" lon="6.156967">
        <ele>11.703894</ele>
        <time>2023-06-04T20:05:41.838Z</time>
      </trkpt>
      <trkpt lat="51.367461" lon="6.157547">
        <ele>11.650138</ele>
        <time>2023-06-04T20:05:54.640Z</time>
      </trkpt>
      <trkpt lat="51.367743" lon="6.157847">
        <ele>11.634648</ele>
        <time>2023-06-04T20:06:03.065Z</time>
      </trkpt>
      <trkpt lat="51.368040" lon="6.158247">
        <ele>11.616893</ele>
        <time>2023-06-04T20:06:12.985Z</time>
      </trkpt>
      <trkpt lat="51.368180" lon="6.158450">
        <ele>11.608253</ele>
        <time>2023-06-04T20:06:17.791Z</time>
      </trkpt>
      <trkpt lat="51.368390" lon="6.158630">
        <ele>11.597355</ele>
        <time>2023-06-04T20:06:24.059Z</time>
      </trkpt>
      <trkpt lat="51.368535" lon="6.158705">
        <ele>11.590383</ele>
        <time>2023-06-04T20:06:28.007Z</time>
      </trkpt>
      <trkpt lat="51.368960" lon="6.159278">
        <ele>11.803140</ele>
        <time>2023-06-04T20:06:41.866Z</time>
      </trkpt>
      <trkpt lat="51.369060" lon="6.159414">
        <ele>11.854866</ele>
        <time>2023-06-04T20:06:45.020Z</time>
      </trkpt>
      <trkpt lat="51.369453" lon="6.159952">
        <ele>12.058711</ele>
        <time>2023-06-04T20:06:58.056Z</time>
      </trkpt>
      <trkpt lat="51.369867" lon="6.160509">
        <ele>12.271896</ele>
        <time>2023-06-04T20:07:12.754Z</time>
      </trkpt>
      <trkpt lat="51.370061" lon="6.160761">
        <ele>12.539643</ele>
        <time>2023-06-04T20:07:19.310Z</time>
      </trkpt>
      <trkpt lat="51.370307" lon="6.161031">
        <ele>12.935826</ele>
        <time>2023-06-04T20:07:26.830Z</time>
      </trkpt>
      <trkpt lat="51.370345" lon="6.160927">
        <ele>13.035771</ele>
        <time>2023-06-04T20:07:28.898Z</time>
      </trkpt>
      <trkpt lat="51.370278" lon="6.160785">
        <ele>13.183399</ele>
        <time>2023-06-04T20:07:31.853Z</time>
      </trkpt>
      <trkpt lat="51.370237" lon="6.160594">
        <ele>13.350916</ele>
        <time>2023-06-04T20:07:34.979Z</time>
      </trkpt>
      <trkpt lat="51.370229" lon="6.160402">
        <ele>13.510514</ele>
        <time>2023-06-04T20:07:38.248Z</time>
      </trkpt>
      <trkpt lat="51.370252" lon="6.160193">
        <ele>13.686530</ele>
        <time>2023-06-04T20:07:41.802Z</time>
      </trkpt>
      <trkpt lat="51.370361" lon="6.159862">
        <ele>13.996912</ele>
        <time>2023-06-04T20:07:48.092Z</time>
      </trkpt>
      <trkpt lat="51.370326" lon="6.159749">
        <ele>14.101535</ele>
        <time>2023-06-04T20:07:50.288Z</time>
      </trkpt>
      <trkpt lat="51.370070" lon="6.160075">
        <ele>14.536024</ele>
        <time>2023-06-04T20:07:59.276Z</time>
      </trkpt>
      <trkpt lat="51.369890" lon="6.160257">
        <ele>14.920959</ele>
        <time>2023-06-04T20:08:05.046Z</time>
      </trkpt>
      <trkpt lat="51.369763" lon="6.160551">
        <ele>15.449950</ele>
        <time>2023-06-04T20:08:11.510Z</time>
      </trkpt>
      <trkpt lat="51.368561" lon="6.163330">
        <ele>19.827348</ele>
        <time>2023-06-04T20:09:10.501Z</time>
      </trkpt>
      <trkpt lat="51.368363" lon="6.164017">
        <ele>20.480752</ele>
        <time>2023-06-04T20:09:26.186Z</time>
      </trkpt>
      <trkpt lat="51.367832" lon="6.165299">
        <ele>21.432286</ele>
        <time>2023-06-04T20:09:57.940Z</time>
      </trkpt>
      <trkpt lat="51.367486" lon="6.166154">
        <ele>21.415684</ele>
        <time>2023-06-04T20:10:18.627Z</time>
      </trkpt>
      <trkpt lat="51.367512" lon="6.166259">
        <ele>21.413843</ele>
        <time>2023-06-04T20:10:20.348Z</time>
      </trkpt>
      <trkpt lat="51.367545" lon="6.166377">
        <ele>21.411736</ele>
        <time>2023-06-04T20:10:22.317Z</time>
      </trkpt>
      <trkpt lat="51.367573" lon="6.166448">
        <ele>21.410368</ele>
        <time>2023-06-04T20:10:23.577Z</time>
      </trkpt>
      <trkpt lat="51.367541" lon="6.166757">
        <ele>21.405264</ele>
        <time>2023-06-04T20:10:28.438Z</time>
      </trkpt>
      <trkpt lat="51.367523" lon="6.166881">
        <ele>21.403190</ele>
        <time>2023-06-04T20:10:30.417Z</time>
      </trkpt>
      <trkpt lat="51.367441" lon="6.167090">
        <ele>21.399167</ele>
        <time>2023-06-04T20:10:34.256Z</time>
      </trkpt>
      <trkpt lat="51.367305" lon="6.167283">
        <ele>21.394425</ele>
        <time>2023-06-04T20:10:38.906Z</time>
      </trkpt>
      <trkpt lat="51.367219" lon="6.167453">
        <ele>21.415712</ele>
        <time>2023-06-04T20:10:42.383Z</time>
      </trkpt>
      <trkpt lat="51.366993" lon="6.168108">
        <ele>21.610459</ele>
        <time>2023-06-04T20:10:54.449Z</time>
      </trkpt>
      <trkpt lat="51.366864" lon="6.168495">
        <ele>21.724623</ele>
        <time>2023-06-04T20:11:01.535Z</time>
      </trkpt>
      <trkpt lat="51.366521" lon="6.169583">
        <ele>22.041802</ele>
        <time>2023-06-04T20:11:21.294Z</time>
      </trkpt>
      <trkpt lat="51.366385" lon="6.170024">
        <ele>22.192306</ele>
        <time>2023-06-04T20:11:29.299Z</time>
      </trkpt>
      <trkpt lat="51.366170" lon="6.171176">
        <ele>22.758695</ele>
        <time>2023-06-04T20:11:49.225Z</time>
      </trkpt>
      <trkpt lat="51.366124" lon="6.171474">
        <ele>22.903298</ele>
        <time>2023-06-04T20:11:54.313Z</time>
      </trkpt>
      <trkpt lat="51.366254" lon="6.171525">
        <ele>23.004282</ele>
        <time>2023-06-04T20:11:58.772Z</time>
      </trkpt>
      <trkpt lat="51.366407" lon="6.171619">
        <ele>23.127921</ele>
        <time>2023-06-04T20:12:04.183Z</time>
      </trkpt>
      <trkpt lat="51.366645" lon="6.171517">
        <ele>23.313808</ele>
        <time>2023-06-04T20:12:12.344Z</time>
      </trkpt>
      <trkpt lat="51.366730" lon="6.171469">
        <ele>23.381809</ele>
        <time>2023-06-04T20:12:15.331Z</time>
      </trkpt>
      <trkpt lat="51.367015" lon="6.171312">
        <ele>23.575391</ele>
        <time>2023-06-04T20:12:25.299Z</time>
      </trkpt>
      <trkpt lat="51.367111" lon="6.171032">
        <ele>23.679661</ele>
        <time>2023-06-04T20:12:31.903Z</time>
      </trkpt>
      <trkpt lat="51.367165" lon="6.171006">
        <ele>23.709142</ele>
        <time>2023-06-04T20:12:33.778Z</time>
      </trkpt>
      <trkpt lat="51.367552" lon="6.170844">
        <ele>23.918269</ele>
        <time>2023-06-04T20:12:44.636Z</time>
      </trkpt>
      <trkpt lat="51.367637" lon="6.170806">
        <ele>23.964408</ele>
        <time>2023-06-04T20:12:47.558Z</time>
      </trkpt>
      <trkpt lat="51.367954" lon="6.170812">
        <ele>24.130154</ele>
        <time>2023-06-04T20:12:58.048Z</time>
      </trkpt>
      <trkpt lat="51.368365" lon="6.170764">
        <ele>24.345604</ele>
        <time>2023-06-04T20:13:11.687Z</time>
      </trkpt>
      <trkpt lat="51.368760" lon="6.170844">
        <ele>24.356051</ele>
        <time>2023-06-04T20:13:22.121Z</time>
      </trkpt>
      <trkpt lat="51.368917" lon="6.170875">
        <ele>24.295702</ele>
        <time>2023-06-04T20:13:26.191Z</time>
      </trkpt>
      <trkpt lat="51.369074" lon="6.170905">
        <ele>24.235381</ele>
        <time>2023-06-04T20:13:30.216Z</time>
      </trkpt>
      <trkpt lat="51.369369" lon="6.170954">
        <ele>24.122234</ele>
        <time>2023-06-04T20:13:37.709Z</time>
      </trkpt>
      <trkpt lat="51.369535" lon="6.170932">
        <ele>24.058688</ele>
        <time>2023-06-04T20:13:41.928Z</time>
      </trkpt>
      <trkpt lat="51.369730" lon="6.170827">
        <ele>23.980203</ele>
        <time>2023-06-04T20:13:48.596Z</time>
      </trkpt>
      <trkpt lat="51.369877" lon="6.170635">
        <ele>23.907842</ele>
        <time>2023-06-04T20:13:54.759Z</time>
      </trkpt>
      <trkpt lat="51.370012" lon="6.170427">
        <ele>23.836381</ele>
        <time>2023-06-04T20:14:00.815Z</time>
      </trkpt>
      <trkpt lat="51.370280" lon="6.170787">
        <ele>23.691056</ele>
        <time>2023-06-04T20:14:12.086Z</time>
      </trkpt>
      <trkpt lat="51.370448" lon="6.170980">
        <ele>23.593550</ele>
        <time>2023-06-04T20:14:18.684Z</time>
      </trkpt>
      <trkpt lat="51.370821" lon="6.171462">
        <ele>23.367522</ele>
        <time>2023-06-04T20:14:34.043Z</time>
      </trkpt>
      <trkpt lat="51.370940" lon="6.171568">
        <ele>23.303304</ele>
        <time>2023-06-04T20:14:38.384Z</time>
      </trkpt>
      <trkpt lat="51.371542" lon="6.172452">
        <ele>22.918132</ele>
        <time>2023-06-04T20:15:04.999Z</time>
      </trkpt>
      <trkpt lat="51.372169" lon="6.173439">
        <ele>22.954721</ele>
        <time>2023-06-04T20:15:27.199Z</time>
      </trkpt>
      <trkpt lat="51.372281" lon="6.173646">
        <ele>22.964718</ele>
        <time>2023-06-04T20:15:31.473Z</time>
      </trkpt>
      <trkpt lat="51.372751" lon="6.174712">
        <ele>23.017764</ele>
        <time>2023-06-04T20:15:52.295Z</time>
      </trkpt>
      <trkpt lat="51.372907" lon="6.175119">
        <ele>23.077484</ele>
        <time>2023-06-04T20:15:59.915Z</time>
      </trkpt>
      <trkpt lat="51.373111" lon="6.175627">
        <ele>23.153014</ele>
        <time>2023-06-04T20:16:09.509Z</time>
      </trkpt>
      <trkpt lat="51.373234" lon="6.175850">
        <ele>23.190223</ele>
        <time>2023-06-04T20:16:14.202Z</time>
      </trkpt>
      <trkpt lat="51.374152" lon="6.176850">
        <ele>23.459146</ele>
        <time>2023-06-04T20:16:42.586Z</time>
      </trkpt>
      <trkpt lat="51.374676" lon="6.177404">
        <ele>23.723646</ele>
        <time>2023-06-04T20:16:58.967Z</time>
      </trkpt>
      <trkpt lat="51.375252" lon="6.178015">
        <ele>24.014686</ele>
        <time>2023-06-04T20:17:16.963Z</time>
      </trkpt>
      <trkpt lat="51.376141" lon="6.178960">
        <ele>24.228142</ele>
        <time>2023-06-04T20:17:44.551Z</time>
      </trkpt>
      <trkpt lat="51.376612" lon="6.179449">
        <ele>24.298506</ele>
        <time>2023-06-04T20:17:58.667Z</time>
      </trkpt>
      <trkpt lat="51.377146" lon="6.179998">
        <ele>24.335473</ele>
        <time>2023-06-04T20:18:14.432Z</time>
      </trkpt>
      <trkpt lat="51.377146" lon="6.180073">
        <ele>24.331103</ele>
        <time>2023-06-04T20:18:15.596Z</time>
      </trkpt>
      <trkpt lat="51.377177" lon="6.180133">
        <ele>24.326566</ele>
        <time>2023-06-04T20:18:16.821Z</time>
      </trkpt>
      <trkpt lat="51.377211" lon="6.180149">
        <ele>24.323258</ele>
        <time>2023-06-04T20:18:17.705Z</time>
      </trkpt>
      <trkpt lat="51.377263" lon="6.180116">
        <ele>24.318038</ele>
        <time>2023-06-04T20:18:19.109Z</time>
      </trkpt>
      <trkpt lat="51.377366" lon="6.180260">
        <ele>24.305278</ele>
        <time>2023-06-04T20:18:22.507Z</time>
      </trkpt>
      <trkpt lat="51.377473" lon="6.180325">
        <ele>24.294598</ele>
        <time>2023-06-04T20:18:25.361Z</time>
      </trkpt>
      <trkpt lat="51.377730" lon="6.180536">
        <ele>24.267644</ele>
        <time>2023-06-04T20:18:32.527Z</time>
      </trkpt>
      <trkpt lat="51.377799" lon="6.180675">
        <ele>24.257297</ele>
        <time>2023-06-04T20:18:35.320Z</time>
      </trkpt>
      <trkpt lat="51.377807" lon="6.180853">
        <ele>24.246901</ele>
        <time>2023-06-04T20:18:38.114Z</time>
      </trkpt>
      <trkpt lat="51.377836" lon="6.180975">
        <ele>24.239295</ele>
        <time>2023-06-04T20:18:40.157Z</time>
      </trkpt>
      <trkpt lat="51.377924" lon="6.181033">
        <ele>24.230414</ele>
        <time>2023-06-04T20:18:42.540Z</time>
      </trkpt>
      <trkpt lat="51.378256" lon="6.181470">
        <ele>24.190309</ele>
        <time>2023-06-04T20:18:53.310Z</time>
      </trkpt>
      <trkpt lat="51.378300" lon="6.181530">
        <ele>24.186929</ele>
        <time>2023-06-04T20:18:54.738Z</time>
      </trkpt>
      <trkpt lat="51.378768" lon="6.182139">
        <ele>24.263802</ele>
        <time>2023-06-04T20:19:09.767Z</time>
      </trkpt>
      <trkpt lat="51.379427" lon="6.183022">
        <ele>24.373337</ele>
        <time>2023-06-04T20:19:31.840Z</time>
      </trkpt>
      <trkpt lat="51.379639" lon="6.183296">
        <ele>24.408066</ele>
        <time>2023-06-04T20:19:38.789Z</time>
      </trkpt>
      <trkpt lat="51.379757" lon="6.183447">
        <ele>24.416362</ele>
        <time>2023-06-04T20:19:42.648Z</time>
      </trkpt>
      <trkpt lat="51.380122" lon="6.183916">
        <ele>24.422539</ele>
        <time>2023-06-04T20:19:54.634Z</time>
      </trkpt>
      <trkpt lat="51.380220" lon="6.184041">
        <ele>24.424193</ele>
        <time>2023-06-04T20:19:57.815Z</time>
      </trkpt>
      <trkpt lat="51.380383" lon="6.184248">
        <ele>24.426939</ele>
        <time>2023-06-04T20:20:03.053Z</time>
      </trkpt>
      <trkpt lat="51.380482" lon="6.184644">
        <ele>24.430454</ele>
        <time>2023-06-04T20:20:11.747Z</time>
      </trkpt>
      <trkpt lat="51.380576" lon="6.184782">
        <ele>24.432137</ele>
        <time>2023-06-04T20:20:15.910Z</time>
      </trkpt>
      <trkpt lat="51.380667" lon="6.184918">
        <ele>24.433780</ele>
        <time>2023-06-04T20:20:19.998Z</time>
      </trkpt>
      <trkpt lat="51.380726" lon="6.185011">
        <ele>24.434873</ele>
        <time>2023-06-04T20:20:22.709Z</time>
      </trkpt>
      <trkpt lat="51.380779" lon="6.184996">
        <ele>24.435583</ele>
        <time>2023-06-04T20:20:24.482Z</time>
      </trkpt>
      <trkpt lat="51.380891" lon="6.185020">
        <ele>24.437075</ele>
        <time>2023-06-04T20:20:28.181Z</time>
      </trkpt>
      <trkpt lat="51.381331" lon="6.185593">
        <ele>24.438842</ele>
        <time>2023-06-04T20:20:46.791Z</time>
      </trkpt>
      <trkpt lat="51.381519" lon="6.185833">
        <ele>24.438842</ele>
        <time>2023-06-04T20:20:54.627Z</time>
      </trkpt>
      <trkpt lat="51.381626" lon="6.186043">
        <ele>24.438842</ele>
        <time>2023-06-04T20:21:00.170Z</time>
      </trkpt>
      <trkpt lat="51.381702" lon="6.186140">
        <ele>24.438842</ele>
        <time>2023-06-04T20:21:03.311Z</time>
      </trkpt>
      <trkpt lat="51.381749" lon="6.186045">
        <ele>24.438842</ele>
        <time>2023-06-04T20:21:05.197Z</time>
      </trkpt>
      <trkpt lat="51.381776" lon="6.185996">
        <ele>24.438842</ele>
        <time>2023-06-04T20:21:06.527Z</time>
      </trkpt>
      <trkpt lat="51.381701" lon="6.185896">
        <ele>24.438842</ele>
        <time>2023-06-04T20:21:09.724Z</time>
      </trkpt>
      <trkpt lat="51.381788" lon="6.185722">
        <ele>24.438842</ele>
        <time>2023-06-04T20:21:14.255Z</time>
      </trkpt>
      <trkpt lat="51.381893" lon="6.185521">
        <ele>24.438842</ele>
        <time>2023-06-04T20:21:19.619Z</time>
      </trkpt>
      <trkpt lat="51.381810" lon="6.185404">
        <ele>24.438842</ele>
        <time>2023-06-04T20:21:23.236Z</time>
      </trkpt>
    </trkseg>
  </trk>
</gpx>